<?xml version="1.0" encoding="UTF-8" standalone="no" ?>
<gpx xmlns="http://www.topografix.com/GPX/1/1" xmlns:xsi="http://www.w3.org/2001/XMLSchema-instance" xsi:schemaLocation="http://www.topografix.com/GPX/1/1 http://www.topografix.com/GPX/1/1/gpx.xsd" version="1.1" creator="VisuGPX - https://www.visugpx.com">
  <metadata>
    <name>Enclausetta</name>
    <desc><![CDATA[Grange di Argentera - Enclausetta]]></desc>
  </metadata>
  <trk>
    <name><![CDATA[Enclausetta_22 MAR 2017]]></name>
    <trkseg>
      <trkpt lat="44.39848" lon="6.92689">
        <ele>1761.27</ele>
        <time>2017-03-22T06:52:09Z</time>
      </trkpt>
      <trkpt lat="44.39848" lon="6.92688">
        <ele>1761.27</ele>
        <time>2017-03-22T06:52:10Z</time>
      </trkpt>
      <trkpt lat="44.39849" lon="6.9269">
        <ele>1759.83</ele>
        <time>2017-03-22T06:52:28Z</time>
      </trkpt>
      <trkpt lat="44.39852" lon="6.92692">
        <ele>1759.83</ele>
        <time>2017-03-22T06:53:01Z</time>
      </trkpt>
      <trkpt lat="44.39853" lon="6.92688">
        <ele>1759.83</ele>
        <time>2017-03-22T06:53:33Z</time>
      </trkpt>
      <trkpt lat="44.39852" lon="6.9269">
        <ele>1759.83</ele>
        <time>2017-03-22T06:54:00Z</time>
      </trkpt>
      <trkpt lat="44.39854" lon="6.9269">
        <ele>1759.83</ele>
        <time>2017-03-22T06:54:39Z</time>
      </trkpt>
      <trkpt lat="44.39853" lon="6.92687">
        <ele>1759.35</ele>
        <time>2017-03-22T06:55:11Z</time>
      </trkpt>
      <trkpt lat="44.39853" lon="6.92688">
        <ele>1759.83</ele>
        <time>2017-03-22T06:55:40Z</time>
      </trkpt>
      <trkpt lat="44.39853" lon="6.9269">
        <ele>1759.83</ele>
        <time>2017-03-22T06:56:06Z</time>
      </trkpt>
      <trkpt lat="44.3985" lon="6.92692">
        <ele>1759.83</ele>
        <time>2017-03-22T06:56:34Z</time>
      </trkpt>
      <trkpt lat="44.39852" lon="6.9269">
        <ele>1760.79</ele>
        <time>2017-03-22T06:57:04Z</time>
      </trkpt>
      <trkpt lat="44.39852" lon="6.92689">
        <ele>1760.79</ele>
        <time>2017-03-22T06:57:13Z</time>
      </trkpt>
      <trkpt lat="44.39863" lon="6.92675">
        <ele>1761.75</ele>
        <time>2017-03-22T06:57:26Z</time>
      </trkpt>
      <trkpt lat="44.39866" lon="6.92672">
        <ele>1762.23</ele>
        <time>2017-03-22T06:57:31Z</time>
      </trkpt>
      <trkpt lat="44.39864" lon="6.92663">
        <ele>1761.75</ele>
        <time>2017-03-22T06:57:37Z</time>
      </trkpt>
      <trkpt lat="44.39863" lon="6.92658">
        <ele>1762.23</ele>
        <time>2017-03-22T06:57:41Z</time>
      </trkpt>
      <trkpt lat="44.39866" lon="6.92634">
        <ele>1763.2</ele>
        <time>2017-03-22T06:57:58Z</time>
      </trkpt>
      <trkpt lat="44.39866" lon="6.92623">
        <ele>1762.71</ele>
        <time>2017-03-22T06:58:06Z</time>
      </trkpt>
      <trkpt lat="44.3987" lon="6.9261">
        <ele>1762.71</ele>
        <time>2017-03-22T06:58:17Z</time>
      </trkpt>
      <trkpt lat="44.39876" lon="6.92593">
        <ele>1761.75</ele>
        <time>2017-03-22T06:58:31Z</time>
      </trkpt>
      <trkpt lat="44.39878" lon="6.92578">
        <ele>1761.27</ele>
        <time>2017-03-22T06:58:44Z</time>
      </trkpt>
      <trkpt lat="44.39874" lon="6.92572">
        <ele>1762.23</ele>
        <time>2017-03-22T06:58:51Z</time>
      </trkpt>
      <trkpt lat="44.39871" lon="6.92568">
        <ele>1762.23</ele>
        <time>2017-03-22T06:58:54Z</time>
      </trkpt>
      <trkpt lat="44.39864" lon="6.92566">
        <ele>1762.71</ele>
        <time>2017-03-22T06:59:08Z</time>
      </trkpt>
      <trkpt lat="44.39862" lon="6.92566">
        <ele>1762.71</ele>
        <time>2017-03-22T06:59:20Z</time>
      </trkpt>
      <trkpt lat="44.39861" lon="6.92561">
        <ele>1762.71</ele>
        <time>2017-03-22T06:59:35Z</time>
      </trkpt>
      <trkpt lat="44.39863" lon="6.92567">
        <ele>1762.71</ele>
        <time>2017-03-22T06:59:53Z</time>
      </trkpt>
      <trkpt lat="44.39861" lon="6.92558">
        <ele>1763.2</ele>
        <time>2017-03-22T07:00:13Z</time>
      </trkpt>
      <trkpt lat="44.39859" lon="6.92557">
        <ele>1762.71</ele>
        <time>2017-03-22T07:00:32Z</time>
      </trkpt>
      <trkpt lat="44.39859" lon="6.92556">
        <ele>1763.2</ele>
        <time>2017-03-22T07:00:51Z</time>
      </trkpt>
      <trkpt lat="44.39859" lon="6.92555">
        <ele>1762.71</ele>
        <time>2017-03-22T07:01:16Z</time>
      </trkpt>
      <trkpt lat="44.39857" lon="6.92554">
        <ele>1763.2</ele>
        <time>2017-03-22T07:01:31Z</time>
      </trkpt>
      <trkpt lat="44.39855" lon="6.92554">
        <ele>1762.71</ele>
        <time>2017-03-22T07:01:45Z</time>
      </trkpt>
      <trkpt lat="44.39856" lon="6.92547">
        <ele>1765.6</ele>
        <time>2017-03-22T07:01:59Z</time>
      </trkpt>
      <trkpt lat="44.39858" lon="6.92549">
        <ele>1764.64</ele>
        <time>2017-03-22T07:02:13Z</time>
      </trkpt>
      <trkpt lat="44.39858" lon="6.92543">
        <ele>1763.68</ele>
        <time>2017-03-22T07:02:31Z</time>
      </trkpt>
      <trkpt lat="44.39859" lon="6.9254">
        <ele>1764.16</ele>
        <time>2017-03-22T07:02:50Z</time>
      </trkpt>
      <trkpt lat="44.39862" lon="6.92543">
        <ele>1764.64</ele>
        <time>2017-03-22T07:03:14Z</time>
      </trkpt>
      <trkpt lat="44.3986" lon="6.92543">
        <ele>1764.16</ele>
        <time>2017-03-22T07:03:40Z</time>
      </trkpt>
      <trkpt lat="44.39859" lon="6.92542">
        <ele>1766.08</ele>
        <time>2017-03-22T07:04:00Z</time>
      </trkpt>
      <trkpt lat="44.39867" lon="6.9253">
        <ele>1765.12</ele>
        <time>2017-03-22T07:04:16Z</time>
      </trkpt>
      <trkpt lat="44.39874" lon="6.92514">
        <ele>1767.04</ele>
        <time>2017-03-22T07:04:33Z</time>
      </trkpt>
      <trkpt lat="44.39874" lon="6.92502">
        <ele>1769.44</ele>
        <time>2017-03-22T07:04:50Z</time>
      </trkpt>
      <trkpt lat="44.39875" lon="6.92486">
        <ele>1769.92</ele>
        <time>2017-03-22T07:05:08Z</time>
      </trkpt>
      <trkpt lat="44.39874" lon="6.92478">
        <ele>1769.92</ele>
        <time>2017-03-22T07:05:21Z</time>
      </trkpt>
      <trkpt lat="44.39876" lon="6.92467">
        <ele>1770.41</ele>
        <time>2017-03-22T07:05:35Z</time>
      </trkpt>
      <trkpt lat="44.39868" lon="6.92461">
        <ele>1770.41</ele>
        <time>2017-03-22T07:05:47Z</time>
      </trkpt>
      <trkpt lat="44.39863" lon="6.92451">
        <ele>1771.37</ele>
        <time>2017-03-22T07:06:02Z</time>
      </trkpt>
      <trkpt lat="44.39857" lon="6.92442">
        <ele>1771.85</ele>
        <time>2017-03-22T07:06:11Z</time>
      </trkpt>
      <trkpt lat="44.39858" lon="6.92433">
        <ele>1771.85</ele>
        <time>2017-03-22T07:06:25Z</time>
      </trkpt>
      <trkpt lat="44.39858" lon="6.92417">
        <ele>1772.33</ele>
        <time>2017-03-22T07:06:39Z</time>
      </trkpt>
      <trkpt lat="44.39862" lon="6.92411">
        <ele>1773.77</ele>
        <time>2017-03-22T07:06:52Z</time>
      </trkpt>
      <trkpt lat="44.39863" lon="6.924">
        <ele>1773.77</ele>
        <time>2017-03-22T07:07:07Z</time>
      </trkpt>
      <trkpt lat="44.39856" lon="6.9239">
        <ele>1774.25</ele>
        <time>2017-03-22T07:07:21Z</time>
      </trkpt>
      <trkpt lat="44.39854" lon="6.92382">
        <ele>1775.21</ele>
        <time>2017-03-22T07:07:35Z</time>
      </trkpt>
      <trkpt lat="44.39851" lon="6.92373">
        <ele>1775.69</ele>
        <time>2017-03-22T07:07:49Z</time>
      </trkpt>
      <trkpt lat="44.39852" lon="6.92357">
        <ele>1776.65</ele>
        <time>2017-03-22T07:08:04Z</time>
      </trkpt>
      <trkpt lat="44.3985" lon="6.92342">
        <ele>1777.13</ele>
        <time>2017-03-22T07:08:20Z</time>
      </trkpt>
      <trkpt lat="44.39849" lon="6.92338">
        <ele>1777.13</ele>
        <time>2017-03-22T07:08:23Z</time>
      </trkpt>
      <trkpt lat="44.3985" lon="6.92326">
        <ele>1778.1</ele>
        <time>2017-03-22T07:08:40Z</time>
      </trkpt>
      <trkpt lat="44.39851" lon="6.92315">
        <ele>1779.06</ele>
        <time>2017-03-22T07:08:53Z</time>
      </trkpt>
      <trkpt lat="44.39843" lon="6.92303">
        <ele>1780.02</ele>
        <time>2017-03-22T07:09:08Z</time>
      </trkpt>
      <trkpt lat="44.39837" lon="6.92295">
        <ele>1781.46</ele>
        <time>2017-03-22T07:09:21Z</time>
      </trkpt>
      <trkpt lat="44.39827" lon="6.92288">
        <ele>1781.94</ele>
        <time>2017-03-22T07:09:38Z</time>
      </trkpt>
      <trkpt lat="44.39823" lon="6.92286">
        <ele>1781.46</ele>
        <time>2017-03-22T07:09:54Z</time>
      </trkpt>
      <trkpt lat="44.39822" lon="6.92286">
        <ele>1781.94</ele>
        <time>2017-03-22T07:10:10Z</time>
      </trkpt>
      <trkpt lat="44.39823" lon="6.92291">
        <ele>1781.94</ele>
        <time>2017-03-22T07:10:26Z</time>
      </trkpt>
      <trkpt lat="44.39823" lon="6.92287">
        <ele>1781.46</ele>
        <time>2017-03-22T07:10:41Z</time>
      </trkpt>
      <trkpt lat="44.39819" lon="6.92286">
        <ele>1781.46</ele>
        <time>2017-03-22T07:10:59Z</time>
      </trkpt>
      <trkpt lat="44.39816" lon="6.92283">
        <ele>1781.94</ele>
        <time>2017-03-22T07:11:17Z</time>
      </trkpt>
      <trkpt lat="44.39816" lon="6.92286">
        <ele>1781.94</ele>
        <time>2017-03-22T07:11:32Z</time>
      </trkpt>
      <trkpt lat="44.39817" lon="6.92289">
        <ele>1781.46</ele>
        <time>2017-03-22T07:11:49Z</time>
      </trkpt>
      <trkpt lat="44.39815" lon="6.92286">
        <ele>1780.98</ele>
        <time>2017-03-22T07:12:04Z</time>
      </trkpt>
      <trkpt lat="44.39814" lon="6.9229">
        <ele>1780.5</ele>
        <time>2017-03-22T07:12:33Z</time>
      </trkpt>
      <trkpt lat="44.39816" lon="6.92292">
        <ele>1780.5</ele>
        <time>2017-03-22T07:13:04Z</time>
      </trkpt>
      <trkpt lat="44.39816" lon="6.92288">
        <ele>1780.02</ele>
        <time>2017-03-22T07:13:31Z</time>
      </trkpt>
      <trkpt lat="44.39817" lon="6.92287">
        <ele>1780.5</ele>
        <time>2017-03-22T07:13:51Z</time>
      </trkpt>
      <trkpt lat="44.39818" lon="6.92286">
        <ele>1780.5</ele>
        <time>2017-03-22T07:14:08Z</time>
      </trkpt>
      <trkpt lat="44.39817" lon="6.92287">
        <ele>1780.5</ele>
        <time>2017-03-22T07:14:26Z</time>
      </trkpt>
      <trkpt lat="44.39816" lon="6.92289">
        <ele>1780.5</ele>
        <time>2017-03-22T07:14:53Z</time>
      </trkpt>
      <trkpt lat="44.39816" lon="6.92287">
        <ele>1780.5</ele>
        <time>2017-03-22T07:15:20Z</time>
      </trkpt>
      <trkpt lat="44.39816" lon="6.92288">
        <ele>1780.02</ele>
        <time>2017-03-22T07:15:51Z</time>
      </trkpt>
      <trkpt lat="44.39814" lon="6.92286">
        <ele>1780.98</ele>
        <time>2017-03-22T07:16:10Z</time>
      </trkpt>
      <trkpt lat="44.39816" lon="6.92286">
        <ele>1780.5</ele>
        <time>2017-03-22T07:16:25Z</time>
      </trkpt>
      <trkpt lat="44.39818" lon="6.92288">
        <ele>1780.5</ele>
        <time>2017-03-22T07:16:39Z</time>
      </trkpt>
      <trkpt lat="44.39817" lon="6.92287">
        <ele>1780.5</ele>
        <time>2017-03-22T07:16:52Z</time>
      </trkpt>
      <trkpt lat="44.39815" lon="6.92287">
        <ele>1780.98</ele>
        <time>2017-03-22T07:17:07Z</time>
      </trkpt>
      <trkpt lat="44.39808" lon="6.92288">
        <ele>1781.46</ele>
        <time>2017-03-22T07:17:18Z</time>
      </trkpt>
      <trkpt lat="44.39806" lon="6.9229">
        <ele>1780.98</ele>
        <time>2017-03-22T07:17:32Z</time>
      </trkpt>
      <trkpt lat="44.39808" lon="6.92292">
        <ele>1781.94</ele>
        <time>2017-03-22T07:17:42Z</time>
      </trkpt>
      <trkpt lat="44.39805" lon="6.9229">
        <ele>1782.42</ele>
        <time>2017-03-22T07:17:59Z</time>
      </trkpt>
      <trkpt lat="44.39802" lon="6.9229">
        <ele>1782.9</ele>
        <time>2017-03-22T07:18:10Z</time>
      </trkpt>
      <trkpt lat="44.398" lon="6.9229">
        <ele>1782.42</ele>
        <time>2017-03-22T07:18:24Z</time>
      </trkpt>
      <trkpt lat="44.39799" lon="6.92289">
        <ele>1782.9</ele>
        <time>2017-03-22T07:18:27Z</time>
      </trkpt>
      <trkpt lat="44.39788" lon="6.92279">
        <ele>1784.34</ele>
        <time>2017-03-22T07:18:42Z</time>
      </trkpt>
      <trkpt lat="44.39781" lon="6.92268">
        <ele>1785.79</ele>
        <time>2017-03-22T07:18:57Z</time>
      </trkpt>
      <trkpt lat="44.39777" lon="6.92259">
        <ele>1786.75</ele>
        <time>2017-03-22T07:19:12Z</time>
      </trkpt>
      <trkpt lat="44.39773" lon="6.92247">
        <ele>1787.71</ele>
        <time>2017-03-22T07:19:26Z</time>
      </trkpt>
      <trkpt lat="44.39769" lon="6.92234">
        <ele>1788.67</ele>
        <time>2017-03-22T07:19:40Z</time>
      </trkpt>
      <trkpt lat="44.39764" lon="6.92223">
        <ele>1789.63</ele>
        <time>2017-03-22T07:19:53Z</time>
      </trkpt>
      <trkpt lat="44.39759" lon="6.92209">
        <ele>1791.55</ele>
        <time>2017-03-22T07:20:10Z</time>
      </trkpt>
      <trkpt lat="44.39753" lon="6.92199">
        <ele>1793</ele>
        <time>2017-03-22T07:20:26Z</time>
      </trkpt>
      <trkpt lat="44.39749" lon="6.92183">
        <ele>1793.48</ele>
        <time>2017-03-22T07:20:40Z</time>
      </trkpt>
      <trkpt lat="44.39744" lon="6.92169">
        <ele>1795.4</ele>
        <time>2017-03-22T07:20:55Z</time>
      </trkpt>
      <trkpt lat="44.39738" lon="6.92157">
        <ele>1797.8</ele>
        <time>2017-03-22T07:21:11Z</time>
      </trkpt>
      <trkpt lat="44.39732" lon="6.92146">
        <ele>1799.73</ele>
        <time>2017-03-22T07:21:27Z</time>
      </trkpt>
      <trkpt lat="44.39725" lon="6.92135">
        <ele>1801.65</ele>
        <time>2017-03-22T07:21:42Z</time>
      </trkpt>
      <trkpt lat="44.39721" lon="6.92125">
        <ele>1802.61</ele>
        <time>2017-03-22T07:21:58Z</time>
      </trkpt>
      <trkpt lat="44.39717" lon="6.92119">
        <ele>1803.57</ele>
        <time>2017-03-22T07:22:15Z</time>
      </trkpt>
      <trkpt lat="44.3971" lon="6.92109">
        <ele>1805.01</ele>
        <time>2017-03-22T07:22:28Z</time>
      </trkpt>
      <trkpt lat="44.39704" lon="6.92098">
        <ele>1806.94</ele>
        <time>2017-03-22T07:22:42Z</time>
      </trkpt>
      <trkpt lat="44.39703" lon="6.92089">
        <ele>1807.9</ele>
        <time>2017-03-22T07:22:51Z</time>
      </trkpt>
      <trkpt lat="44.39698" lon="6.92084">
        <ele>1808.86</ele>
        <time>2017-03-22T07:23:04Z</time>
      </trkpt>
      <trkpt lat="44.39688" lon="6.92075">
        <ele>1810.78</ele>
        <time>2017-03-22T07:23:20Z</time>
      </trkpt>
      <trkpt lat="44.39683" lon="6.92062">
        <ele>1813.66</ele>
        <time>2017-03-22T07:23:35Z</time>
      </trkpt>
      <trkpt lat="44.39671" lon="6.92051">
        <ele>1816.55</ele>
        <time>2017-03-22T07:23:51Z</time>
      </trkpt>
      <trkpt lat="44.39663" lon="6.92042">
        <ele>1818.47</ele>
        <time>2017-03-22T07:24:06Z</time>
      </trkpt>
      <trkpt lat="44.3966" lon="6.92037">
        <ele>1818.95</ele>
        <time>2017-03-22T07:24:18Z</time>
      </trkpt>
      <trkpt lat="44.39659" lon="6.92036">
        <ele>1818.95</ele>
        <time>2017-03-22T07:24:20Z</time>
      </trkpt>
      <trkpt lat="44.39649" lon="6.9203">
        <ele>1818.95</ele>
        <time>2017-03-22T07:24:33Z</time>
      </trkpt>
      <trkpt lat="44.39643" lon="6.92027">
        <ele>1819.91</ele>
        <time>2017-03-22T07:24:44Z</time>
      </trkpt>
      <trkpt lat="44.39637" lon="6.92019">
        <ele>1822.32</ele>
        <time>2017-03-22T07:25:00Z</time>
      </trkpt>
      <trkpt lat="44.39631" lon="6.92013">
        <ele>1823.28</ele>
        <time>2017-03-22T07:25:14Z</time>
      </trkpt>
      <trkpt lat="44.39624" lon="6.92002">
        <ele>1824.72</ele>
        <time>2017-03-22T07:25:29Z</time>
      </trkpt>
      <trkpt lat="44.39613" lon="6.9199">
        <ele>1826.64</ele>
        <time>2017-03-22T07:25:47Z</time>
      </trkpt>
      <trkpt lat="44.39607" lon="6.91985">
        <ele>1828.08</ele>
        <time>2017-03-22T07:25:59Z</time>
      </trkpt>
      <trkpt lat="44.39599" lon="6.91975">
        <ele>1829.05</ele>
        <time>2017-03-22T07:26:15Z</time>
      </trkpt>
      <trkpt lat="44.39601" lon="6.91965">
        <ele>1830.49</ele>
        <time>2017-03-22T07:26:29Z</time>
      </trkpt>
      <trkpt lat="44.39595" lon="6.91954">
        <ele>1832.41</ele>
        <time>2017-03-22T07:26:44Z</time>
      </trkpt>
      <trkpt lat="44.39589" lon="6.91949">
        <ele>1833.37</ele>
        <time>2017-03-22T07:26:57Z</time>
      </trkpt>
      <trkpt lat="44.39579" lon="6.91945">
        <ele>1835.29</ele>
        <time>2017-03-22T07:27:12Z</time>
      </trkpt>
      <trkpt lat="44.3957" lon="6.9194">
        <ele>1838.66</ele>
        <time>2017-03-22T07:27:30Z</time>
      </trkpt>
      <trkpt lat="44.39563" lon="6.91933">
        <ele>1841.54</ele>
        <time>2017-03-22T07:27:46Z</time>
      </trkpt>
      <trkpt lat="44.39556" lon="6.91927">
        <ele>1843.47</ele>
        <time>2017-03-22T07:28:03Z</time>
      </trkpt>
      <trkpt lat="44.39547" lon="6.91918">
        <ele>1845.87</ele>
        <time>2017-03-22T07:28:21Z</time>
      </trkpt>
      <trkpt lat="44.39541" lon="6.91911">
        <ele>1847.79</ele>
        <time>2017-03-22T07:28:38Z</time>
      </trkpt>
      <trkpt lat="44.39528" lon="6.91902">
        <ele>1849.71</ele>
        <time>2017-03-22T07:28:57Z</time>
      </trkpt>
      <trkpt lat="44.39521" lon="6.91892">
        <ele>1852.12</ele>
        <time>2017-03-22T07:29:15Z</time>
      </trkpt>
      <trkpt lat="44.39514" lon="6.91885">
        <ele>1853.56</ele>
        <time>2017-03-22T07:29:33Z</time>
      </trkpt>
      <trkpt lat="44.39508" lon="6.91878">
        <ele>1855.96</ele>
        <time>2017-03-22T07:29:48Z</time>
      </trkpt>
      <trkpt lat="44.39503" lon="6.91872">
        <ele>1857.4</ele>
        <time>2017-03-22T07:30:04Z</time>
      </trkpt>
      <trkpt lat="44.39498" lon="6.91868">
        <ele>1858.85</ele>
        <time>2017-03-22T07:30:21Z</time>
      </trkpt>
      <trkpt lat="44.39495" lon="6.91864">
        <ele>1859.81</ele>
        <time>2017-03-22T07:30:36Z</time>
      </trkpt>
      <trkpt lat="44.3949" lon="6.91857">
        <ele>1860.77</ele>
        <time>2017-03-22T07:30:47Z</time>
      </trkpt>
      <trkpt lat="44.3948" lon="6.91853">
        <ele>1862.69</ele>
        <time>2017-03-22T07:31:04Z</time>
      </trkpt>
      <trkpt lat="44.39473" lon="6.91843">
        <ele>1865.09</ele>
        <time>2017-03-22T07:31:23Z</time>
      </trkpt>
      <trkpt lat="44.39463" lon="6.91834">
        <ele>1867.02</ele>
        <time>2017-03-22T07:31:42Z</time>
      </trkpt>
      <trkpt lat="44.39455" lon="6.9183">
        <ele>1868.46</ele>
        <time>2017-03-22T07:31:58Z</time>
      </trkpt>
      <trkpt lat="44.3945" lon="6.91831">
        <ele>1869.42</ele>
        <time>2017-03-22T07:32:09Z</time>
      </trkpt>
      <trkpt lat="44.39442" lon="6.91827">
        <ele>1870.86</ele>
        <time>2017-03-22T07:32:27Z</time>
      </trkpt>
      <trkpt lat="44.39431" lon="6.9182">
        <ele>1871.82</ele>
        <time>2017-03-22T07:32:45Z</time>
      </trkpt>
      <trkpt lat="44.39421" lon="6.91814">
        <ele>1873.27</ele>
        <time>2017-03-22T07:33:04Z</time>
      </trkpt>
      <trkpt lat="44.39415" lon="6.91816">
        <ele>1874.23</ele>
        <time>2017-03-22T07:33:20Z</time>
      </trkpt>
      <trkpt lat="44.3941" lon="6.91809">
        <ele>1874.23</ele>
        <time>2017-03-22T07:33:36Z</time>
      </trkpt>
      <trkpt lat="44.39401" lon="6.91801">
        <ele>1876.15</ele>
        <time>2017-03-22T07:33:52Z</time>
      </trkpt>
      <trkpt lat="44.39389" lon="6.91794">
        <ele>1878.07</ele>
        <time>2017-03-22T07:34:10Z</time>
      </trkpt>
      <trkpt lat="44.39379" lon="6.91789">
        <ele>1880.48</ele>
        <time>2017-03-22T07:34:29Z</time>
      </trkpt>
      <trkpt lat="44.39369" lon="6.91783">
        <ele>1881.92</ele>
        <time>2017-03-22T07:34:44Z</time>
      </trkpt>
      <trkpt lat="44.39362" lon="6.91774">
        <ele>1883.84</ele>
        <time>2017-03-22T07:34:59Z</time>
      </trkpt>
      <trkpt lat="44.39355" lon="6.91771">
        <ele>1885.28</ele>
        <time>2017-03-22T07:35:12Z</time>
      </trkpt>
      <trkpt lat="44.39346" lon="6.91768">
        <ele>1887.21</ele>
        <time>2017-03-22T07:35:30Z</time>
      </trkpt>
      <trkpt lat="44.39337" lon="6.91765">
        <ele>1888.65</ele>
        <time>2017-03-22T07:35:44Z</time>
      </trkpt>
      <trkpt lat="44.39335" lon="6.91762">
        <ele>1889.61</ele>
        <time>2017-03-22T07:35:57Z</time>
      </trkpt>
      <trkpt lat="44.39331" lon="6.91749">
        <ele>1890.57</ele>
        <time>2017-03-22T07:36:11Z</time>
      </trkpt>
      <trkpt lat="44.39332" lon="6.91747">
        <ele>1890.09</ele>
        <time>2017-03-22T07:36:26Z</time>
      </trkpt>
      <trkpt lat="44.39329" lon="6.91746">
        <ele>1889.13</ele>
        <time>2017-03-22T07:36:41Z</time>
      </trkpt>
      <trkpt lat="44.39334" lon="6.91736">
        <ele>1889.61</ele>
        <time>2017-03-22T07:37:18Z</time>
      </trkpt>
      <trkpt lat="44.39333" lon="6.91743">
        <ele>1890.57</ele>
        <time>2017-03-22T07:37:40Z</time>
      </trkpt>
      <trkpt lat="44.39332" lon="6.91746">
        <ele>1890.09</ele>
        <time>2017-03-22T07:37:57Z</time>
      </trkpt>
      <trkpt lat="44.39332" lon="6.91744">
        <ele>1890.09</ele>
        <time>2017-03-22T07:38:16Z</time>
      </trkpt>
      <trkpt lat="44.39332" lon="6.91741">
        <ele>1890.09</ele>
        <time>2017-03-22T07:38:30Z</time>
      </trkpt>
      <trkpt lat="44.39332" lon="6.91744">
        <ele>1890.57</ele>
        <time>2017-03-22T07:38:43Z</time>
      </trkpt>
      <trkpt lat="44.39325" lon="6.91736">
        <ele>1890.09</ele>
        <time>2017-03-22T07:38:56Z</time>
      </trkpt>
      <trkpt lat="44.39318" lon="6.91737">
        <ele>1891.05</ele>
        <time>2017-03-22T07:39:07Z</time>
      </trkpt>
      <trkpt lat="44.39314" lon="6.91737">
        <ele>1892.97</ele>
        <time>2017-03-22T07:39:20Z</time>
      </trkpt>
      <trkpt lat="44.39314" lon="6.91736">
        <ele>1892.97</ele>
        <time>2017-03-22T07:39:41Z</time>
      </trkpt>
      <trkpt lat="44.39311" lon="6.91735">
        <ele>1892.97</ele>
        <time>2017-03-22T07:39:55Z</time>
      </trkpt>
      <trkpt lat="44.39312" lon="6.91735">
        <ele>1892.97</ele>
        <time>2017-03-22T07:40:11Z</time>
      </trkpt>
      <trkpt lat="44.39313" lon="6.91736">
        <ele>1892.49</ele>
        <time>2017-03-22T07:40:29Z</time>
      </trkpt>
      <trkpt lat="44.39315" lon="6.91738">
        <ele>1892.49</ele>
        <time>2017-03-22T07:40:58Z</time>
      </trkpt>
      <trkpt lat="44.39312" lon="6.91738">
        <ele>1892.97</ele>
        <time>2017-03-22T07:41:21Z</time>
      </trkpt>
      <trkpt lat="44.39313" lon="6.91735">
        <ele>1892.49</ele>
        <time>2017-03-22T07:41:45Z</time>
      </trkpt>
      <trkpt lat="44.39312" lon="6.91735">
        <ele>1892.49</ele>
        <time>2017-03-22T07:42:08Z</time>
      </trkpt>
      <trkpt lat="44.39313" lon="6.91736">
        <ele>1892.49</ele>
        <time>2017-03-22T07:42:29Z</time>
      </trkpt>
      <trkpt lat="44.39311" lon="6.91735">
        <ele>1892.49</ele>
        <time>2017-03-22T07:42:49Z</time>
      </trkpt>
      <trkpt lat="44.39306" lon="6.91726">
        <ele>1894.9</ele>
        <time>2017-03-22T07:43:05Z</time>
      </trkpt>
      <trkpt lat="44.39302" lon="6.91716">
        <ele>1897.3</ele>
        <time>2017-03-22T07:43:22Z</time>
      </trkpt>
      <trkpt lat="44.39299" lon="6.91716">
        <ele>1897.78</ele>
        <time>2017-03-22T07:43:40Z</time>
      </trkpt>
      <trkpt lat="44.39302" lon="6.91713">
        <ele>1898.26</ele>
        <time>2017-03-22T07:44:07Z</time>
      </trkpt>
      <trkpt lat="44.39293" lon="6.91704">
        <ele>1898.74</ele>
        <time>2017-03-22T07:44:24Z</time>
      </trkpt>
      <trkpt lat="44.39291" lon="6.91698">
        <ele>1899.22</ele>
        <time>2017-03-22T07:44:38Z</time>
      </trkpt>
      <trkpt lat="44.39287" lon="6.91685">
        <ele>1899.7</ele>
        <time>2017-03-22T07:44:52Z</time>
      </trkpt>
      <trkpt lat="44.39276" lon="6.91668">
        <ele>1900.66</ele>
        <time>2017-03-22T07:45:11Z</time>
      </trkpt>
      <trkpt lat="44.39273" lon="6.91659">
        <ele>1902.59</ele>
        <time>2017-03-22T07:45:28Z</time>
      </trkpt>
      <trkpt lat="44.39267" lon="6.91653">
        <ele>1904.03</ele>
        <time>2017-03-22T07:45:44Z</time>
      </trkpt>
      <trkpt lat="44.3926" lon="6.91646">
        <ele>1905.47</ele>
        <time>2017-03-22T07:46:02Z</time>
      </trkpt>
      <trkpt lat="44.39255" lon="6.9164">
        <ele>1906.43</ele>
        <time>2017-03-22T07:46:19Z</time>
      </trkpt>
      <trkpt lat="44.39246" lon="6.91633">
        <ele>1908.35</ele>
        <time>2017-03-22T07:46:39Z</time>
      </trkpt>
      <trkpt lat="44.39239" lon="6.91627">
        <ele>1910.28</ele>
        <time>2017-03-22T07:46:59Z</time>
      </trkpt>
      <trkpt lat="44.39235" lon="6.91619">
        <ele>1912.2</ele>
        <time>2017-03-22T07:47:18Z</time>
      </trkpt>
      <trkpt lat="44.39231" lon="6.91615">
        <ele>1914.12</ele>
        <time>2017-03-22T07:47:34Z</time>
      </trkpt>
      <trkpt lat="44.39238" lon="6.91609">
        <ele>1917.01</ele>
        <time>2017-03-22T07:47:52Z</time>
      </trkpt>
      <trkpt lat="44.39234" lon="6.91605">
        <ele>1917.01</ele>
        <time>2017-03-22T07:48:13Z</time>
      </trkpt>
      <trkpt lat="44.39226" lon="6.91601">
        <ele>1919.41</ele>
        <time>2017-03-22T07:48:36Z</time>
      </trkpt>
      <trkpt lat="44.39217" lon="6.91598">
        <ele>1919.89</ele>
        <time>2017-03-22T07:48:53Z</time>
      </trkpt>
      <trkpt lat="44.39211" lon="6.91594">
        <ele>1920.85</ele>
        <time>2017-03-22T07:49:09Z</time>
      </trkpt>
      <trkpt lat="44.39205" lon="6.91589">
        <ele>1922.29</ele>
        <time>2017-03-22T07:49:25Z</time>
      </trkpt>
      <trkpt lat="44.39199" lon="6.91585">
        <ele>1924.22</ele>
        <time>2017-03-22T07:49:41Z</time>
      </trkpt>
      <trkpt lat="44.39201" lon="6.91584">
        <ele>1925.18</ele>
        <time>2017-03-22T07:49:54Z</time>
      </trkpt>
      <trkpt lat="44.39199" lon="6.91581">
        <ele>1926.14</ele>
        <time>2017-03-22T07:50:07Z</time>
      </trkpt>
      <trkpt lat="44.39195" lon="6.91577">
        <ele>1927.58</ele>
        <time>2017-03-22T07:50:21Z</time>
      </trkpt>
      <trkpt lat="44.39193" lon="6.91575">
        <ele>1928.06</ele>
        <time>2017-03-22T07:50:35Z</time>
      </trkpt>
      <trkpt lat="44.39188" lon="6.91573">
        <ele>1929.98</ele>
        <time>2017-03-22T07:50:50Z</time>
      </trkpt>
      <trkpt lat="44.39184" lon="6.9157">
        <ele>1931.43</ele>
        <time>2017-03-22T07:51:07Z</time>
      </trkpt>
      <trkpt lat="44.39182" lon="6.91566">
        <ele>1932.39</ele>
        <time>2017-03-22T07:51:22Z</time>
      </trkpt>
      <trkpt lat="44.39176" lon="6.91562">
        <ele>1933.35</ele>
        <time>2017-03-22T07:51:39Z</time>
      </trkpt>
      <trkpt lat="44.39171" lon="6.91555">
        <ele>1934.31</ele>
        <time>2017-03-22T07:51:54Z</time>
      </trkpt>
      <trkpt lat="44.39163" lon="6.91546">
        <ele>1936.23</ele>
        <time>2017-03-22T07:52:12Z</time>
      </trkpt>
      <trkpt lat="44.39157" lon="6.91537">
        <ele>1937.19</ele>
        <time>2017-03-22T07:52:34Z</time>
      </trkpt>
      <trkpt lat="44.39159" lon="6.91536">
        <ele>1937.19</ele>
        <time>2017-03-22T07:52:59Z</time>
      </trkpt>
      <trkpt lat="44.39158" lon="6.91534">
        <ele>1936.71</ele>
        <time>2017-03-22T07:53:23Z</time>
      </trkpt>
      <trkpt lat="44.39153" lon="6.91533">
        <ele>1936.23</ele>
        <time>2017-03-22T07:53:38Z</time>
      </trkpt>
      <trkpt lat="44.39151" lon="6.91526">
        <ele>1935.27</ele>
        <time>2017-03-22T07:53:52Z</time>
      </trkpt>
      <trkpt lat="44.39146" lon="6.9152">
        <ele>1936.23</ele>
        <time>2017-03-22T07:54:07Z</time>
      </trkpt>
      <trkpt lat="44.39145" lon="6.91517">
        <ele>1937.19</ele>
        <time>2017-03-22T07:54:19Z</time>
      </trkpt>
      <trkpt lat="44.39143" lon="6.91514">
        <ele>1936.71</ele>
        <time>2017-03-22T07:54:41Z</time>
      </trkpt>
      <trkpt lat="44.3914" lon="6.91509">
        <ele>1938.16</ele>
        <time>2017-03-22T07:54:56Z</time>
      </trkpt>
      <trkpt lat="44.39136" lon="6.91507">
        <ele>1938.64</ele>
        <time>2017-03-22T07:55:10Z</time>
      </trkpt>
      <trkpt lat="44.39137" lon="6.91503">
        <ele>1939.12</ele>
        <time>2017-03-22T07:55:29Z</time>
      </trkpt>
      <trkpt lat="44.39134" lon="6.91502">
        <ele>1939.6</ele>
        <time>2017-03-22T07:55:45Z</time>
      </trkpt>
      <trkpt lat="44.39133" lon="6.915">
        <ele>1940.56</ele>
        <time>2017-03-22T07:55:58Z</time>
      </trkpt>
      <trkpt lat="44.39133" lon="6.91497">
        <ele>1942</ele>
        <time>2017-03-22T07:56:16Z</time>
      </trkpt>
      <trkpt lat="44.39137" lon="6.91493">
        <ele>1942.96</ele>
        <time>2017-03-22T07:56:29Z</time>
      </trkpt>
      <trkpt lat="44.39141" lon="6.91491">
        <ele>1944.88</ele>
        <time>2017-03-22T07:56:43Z</time>
      </trkpt>
      <trkpt lat="44.39145" lon="6.91489">
        <ele>1945.85</ele>
        <time>2017-03-22T07:56:56Z</time>
      </trkpt>
      <trkpt lat="44.39146" lon="6.91482">
        <ele>1947.29</ele>
        <time>2017-03-22T07:57:09Z</time>
      </trkpt>
      <trkpt lat="44.39142" lon="6.91476">
        <ele>1948.25</ele>
        <time>2017-03-22T07:57:24Z</time>
      </trkpt>
      <trkpt lat="44.3914" lon="6.91472">
        <ele>1949.69</ele>
        <time>2017-03-22T07:57:38Z</time>
      </trkpt>
      <trkpt lat="44.39136" lon="6.91467">
        <ele>1951.13</ele>
        <time>2017-03-22T07:57:53Z</time>
      </trkpt>
      <trkpt lat="44.39132" lon="6.91465">
        <ele>1952.57</ele>
        <time>2017-03-22T07:58:09Z</time>
      </trkpt>
      <trkpt lat="44.39128" lon="6.91462">
        <ele>1954.5</ele>
        <time>2017-03-22T07:58:21Z</time>
      </trkpt>
      <trkpt lat="44.39129" lon="6.91462">
        <ele>1954.5</ele>
        <time>2017-03-22T07:58:40Z</time>
      </trkpt>
      <trkpt lat="44.39132" lon="6.91457">
        <ele>1956.42</ele>
        <time>2017-03-22T07:58:56Z</time>
      </trkpt>
      <trkpt lat="44.39133" lon="6.91454">
        <ele>1957.86</ele>
        <time>2017-03-22T07:59:10Z</time>
      </trkpt>
      <trkpt lat="44.39138" lon="6.91447">
        <ele>1959.3</ele>
        <time>2017-03-22T07:59:26Z</time>
      </trkpt>
      <trkpt lat="44.39134" lon="6.91443">
        <ele>1959.78</ele>
        <time>2017-03-22T07:59:43Z</time>
      </trkpt>
      <trkpt lat="44.39132" lon="6.9144">
        <ele>1961.23</ele>
        <time>2017-03-22T07:59:57Z</time>
      </trkpt>
      <trkpt lat="44.39127" lon="6.91436">
        <ele>1963.15</ele>
        <time>2017-03-22T08:00:15Z</time>
      </trkpt>
      <trkpt lat="44.39126" lon="6.91432">
        <ele>1965.07</ele>
        <time>2017-03-22T08:00:31Z</time>
      </trkpt>
      <trkpt lat="44.39127" lon="6.91427">
        <ele>1966.51</ele>
        <time>2017-03-22T08:00:48Z</time>
      </trkpt>
      <trkpt lat="44.3913" lon="6.91423">
        <ele>1967.96</ele>
        <time>2017-03-22T08:01:01Z</time>
      </trkpt>
      <trkpt lat="44.39133" lon="6.91419">
        <ele>1968.92</ele>
        <time>2017-03-22T08:01:15Z</time>
      </trkpt>
      <trkpt lat="44.39129" lon="6.91414">
        <ele>1970.36</ele>
        <time>2017-03-22T08:01:37Z</time>
      </trkpt>
      <trkpt lat="44.39125" lon="6.91408">
        <ele>1972.76</ele>
        <time>2017-03-22T08:01:53Z</time>
      </trkpt>
      <trkpt lat="44.3912" lon="6.91402">
        <ele>1974.69</ele>
        <time>2017-03-22T08:02:10Z</time>
      </trkpt>
      <trkpt lat="44.3912" lon="6.91397">
        <ele>1976.13</ele>
        <time>2017-03-22T08:02:24Z</time>
      </trkpt>
      <trkpt lat="44.39121" lon="6.91393">
        <ele>1977.57</ele>
        <time>2017-03-22T08:02:37Z</time>
      </trkpt>
      <trkpt lat="44.39123" lon="6.91386">
        <ele>1979.01</ele>
        <time>2017-03-22T08:02:52Z</time>
      </trkpt>
      <trkpt lat="44.39121" lon="6.91381">
        <ele>1981.9</ele>
        <time>2017-03-22T08:03:04Z</time>
      </trkpt>
      <trkpt lat="44.39118" lon="6.91375">
        <ele>1981.9</ele>
        <time>2017-03-22T08:03:22Z</time>
      </trkpt>
      <trkpt lat="44.39116" lon="6.9137">
        <ele>1983.34</ele>
        <time>2017-03-22T08:03:37Z</time>
      </trkpt>
      <trkpt lat="44.39114" lon="6.91367">
        <ele>1984.78</ele>
        <time>2017-03-22T08:03:51Z</time>
      </trkpt>
      <trkpt lat="44.39111" lon="6.91362">
        <ele>1985.74</ele>
        <time>2017-03-22T08:04:05Z</time>
      </trkpt>
      <trkpt lat="44.39109" lon="6.91357">
        <ele>1986.7</ele>
        <time>2017-03-22T08:04:17Z</time>
      </trkpt>
      <trkpt lat="44.39106" lon="6.91355">
        <ele>1987.18</ele>
        <time>2017-03-22T08:04:28Z</time>
      </trkpt>
      <trkpt lat="44.39107" lon="6.91349">
        <ele>1988.14</ele>
        <time>2017-03-22T08:04:42Z</time>
      </trkpt>
      <trkpt lat="44.39107" lon="6.91349">
        <ele>1987.18</ele>
        <time>2017-03-22T08:04:56Z</time>
      </trkpt>
      <trkpt lat="44.39111" lon="6.91349">
        <ele>1987.18</ele>
        <time>2017-03-22T08:05:28Z</time>
      </trkpt>
      <trkpt lat="44.39109" lon="6.91348">
        <ele>1987.18</ele>
        <time>2017-03-22T08:05:55Z</time>
      </trkpt>
      <trkpt lat="44.39109" lon="6.91351">
        <ele>1988.14</ele>
        <time>2017-03-22T08:05:58Z</time>
      </trkpt>
      <trkpt lat="44.39106" lon="6.91349">
        <ele>1989.1</ele>
        <time>2017-03-22T08:06:15Z</time>
      </trkpt>
      <trkpt lat="44.39107" lon="6.91337">
        <ele>1990.55</ele>
        <time>2017-03-22T08:06:35Z</time>
      </trkpt>
      <trkpt lat="44.39102" lon="6.91329">
        <ele>1992.47</ele>
        <time>2017-03-22T08:06:50Z</time>
      </trkpt>
      <trkpt lat="44.39101" lon="6.91327">
        <ele>1997.28</ele>
        <time>2017-03-22T08:06:56Z</time>
      </trkpt>
      <trkpt lat="44.39101" lon="6.91326">
        <ele>1992.95</ele>
        <time>2017-03-22T08:06:57Z</time>
      </trkpt>
      <trkpt lat="44.39101" lon="6.91322">
        <ele>1994.39</ele>
        <time>2017-03-22T08:07:12Z</time>
      </trkpt>
      <trkpt lat="44.39095" lon="6.91317">
        <ele>1996.32</ele>
        <time>2017-03-22T08:07:29Z</time>
      </trkpt>
      <trkpt lat="44.39092" lon="6.9131">
        <ele>1997.76</ele>
        <time>2017-03-22T08:07:43Z</time>
      </trkpt>
      <trkpt lat="44.39087" lon="6.91304">
        <ele>1998.72</ele>
        <time>2017-03-22T08:07:56Z</time>
      </trkpt>
      <trkpt lat="44.39084" lon="6.91299">
        <ele>2000.16</ele>
        <time>2017-03-22T08:08:11Z</time>
      </trkpt>
      <trkpt lat="44.39082" lon="6.91292">
        <ele>2002.08</ele>
        <time>2017-03-22T08:08:26Z</time>
      </trkpt>
      <trkpt lat="44.39081" lon="6.91288">
        <ele>2003.52</ele>
        <time>2017-03-22T08:08:41Z</time>
      </trkpt>
      <trkpt lat="44.39079" lon="6.91281">
        <ele>2004.49</ele>
        <time>2017-03-22T08:08:54Z</time>
      </trkpt>
      <trkpt lat="44.39078" lon="6.91273">
        <ele>2006.41</ele>
        <time>2017-03-22T08:09:09Z</time>
      </trkpt>
      <trkpt lat="44.39076" lon="6.91275">
        <ele>2007.37</ele>
        <time>2017-03-22T08:09:30Z</time>
      </trkpt>
      <trkpt lat="44.39074" lon="6.91267">
        <ele>2009.29</ele>
        <time>2017-03-22T08:09:44Z</time>
      </trkpt>
      <trkpt lat="44.3907" lon="6.91262">
        <ele>2011.22</ele>
        <time>2017-03-22T08:10:00Z</time>
      </trkpt>
      <trkpt lat="44.39071" lon="6.91259">
        <ele>2011.7</ele>
        <time>2017-03-22T08:10:27Z</time>
      </trkpt>
      <trkpt lat="44.39067" lon="6.91254">
        <ele>2013.14</ele>
        <time>2017-03-22T08:10:43Z</time>
      </trkpt>
      <trkpt lat="44.39065" lon="6.9125">
        <ele>2014.1</ele>
        <time>2017-03-22T08:10:55Z</time>
      </trkpt>
      <trkpt lat="44.39061" lon="6.91243">
        <ele>2017.46</ele>
        <time>2017-03-22T08:11:08Z</time>
      </trkpt>
      <trkpt lat="44.39058" lon="6.91236">
        <ele>2017.46</ele>
        <time>2017-03-22T08:11:21Z</time>
      </trkpt>
      <trkpt lat="44.39053" lon="6.91229">
        <ele>2019.39</ele>
        <time>2017-03-22T08:11:36Z</time>
      </trkpt>
      <trkpt lat="44.3905" lon="6.91223">
        <ele>2021.31</ele>
        <time>2017-03-22T08:11:53Z</time>
      </trkpt>
      <trkpt lat="44.39047" lon="6.91217">
        <ele>2022.75</ele>
        <time>2017-03-22T08:12:09Z</time>
      </trkpt>
      <trkpt lat="44.39044" lon="6.9121">
        <ele>2024.19</ele>
        <time>2017-03-22T08:12:23Z</time>
      </trkpt>
      <trkpt lat="44.39039" lon="6.91201">
        <ele>2026.12</ele>
        <time>2017-03-22T08:12:40Z</time>
      </trkpt>
      <trkpt lat="44.39034" lon="6.91195">
        <ele>2028.04</ele>
        <time>2017-03-22T08:12:54Z</time>
      </trkpt>
      <trkpt lat="44.39032" lon="6.9119">
        <ele>2029</ele>
        <time>2017-03-22T08:13:07Z</time>
      </trkpt>
      <trkpt lat="44.39029" lon="6.91185">
        <ele>2029.96</ele>
        <time>2017-03-22T08:13:20Z</time>
      </trkpt>
      <trkpt lat="44.39027" lon="6.9118">
        <ele>2030.92</ele>
        <time>2017-03-22T08:13:36Z</time>
      </trkpt>
      <trkpt lat="44.39022" lon="6.91177">
        <ele>2032.36</ele>
        <time>2017-03-22T08:13:51Z</time>
      </trkpt>
      <trkpt lat="44.39017" lon="6.9117">
        <ele>2033.81</ele>
        <time>2017-03-22T08:14:05Z</time>
      </trkpt>
      <trkpt lat="44.39012" lon="6.91164">
        <ele>2034.77</ele>
        <time>2017-03-22T08:14:21Z</time>
      </trkpt>
      <trkpt lat="44.39007" lon="6.91159">
        <ele>2036.69</ele>
        <time>2017-03-22T08:14:40Z</time>
      </trkpt>
      <trkpt lat="44.39004" lon="6.91153">
        <ele>2038.61</ele>
        <time>2017-03-22T08:14:55Z</time>
      </trkpt>
      <trkpt lat="44.39001" lon="6.91148">
        <ele>2040.05</ele>
        <time>2017-03-22T08:15:09Z</time>
      </trkpt>
      <trkpt lat="44.38995" lon="6.91142">
        <ele>2042.46</ele>
        <time>2017-03-22T08:15:27Z</time>
      </trkpt>
      <trkpt lat="44.38991" lon="6.91137">
        <ele>2044.38</ele>
        <time>2017-03-22T08:15:43Z</time>
      </trkpt>
      <trkpt lat="44.38987" lon="6.91132">
        <ele>2046.3</ele>
        <time>2017-03-22T08:15:57Z</time>
      </trkpt>
      <trkpt lat="44.38984" lon="6.91127">
        <ele>2048.23</ele>
        <time>2017-03-22T08:16:13Z</time>
      </trkpt>
      <trkpt lat="44.3898" lon="6.91123">
        <ele>2050.63</ele>
        <time>2017-03-22T08:16:30Z</time>
      </trkpt>
      <trkpt lat="44.38976" lon="6.91118">
        <ele>2052.07</ele>
        <time>2017-03-22T08:16:44Z</time>
      </trkpt>
      <trkpt lat="44.38972" lon="6.91116">
        <ele>2054.47</ele>
        <time>2017-03-22T08:16:59Z</time>
      </trkpt>
      <trkpt lat="44.3897" lon="6.91109">
        <ele>2056.4</ele>
        <time>2017-03-22T08:17:16Z</time>
      </trkpt>
      <trkpt lat="44.38968" lon="6.91103">
        <ele>2057.84</ele>
        <time>2017-03-22T08:17:30Z</time>
      </trkpt>
      <trkpt lat="44.38965" lon="6.91098">
        <ele>2059.28</ele>
        <time>2017-03-22T08:17:45Z</time>
      </trkpt>
      <trkpt lat="44.38965" lon="6.9109">
        <ele>2060.72</ele>
        <time>2017-03-22T08:18:00Z</time>
      </trkpt>
      <trkpt lat="44.38963" lon="6.91089">
        <ele>2061.2</ele>
        <time>2017-03-22T08:18:16Z</time>
      </trkpt>
      <trkpt lat="44.38961" lon="6.91084">
        <ele>2061.2</ele>
        <time>2017-03-22T08:18:31Z</time>
      </trkpt>
      <trkpt lat="44.38959" lon="6.91075">
        <ele>2062.17</ele>
        <time>2017-03-22T08:18:46Z</time>
      </trkpt>
      <trkpt lat="44.38955" lon="6.91071">
        <ele>2063.61</ele>
        <time>2017-03-22T08:19:01Z</time>
      </trkpt>
      <trkpt lat="44.38954" lon="6.9106">
        <ele>2065.53</ele>
        <time>2017-03-22T08:19:19Z</time>
      </trkpt>
      <trkpt lat="44.38954" lon="6.91055">
        <ele>2067.45</ele>
        <time>2017-03-22T08:19:35Z</time>
      </trkpt>
      <trkpt lat="44.38949" lon="6.91049">
        <ele>2069.38</ele>
        <time>2017-03-22T08:19:51Z</time>
      </trkpt>
      <trkpt lat="44.38946" lon="6.91049">
        <ele>2070.82</ele>
        <time>2017-03-22T08:20:05Z</time>
      </trkpt>
      <trkpt lat="44.3894" lon="6.91044">
        <ele>2073.22</ele>
        <time>2017-03-22T08:20:22Z</time>
      </trkpt>
      <trkpt lat="44.38941" lon="6.91037">
        <ele>2073.22</ele>
        <time>2017-03-22T08:20:34Z</time>
      </trkpt>
      <trkpt lat="44.38938" lon="6.91034">
        <ele>2074.66</ele>
        <time>2017-03-22T08:20:52Z</time>
      </trkpt>
      <trkpt lat="44.38935" lon="6.91023">
        <ele>2076.59</ele>
        <time>2017-03-22T08:21:08Z</time>
      </trkpt>
      <trkpt lat="44.38933" lon="6.91014">
        <ele>2078.03</ele>
        <time>2017-03-22T08:21:24Z</time>
      </trkpt>
      <trkpt lat="44.38932" lon="6.91009">
        <ele>2078.51</ele>
        <time>2017-03-22T08:21:36Z</time>
      </trkpt>
      <trkpt lat="44.38925" lon="6.91003">
        <ele>2080.43</ele>
        <time>2017-03-22T08:21:52Z</time>
      </trkpt>
      <trkpt lat="44.38921" lon="6.90997">
        <ele>2081.87</ele>
        <time>2017-03-22T08:22:09Z</time>
      </trkpt>
      <trkpt lat="44.38918" lon="6.90991">
        <ele>2083.79</ele>
        <time>2017-03-22T08:22:25Z</time>
      </trkpt>
      <trkpt lat="44.38913" lon="6.90987">
        <ele>2085.24</ele>
        <time>2017-03-22T08:22:40Z</time>
      </trkpt>
      <trkpt lat="44.38906" lon="6.90983">
        <ele>2086.68</ele>
        <time>2017-03-22T08:22:54Z</time>
      </trkpt>
      <trkpt lat="44.38902" lon="6.90978">
        <ele>2087.64</ele>
        <time>2017-03-22T08:23:09Z</time>
      </trkpt>
      <trkpt lat="44.38902" lon="6.90969">
        <ele>2089.08</ele>
        <time>2017-03-22T08:23:24Z</time>
      </trkpt>
      <trkpt lat="44.389" lon="6.90963">
        <ele>2090.52</ele>
        <time>2017-03-22T08:23:39Z</time>
      </trkpt>
      <trkpt lat="44.38898" lon="6.90956">
        <ele>2091.49</ele>
        <time>2017-03-22T08:23:56Z</time>
      </trkpt>
      <trkpt lat="44.38894" lon="6.90949">
        <ele>2092.93</ele>
        <time>2017-03-22T08:24:10Z</time>
      </trkpt>
      <trkpt lat="44.3889" lon="6.90946">
        <ele>2094.37</ele>
        <time>2017-03-22T08:24:24Z</time>
      </trkpt>
      <trkpt lat="44.38888" lon="6.90938">
        <ele>2096.29</ele>
        <time>2017-03-22T08:24:41Z</time>
      </trkpt>
      <trkpt lat="44.38881" lon="6.90935">
        <ele>2097.25</ele>
        <time>2017-03-22T08:24:57Z</time>
      </trkpt>
      <trkpt lat="44.38878" lon="6.90931">
        <ele>2098.21</ele>
        <time>2017-03-22T08:25:11Z</time>
      </trkpt>
      <trkpt lat="44.38874" lon="6.90925">
        <ele>2099.66</ele>
        <time>2017-03-22T08:25:23Z</time>
      </trkpt>
      <trkpt lat="44.38872" lon="6.90918">
        <ele>2100.62</ele>
        <time>2017-03-22T08:25:38Z</time>
      </trkpt>
      <trkpt lat="44.38868" lon="6.90913">
        <ele>2102.06</ele>
        <time>2017-03-22T08:25:53Z</time>
      </trkpt>
      <trkpt lat="44.38864" lon="6.90911">
        <ele>2103.5</ele>
        <time>2017-03-22T08:26:06Z</time>
      </trkpt>
      <trkpt lat="44.38861" lon="6.90906">
        <ele>2104.94</ele>
        <time>2017-03-22T08:26:19Z</time>
      </trkpt>
      <trkpt lat="44.3886" lon="6.90898">
        <ele>2107.35</ele>
        <time>2017-03-22T08:26:36Z</time>
      </trkpt>
      <trkpt lat="44.38856" lon="6.90891">
        <ele>2108.79</ele>
        <time>2017-03-22T08:26:51Z</time>
      </trkpt>
      <trkpt lat="44.38853" lon="6.90885">
        <ele>2110.71</ele>
        <time>2017-03-22T08:27:06Z</time>
      </trkpt>
      <trkpt lat="44.38849" lon="6.90879">
        <ele>2112.15</ele>
        <time>2017-03-22T08:27:22Z</time>
      </trkpt>
      <trkpt lat="44.38845" lon="6.90871">
        <ele>2113.12</ele>
        <time>2017-03-22T08:27:37Z</time>
      </trkpt>
      <trkpt lat="44.38842" lon="6.90865">
        <ele>2115.52</ele>
        <time>2017-03-22T08:27:56Z</time>
      </trkpt>
      <trkpt lat="44.3884" lon="6.90863">
        <ele>2116</ele>
        <time>2017-03-22T08:28:16Z</time>
      </trkpt>
      <trkpt lat="44.38836" lon="6.90856">
        <ele>2116.96</ele>
        <time>2017-03-22T08:28:29Z</time>
      </trkpt>
      <trkpt lat="44.38834" lon="6.90852">
        <ele>2118.4</ele>
        <time>2017-03-22T08:28:45Z</time>
      </trkpt>
      <trkpt lat="44.38831" lon="6.90848">
        <ele>2119.36</ele>
        <time>2017-03-22T08:29:03Z</time>
      </trkpt>
      <trkpt lat="44.38828" lon="6.90842">
        <ele>2121.29</ele>
        <time>2017-03-22T08:29:20Z</time>
      </trkpt>
      <trkpt lat="44.38826" lon="6.90837">
        <ele>2122.73</ele>
        <time>2017-03-22T08:29:32Z</time>
      </trkpt>
      <trkpt lat="44.38826" lon="6.90831">
        <ele>2123.69</ele>
        <time>2017-03-22T08:29:46Z</time>
      </trkpt>
      <trkpt lat="44.38822" lon="6.90825">
        <ele>2125.61</ele>
        <time>2017-03-22T08:30:00Z</time>
      </trkpt>
      <trkpt lat="44.3882" lon="6.9082">
        <ele>2127.05</ele>
        <time>2017-03-22T08:30:15Z</time>
      </trkpt>
      <trkpt lat="44.38818" lon="6.90816">
        <ele>2128.98</ele>
        <time>2017-03-22T08:30:27Z</time>
      </trkpt>
      <trkpt lat="44.38814" lon="6.90811">
        <ele>2130.9</ele>
        <time>2017-03-22T08:30:41Z</time>
      </trkpt>
      <trkpt lat="44.38814" lon="6.90806">
        <ele>2132.34</ele>
        <time>2017-03-22T08:30:53Z</time>
      </trkpt>
      <trkpt lat="44.38814" lon="6.90799">
        <ele>2133.78</ele>
        <time>2017-03-22T08:31:07Z</time>
      </trkpt>
      <trkpt lat="44.3881" lon="6.90793">
        <ele>2135.23</ele>
        <time>2017-03-22T08:31:22Z</time>
      </trkpt>
      <trkpt lat="44.38807" lon="6.90787">
        <ele>2135.71</ele>
        <time>2017-03-22T08:31:37Z</time>
      </trkpt>
      <trkpt lat="44.38807" lon="6.90778">
        <ele>2137.15</ele>
        <time>2017-03-22T08:31:52Z</time>
      </trkpt>
      <trkpt lat="44.38805" lon="6.9077">
        <ele>2138.59</ele>
        <time>2017-03-22T08:32:08Z</time>
      </trkpt>
      <trkpt lat="44.38804" lon="6.90768">
        <ele>2140.51</ele>
        <time>2017-03-22T08:32:22Z</time>
      </trkpt>
      <trkpt lat="44.38809" lon="6.90765">
        <ele>2142.44</ele>
        <time>2017-03-22T08:32:37Z</time>
      </trkpt>
      <trkpt lat="44.38808" lon="6.9076">
        <ele>2143.4</ele>
        <time>2017-03-22T08:32:51Z</time>
      </trkpt>
      <trkpt lat="44.38805" lon="6.90756">
        <ele>2145.32</ele>
        <time>2017-03-22T08:33:05Z</time>
      </trkpt>
      <trkpt lat="44.38802" lon="6.90752">
        <ele>2146.76</ele>
        <time>2017-03-22T08:33:21Z</time>
      </trkpt>
      <trkpt lat="44.388" lon="6.9075">
        <ele>2147.24</ele>
        <time>2017-03-22T08:33:34Z</time>
      </trkpt>
      <trkpt lat="44.38797" lon="6.90744">
        <ele>2149.16</ele>
        <time>2017-03-22T08:33:50Z</time>
      </trkpt>
      <trkpt lat="44.38793" lon="6.90741">
        <ele>2150.61</ele>
        <time>2017-03-22T08:34:05Z</time>
      </trkpt>
      <trkpt lat="44.38792" lon="6.90739">
        <ele>2151.09</ele>
        <time>2017-03-22T08:34:20Z</time>
      </trkpt>
      <trkpt lat="44.38788" lon="6.90735">
        <ele>2152.53</ele>
        <time>2017-03-22T08:34:35Z</time>
      </trkpt>
      <trkpt lat="44.38786" lon="6.90732">
        <ele>2153.97</ele>
        <time>2017-03-22T08:34:49Z</time>
      </trkpt>
      <trkpt lat="44.38781" lon="6.90729">
        <ele>2155.89</ele>
        <time>2017-03-22T08:35:02Z</time>
      </trkpt>
      <trkpt lat="44.38777" lon="6.90726">
        <ele>2157.34</ele>
        <time>2017-03-22T08:35:16Z</time>
      </trkpt>
      <trkpt lat="44.38778" lon="6.90721">
        <ele>2159.26</ele>
        <time>2017-03-22T08:35:32Z</time>
      </trkpt>
      <trkpt lat="44.38782" lon="6.90717">
        <ele>2161.18</ele>
        <time>2017-03-22T08:35:48Z</time>
      </trkpt>
      <trkpt lat="44.38781" lon="6.90714">
        <ele>2162.14</ele>
        <time>2017-03-22T08:36:03Z</time>
      </trkpt>
      <trkpt lat="44.38785" lon="6.9071">
        <ele>2163.58</ele>
        <time>2017-03-22T08:36:18Z</time>
      </trkpt>
      <trkpt lat="44.38789" lon="6.90707">
        <ele>2164.55</ele>
        <time>2017-03-22T08:36:32Z</time>
      </trkpt>
      <trkpt lat="44.38794" lon="6.90703">
        <ele>2165.99</ele>
        <time>2017-03-22T08:36:46Z</time>
      </trkpt>
      <trkpt lat="44.38796" lon="6.90699">
        <ele>2168.39</ele>
        <time>2017-03-22T08:37:02Z</time>
      </trkpt>
      <trkpt lat="44.38795" lon="6.90694">
        <ele>2169.83</ele>
        <time>2017-03-22T08:37:17Z</time>
      </trkpt>
      <trkpt lat="44.38793" lon="6.9069">
        <ele>2170.31</ele>
        <time>2017-03-22T08:37:34Z</time>
      </trkpt>
      <trkpt lat="44.3879" lon="6.90685">
        <ele>2171.76</ele>
        <time>2017-03-22T08:37:53Z</time>
      </trkpt>
      <trkpt lat="44.38788" lon="6.90682">
        <ele>2172.72</ele>
        <time>2017-03-22T08:38:08Z</time>
      </trkpt>
      <trkpt lat="44.38785" lon="6.90679">
        <ele>2174.64</ele>
        <time>2017-03-22T08:38:23Z</time>
      </trkpt>
      <trkpt lat="44.38781" lon="6.90678">
        <ele>2176.08</ele>
        <time>2017-03-22T08:38:37Z</time>
      </trkpt>
      <trkpt lat="44.3878" lon="6.90675">
        <ele>2177.04</ele>
        <time>2017-03-22T08:38:50Z</time>
      </trkpt>
      <trkpt lat="44.38778" lon="6.90672">
        <ele>2178</ele>
        <time>2017-03-22T08:39:07Z</time>
      </trkpt>
      <trkpt lat="44.38775" lon="6.90667">
        <ele>2179.93</ele>
        <time>2017-03-22T08:39:27Z</time>
      </trkpt>
      <trkpt lat="44.38773" lon="6.90666">
        <ele>2180.89</ele>
        <time>2017-03-22T08:39:39Z</time>
      </trkpt>
      <trkpt lat="44.38774" lon="6.90662">
        <ele>2181.85</ele>
        <time>2017-03-22T08:39:51Z</time>
      </trkpt>
      <trkpt lat="44.38776" lon="6.90657">
        <ele>2183.77</ele>
        <time>2017-03-22T08:40:06Z</time>
      </trkpt>
      <trkpt lat="44.38772" lon="6.90651">
        <ele>2186.18</ele>
        <time>2017-03-22T08:40:22Z</time>
      </trkpt>
      <trkpt lat="44.38768" lon="6.90648">
        <ele>2188.1</ele>
        <time>2017-03-22T08:40:36Z</time>
      </trkpt>
      <trkpt lat="44.38764" lon="6.90643">
        <ele>2190.5</ele>
        <time>2017-03-22T08:40:51Z</time>
      </trkpt>
      <trkpt lat="44.38762" lon="6.90638">
        <ele>2190.98</ele>
        <time>2017-03-22T08:41:07Z</time>
      </trkpt>
      <trkpt lat="44.38762" lon="6.90629">
        <ele>2193.39</ele>
        <time>2017-03-22T08:41:25Z</time>
      </trkpt>
      <trkpt lat="44.3876" lon="6.90627">
        <ele>2194.83</ele>
        <time>2017-03-22T08:41:38Z</time>
      </trkpt>
      <trkpt lat="44.3876" lon="6.90627">
        <ele>2194.83</ele>
        <time>2017-03-22T08:41:50Z</time>
      </trkpt>
      <trkpt lat="44.38756" lon="6.90624">
        <ele>2196.27</ele>
        <time>2017-03-22T08:42:05Z</time>
      </trkpt>
      <trkpt lat="44.38753" lon="6.9062">
        <ele>2197.71</ele>
        <time>2017-03-22T08:42:20Z</time>
      </trkpt>
      <trkpt lat="44.38753" lon="6.90615">
        <ele>2198.19</ele>
        <time>2017-03-22T08:42:34Z</time>
      </trkpt>
      <trkpt lat="44.38754" lon="6.90615">
        <ele>2197.23</ele>
        <time>2017-03-22T08:42:55Z</time>
      </trkpt>
      <trkpt lat="44.38754" lon="6.90617">
        <ele>2197.23</ele>
        <time>2017-03-22T08:43:10Z</time>
      </trkpt>
      <trkpt lat="44.38754" lon="6.90614">
        <ele>2197.71</ele>
        <time>2017-03-22T08:43:27Z</time>
      </trkpt>
      <trkpt lat="44.38756" lon="6.90609">
        <ele>2199.15</ele>
        <time>2017-03-22T08:43:42Z</time>
      </trkpt>
      <trkpt lat="44.38757" lon="6.90604">
        <ele>2200.11</ele>
        <time>2017-03-22T08:43:56Z</time>
      </trkpt>
      <trkpt lat="44.38757" lon="6.90597">
        <ele>2202.04</ele>
        <time>2017-03-22T08:44:14Z</time>
      </trkpt>
      <trkpt lat="44.38758" lon="6.90591">
        <ele>2203</ele>
        <time>2017-03-22T08:44:26Z</time>
      </trkpt>
      <trkpt lat="44.38755" lon="6.90588">
        <ele>2204.44</ele>
        <time>2017-03-22T08:44:39Z</time>
      </trkpt>
      <trkpt lat="44.38755" lon="6.90583">
        <ele>2205.88</ele>
        <time>2017-03-22T08:44:54Z</time>
      </trkpt>
      <trkpt lat="44.38754" lon="6.90582">
        <ele>2205.88</ele>
        <time>2017-03-22T08:45:07Z</time>
      </trkpt>
      <trkpt lat="44.38752" lon="6.90582">
        <ele>2205.4</ele>
        <time>2017-03-22T08:45:39Z</time>
      </trkpt>
      <trkpt lat="44.38754" lon="6.90584">
        <ele>2205.4</ele>
        <time>2017-03-22T08:46:15Z</time>
      </trkpt>
      <trkpt lat="44.38753" lon="6.90583">
        <ele>2205.4</ele>
        <time>2017-03-22T08:47:00Z</time>
      </trkpt>
      <trkpt lat="44.38755" lon="6.90583">
        <ele>2205.4</ele>
        <time>2017-03-22T08:47:41Z</time>
      </trkpt>
      <trkpt lat="44.38755" lon="6.90582">
        <ele>2205.4</ele>
        <time>2017-03-22T08:48:24Z</time>
      </trkpt>
      <trkpt lat="44.38755" lon="6.90582">
        <ele>2205.88</ele>
        <time>2017-03-22T08:49:02Z</time>
      </trkpt>
      <trkpt lat="44.38756" lon="6.90581">
        <ele>2205.88</ele>
        <time>2017-03-22T08:49:48Z</time>
      </trkpt>
      <trkpt lat="44.38756" lon="6.90582">
        <ele>2205.4</ele>
        <time>2017-03-22T08:50:39Z</time>
      </trkpt>
      <trkpt lat="44.38754" lon="6.90583">
        <ele>2205.4</ele>
        <time>2017-03-22T08:51:17Z</time>
      </trkpt>
      <trkpt lat="44.38755" lon="6.90579">
        <ele>2207.32</ele>
        <time>2017-03-22T08:51:36Z</time>
      </trkpt>
      <trkpt lat="44.38752" lon="6.90572">
        <ele>2210.21</ele>
        <time>2017-03-22T08:51:54Z</time>
      </trkpt>
      <trkpt lat="44.38749" lon="6.90568">
        <ele>2212.13</ele>
        <time>2017-03-22T08:52:12Z</time>
      </trkpt>
      <trkpt lat="44.38748" lon="6.90561">
        <ele>2215.01</ele>
        <time>2017-03-22T08:52:29Z</time>
      </trkpt>
      <trkpt lat="44.38746" lon="6.90554">
        <ele>2216.94</ele>
        <time>2017-03-22T08:52:49Z</time>
      </trkpt>
      <trkpt lat="44.38749" lon="6.90549">
        <ele>2219.34</ele>
        <time>2017-03-22T08:53:09Z</time>
      </trkpt>
      <trkpt lat="44.38751" lon="6.90545">
        <ele>2222.22</ele>
        <time>2017-03-22T08:53:21Z</time>
      </trkpt>
      <trkpt lat="44.38754" lon="6.90537">
        <ele>2223.19</ele>
        <time>2017-03-22T08:53:39Z</time>
      </trkpt>
      <trkpt lat="44.38752" lon="6.90529">
        <ele>2224.63</ele>
        <time>2017-03-22T08:53:59Z</time>
      </trkpt>
      <trkpt lat="44.38747" lon="6.90527">
        <ele>2226.55</ele>
        <time>2017-03-22T08:54:21Z</time>
      </trkpt>
      <trkpt lat="44.38742" lon="6.90521">
        <ele>2229.43</ele>
        <time>2017-03-22T08:54:38Z</time>
      </trkpt>
      <trkpt lat="44.38741" lon="6.90517">
        <ele>2231.84</ele>
        <time>2017-03-22T08:54:56Z</time>
      </trkpt>
      <trkpt lat="44.38746" lon="6.90515">
        <ele>2233.28</ele>
        <time>2017-03-22T08:55:11Z</time>
      </trkpt>
      <trkpt lat="44.38752" lon="6.90509">
        <ele>2235.2</ele>
        <time>2017-03-22T08:55:28Z</time>
      </trkpt>
      <trkpt lat="44.38756" lon="6.90506">
        <ele>2237.13</ele>
        <time>2017-03-22T08:55:45Z</time>
      </trkpt>
      <trkpt lat="44.38756" lon="6.90493">
        <ele>2239.53</ele>
        <time>2017-03-22T08:56:03Z</time>
      </trkpt>
      <trkpt lat="44.38753" lon="6.90486">
        <ele>2241.93</ele>
        <time>2017-03-22T08:56:21Z</time>
      </trkpt>
      <trkpt lat="44.38754" lon="6.9048">
        <ele>2243.85</ele>
        <time>2017-03-22T08:56:41Z</time>
      </trkpt>
      <trkpt lat="44.38754" lon="6.90482">
        <ele>2244.33</ele>
        <time>2017-03-22T08:56:55Z</time>
      </trkpt>
      <trkpt lat="44.38753" lon="6.90484">
        <ele>2245.3</ele>
        <time>2017-03-22T08:57:18Z</time>
      </trkpt>
      <trkpt lat="44.38755" lon="6.90479">
        <ele>2245.78</ele>
        <time>2017-03-22T08:57:34Z</time>
      </trkpt>
      <trkpt lat="44.38762" lon="6.90475">
        <ele>2248.18</ele>
        <time>2017-03-22T08:57:51Z</time>
      </trkpt>
      <trkpt lat="44.38767" lon="6.90469">
        <ele>2250.1</ele>
        <time>2017-03-22T08:58:05Z</time>
      </trkpt>
      <trkpt lat="44.38763" lon="6.90461">
        <ele>2251.54</ele>
        <time>2017-03-22T08:58:21Z</time>
      </trkpt>
      <trkpt lat="44.38761" lon="6.90455">
        <ele>2252.99</ele>
        <time>2017-03-22T08:58:38Z</time>
      </trkpt>
      <trkpt lat="44.38757" lon="6.90449">
        <ele>2254.43</ele>
        <time>2017-03-22T08:58:53Z</time>
      </trkpt>
      <trkpt lat="44.38753" lon="6.90442">
        <ele>2255.87</ele>
        <time>2017-03-22T08:59:12Z</time>
      </trkpt>
      <trkpt lat="44.38756" lon="6.90444">
        <ele>2257.79</ele>
        <time>2017-03-22T08:59:24Z</time>
      </trkpt>
      <trkpt lat="44.38763" lon="6.90444">
        <ele>2258.75</ele>
        <time>2017-03-22T08:59:40Z</time>
      </trkpt>
      <trkpt lat="44.3877" lon="6.90444">
        <ele>2260.2</ele>
        <time>2017-03-22T08:59:56Z</time>
      </trkpt>
      <trkpt lat="44.38777" lon="6.90441">
        <ele>2262.6</ele>
        <time>2017-03-22T09:00:15Z</time>
      </trkpt>
      <trkpt lat="44.38782" lon="6.90437">
        <ele>2265</ele>
        <time>2017-03-22T09:00:35Z</time>
      </trkpt>
      <trkpt lat="44.38787" lon="6.90435">
        <ele>2266.93</ele>
        <time>2017-03-22T09:00:51Z</time>
      </trkpt>
      <trkpt lat="44.38792" lon="6.90432">
        <ele>2268.37</ele>
        <time>2017-03-22T09:01:04Z</time>
      </trkpt>
      <trkpt lat="44.38798" lon="6.90429">
        <ele>2270.77</ele>
        <time>2017-03-22T09:01:22Z</time>
      </trkpt>
      <trkpt lat="44.38803" lon="6.90423">
        <ele>2272.69</ele>
        <time>2017-03-22T09:01:40Z</time>
      </trkpt>
      <trkpt lat="44.38807" lon="6.9042">
        <ele>2274.62</ele>
        <time>2017-03-22T09:01:53Z</time>
      </trkpt>
      <trkpt lat="44.38811" lon="6.90414">
        <ele>2276.06</ele>
        <time>2017-03-22T09:02:11Z</time>
      </trkpt>
      <trkpt lat="44.38815" lon="6.90409">
        <ele>2277.98</ele>
        <time>2017-03-22T09:02:29Z</time>
      </trkpt>
      <trkpt lat="44.38815" lon="6.90401">
        <ele>2280.38</ele>
        <time>2017-03-22T09:02:46Z</time>
      </trkpt>
      <trkpt lat="44.3881" lon="6.90395">
        <ele>2282.79</ele>
        <time>2017-03-22T09:03:04Z</time>
      </trkpt>
      <trkpt lat="44.38806" lon="6.90391">
        <ele>2285.19</ele>
        <time>2017-03-22T09:03:21Z</time>
      </trkpt>
      <trkpt lat="44.38802" lon="6.90387">
        <ele>2286.15</ele>
        <time>2017-03-22T09:03:39Z</time>
      </trkpt>
      <trkpt lat="44.38798" lon="6.90382">
        <ele>2288.08</ele>
        <time>2017-03-22T09:03:54Z</time>
      </trkpt>
      <trkpt lat="44.38792" lon="6.90378">
        <ele>2290</ele>
        <time>2017-03-22T09:04:12Z</time>
      </trkpt>
      <trkpt lat="44.38791" lon="6.90373">
        <ele>2291.92</ele>
        <time>2017-03-22T09:04:28Z</time>
      </trkpt>
      <trkpt lat="44.38795" lon="6.9037">
        <ele>2293.84</ele>
        <time>2017-03-22T09:04:44Z</time>
      </trkpt>
      <trkpt lat="44.38799" lon="6.90366">
        <ele>2295.77</ele>
        <time>2017-03-22T09:04:58Z</time>
      </trkpt>
      <trkpt lat="44.38804" lon="6.90362">
        <ele>2297.69</ele>
        <time>2017-03-22T09:05:14Z</time>
      </trkpt>
      <trkpt lat="44.38806" lon="6.90357">
        <ele>2299.61</ele>
        <time>2017-03-22T09:05:28Z</time>
      </trkpt>
      <trkpt lat="44.3881" lon="6.90352">
        <ele>2301.53</ele>
        <time>2017-03-22T09:05:44Z</time>
      </trkpt>
      <trkpt lat="44.38813" lon="6.90346">
        <ele>2303.46</ele>
        <time>2017-03-22T09:05:59Z</time>
      </trkpt>
      <trkpt lat="44.38813" lon="6.90341">
        <ele>2304.9</ele>
        <time>2017-03-22T09:06:15Z</time>
      </trkpt>
      <trkpt lat="44.38815" lon="6.90337">
        <ele>2306.34</ele>
        <time>2017-03-22T09:06:29Z</time>
      </trkpt>
      <trkpt lat="44.38815" lon="6.9033">
        <ele>2307.78</ele>
        <time>2017-03-22T09:06:45Z</time>
      </trkpt>
      <trkpt lat="44.38816" lon="6.9033">
        <ele>2308.26</ele>
        <time>2017-03-22T09:07:04Z</time>
      </trkpt>
      <trkpt lat="44.38816" lon="6.90327">
        <ele>2308.74</ele>
        <time>2017-03-22T09:07:18Z</time>
      </trkpt>
      <trkpt lat="44.38817" lon="6.9032">
        <ele>2310.19</ele>
        <time>2017-03-22T09:07:34Z</time>
      </trkpt>
      <trkpt lat="44.38816" lon="6.90312">
        <ele>2311.15</ele>
        <time>2017-03-22T09:07:47Z</time>
      </trkpt>
      <trkpt lat="44.38813" lon="6.90306">
        <ele>2313.07</ele>
        <time>2017-03-22T09:08:02Z</time>
      </trkpt>
      <trkpt lat="44.38813" lon="6.90299">
        <ele>2314.99</ele>
        <time>2017-03-22T09:08:18Z</time>
      </trkpt>
      <trkpt lat="44.3881" lon="6.90292">
        <ele>2316.43</ele>
        <time>2017-03-22T09:08:35Z</time>
      </trkpt>
      <trkpt lat="44.38806" lon="6.90287">
        <ele>2318.84</ele>
        <time>2017-03-22T09:08:54Z</time>
      </trkpt>
      <trkpt lat="44.38805" lon="6.90287">
        <ele>2319.32</ele>
        <time>2017-03-22T09:08:57Z</time>
      </trkpt>
      <trkpt lat="44.38802" lon="6.90282">
        <ele>2320.76</ele>
        <time>2017-03-22T09:09:10Z</time>
      </trkpt>
      <trkpt lat="44.38799" lon="6.90276">
        <ele>2324.12</ele>
        <time>2017-03-22T09:09:28Z</time>
      </trkpt>
      <trkpt lat="44.38796" lon="6.90271">
        <ele>2325.09</ele>
        <time>2017-03-22T09:09:46Z</time>
      </trkpt>
      <trkpt lat="44.38794" lon="6.90266">
        <ele>2327.01</ele>
        <time>2017-03-22T09:10:02Z</time>
      </trkpt>
      <trkpt lat="44.38795" lon="6.90263">
        <ele>2327.97</ele>
        <time>2017-03-22T09:10:16Z</time>
      </trkpt>
      <trkpt lat="44.38799" lon="6.90263">
        <ele>2329.41</ele>
        <time>2017-03-22T09:10:32Z</time>
      </trkpt>
      <trkpt lat="44.38802" lon="6.90261">
        <ele>2330.37</ele>
        <time>2017-03-22T09:10:45Z</time>
      </trkpt>
      <trkpt lat="44.38805" lon="6.90258">
        <ele>2331.33</ele>
        <time>2017-03-22T09:11:00Z</time>
      </trkpt>
      <trkpt lat="44.38808" lon="6.90254">
        <ele>2334.7</ele>
        <time>2017-03-22T09:11:16Z</time>
      </trkpt>
      <trkpt lat="44.38811" lon="6.90251">
        <ele>2334.7</ele>
        <time>2017-03-22T09:11:32Z</time>
      </trkpt>
      <trkpt lat="44.38814" lon="6.90243">
        <ele>2337.1</ele>
        <time>2017-03-22T09:11:46Z</time>
      </trkpt>
      <trkpt lat="44.38813" lon="6.90237">
        <ele>2338.54</ele>
        <time>2017-03-22T09:11:58Z</time>
      </trkpt>
      <trkpt lat="44.38814" lon="6.90227">
        <ele>2340.95</ele>
        <time>2017-03-22T09:12:14Z</time>
      </trkpt>
      <trkpt lat="44.38813" lon="6.90222">
        <ele>2342.87</ele>
        <time>2017-03-22T09:12:33Z</time>
      </trkpt>
      <trkpt lat="44.38816" lon="6.90216">
        <ele>2345.27</ele>
        <time>2017-03-22T09:12:50Z</time>
      </trkpt>
      <trkpt lat="44.38812" lon="6.9021">
        <ele>2346.72</ele>
        <time>2017-03-22T09:13:08Z</time>
      </trkpt>
      <trkpt lat="44.3881" lon="6.90205">
        <ele>2348.16</ele>
        <time>2017-03-22T09:13:23Z</time>
      </trkpt>
      <trkpt lat="44.38805" lon="6.90198">
        <ele>2350.56</ele>
        <time>2017-03-22T09:13:39Z</time>
      </trkpt>
      <trkpt lat="44.38803" lon="6.90191">
        <ele>2351.52</ele>
        <time>2017-03-22T09:13:54Z</time>
      </trkpt>
      <trkpt lat="44.388" lon="6.90184">
        <ele>2353.93</ele>
        <time>2017-03-22T09:14:11Z</time>
      </trkpt>
      <trkpt lat="44.38802" lon="6.90181">
        <ele>2355.85</ele>
        <time>2017-03-22T09:14:28Z</time>
      </trkpt>
      <trkpt lat="44.38805" lon="6.9018">
        <ele>2356.33</ele>
        <time>2017-03-22T09:14:43Z</time>
      </trkpt>
      <trkpt lat="44.38809" lon="6.90178">
        <ele>2357.77</ele>
        <time>2017-03-22T09:14:58Z</time>
      </trkpt>
      <trkpt lat="44.38813" lon="6.90176">
        <ele>2358.73</ele>
        <time>2017-03-22T09:15:12Z</time>
      </trkpt>
      <trkpt lat="44.38817" lon="6.90175">
        <ele>2359.69</ele>
        <time>2017-03-22T09:15:26Z</time>
      </trkpt>
      <trkpt lat="44.38821" lon="6.90174">
        <ele>2361.14</ele>
        <time>2017-03-22T09:15:40Z</time>
      </trkpt>
      <trkpt lat="44.38823" lon="6.90173">
        <ele>2361.62</ele>
        <time>2017-03-22T09:15:55Z</time>
      </trkpt>
      <trkpt lat="44.38827" lon="6.90171">
        <ele>2362.58</ele>
        <time>2017-03-22T09:16:09Z</time>
      </trkpt>
      <trkpt lat="44.38831" lon="6.90167">
        <ele>2364.02</ele>
        <time>2017-03-22T09:16:24Z</time>
      </trkpt>
      <trkpt lat="44.38829" lon="6.90161">
        <ele>2365.94</ele>
        <time>2017-03-22T09:16:39Z</time>
      </trkpt>
      <trkpt lat="44.38828" lon="6.9016">
        <ele>2366.9</ele>
        <time>2017-03-22T09:16:54Z</time>
      </trkpt>
      <trkpt lat="44.38826" lon="6.90157">
        <ele>2368.83</ele>
        <time>2017-03-22T09:17:12Z</time>
      </trkpt>
      <trkpt lat="44.38824" lon="6.90153">
        <ele>2369.79</ele>
        <time>2017-03-22T09:17:29Z</time>
      </trkpt>
      <trkpt lat="44.38823" lon="6.90148">
        <ele>2370.75</ele>
        <time>2017-03-22T09:17:42Z</time>
      </trkpt>
      <trkpt lat="44.3882" lon="6.90142">
        <ele>2372.19</ele>
        <time>2017-03-22T09:17:57Z</time>
      </trkpt>
      <trkpt lat="44.38817" lon="6.90138">
        <ele>2373.63</ele>
        <time>2017-03-22T09:18:12Z</time>
      </trkpt>
      <trkpt lat="44.38815" lon="6.90134">
        <ele>2374.59</ele>
        <time>2017-03-22T09:18:27Z</time>
      </trkpt>
      <trkpt lat="44.38813" lon="6.9013">
        <ele>2376.04</ele>
        <time>2017-03-22T09:18:43Z</time>
      </trkpt>
      <trkpt lat="44.38818" lon="6.90127">
        <ele>2377.96</ele>
        <time>2017-03-22T09:19:01Z</time>
      </trkpt>
      <trkpt lat="44.38821" lon="6.90122">
        <ele>2379.4</ele>
        <time>2017-03-22T09:19:17Z</time>
      </trkpt>
      <trkpt lat="44.38822" lon="6.90116">
        <ele>2380.84</ele>
        <time>2017-03-22T09:19:33Z</time>
      </trkpt>
      <trkpt lat="44.38819" lon="6.90112">
        <ele>2382.76</ele>
        <time>2017-03-22T09:19:48Z</time>
      </trkpt>
      <trkpt lat="44.38816" lon="6.90108">
        <ele>2383.73</ele>
        <time>2017-03-22T09:20:04Z</time>
      </trkpt>
      <trkpt lat="44.38812" lon="6.90104">
        <ele>2385.17</ele>
        <time>2017-03-22T09:20:17Z</time>
      </trkpt>
      <trkpt lat="44.3881" lon="6.901">
        <ele>2386.61</ele>
        <time>2017-03-22T09:20:33Z</time>
      </trkpt>
      <trkpt lat="44.38808" lon="6.90096">
        <ele>2388.05</ele>
        <time>2017-03-22T09:20:48Z</time>
      </trkpt>
      <trkpt lat="44.38805" lon="6.90092">
        <ele>2389.49</ele>
        <time>2017-03-22T09:21:02Z</time>
      </trkpt>
      <trkpt lat="44.38805" lon="6.9009">
        <ele>2390.94</ele>
        <time>2017-03-22T09:21:19Z</time>
      </trkpt>
      <trkpt lat="44.38808" lon="6.90088">
        <ele>2391.42</ele>
        <time>2017-03-22T09:21:34Z</time>
      </trkpt>
      <trkpt lat="44.3881" lon="6.90086">
        <ele>2391.9</ele>
        <time>2017-03-22T09:21:48Z</time>
      </trkpt>
      <trkpt lat="44.38811" lon="6.90087">
        <ele>2392.86</ele>
        <time>2017-03-22T09:22:06Z</time>
      </trkpt>
      <trkpt lat="44.38817" lon="6.9008">
        <ele>2394.78</ele>
        <time>2017-03-22T09:22:25Z</time>
      </trkpt>
      <trkpt lat="44.3882" lon="6.90077">
        <ele>2395.74</ele>
        <time>2017-03-22T09:22:40Z</time>
      </trkpt>
      <trkpt lat="44.38822" lon="6.90076">
        <ele>2397.67</ele>
        <time>2017-03-22T09:22:55Z</time>
      </trkpt>
      <trkpt lat="44.38825" lon="6.90073">
        <ele>2398.63</ele>
        <time>2017-03-22T09:23:07Z</time>
      </trkpt>
      <trkpt lat="44.38828" lon="6.90066">
        <ele>2400.07</ele>
        <time>2017-03-22T09:23:22Z</time>
      </trkpt>
      <trkpt lat="44.38827" lon="6.90059">
        <ele>2401.03</ele>
        <time>2017-03-22T09:23:36Z</time>
      </trkpt>
      <trkpt lat="44.38825" lon="6.90055">
        <ele>2402.47</ele>
        <time>2017-03-22T09:23:49Z</time>
      </trkpt>
      <trkpt lat="44.38821" lon="6.9005">
        <ele>2403.43</ele>
        <time>2017-03-22T09:24:03Z</time>
      </trkpt>
      <trkpt lat="44.38818" lon="6.90048">
        <ele>2404.88</ele>
        <time>2017-03-22T09:24:18Z</time>
      </trkpt>
      <trkpt lat="44.38817" lon="6.90044">
        <ele>2406.32</ele>
        <time>2017-03-22T09:24:33Z</time>
      </trkpt>
      <trkpt lat="44.38813" lon="6.90041">
        <ele>2408.24</ele>
        <time>2017-03-22T09:24:48Z</time>
      </trkpt>
      <trkpt lat="44.3881" lon="6.90038">
        <ele>2409.2</ele>
        <time>2017-03-22T09:25:02Z</time>
      </trkpt>
      <trkpt lat="44.38806" lon="6.90035">
        <ele>2410.64</ele>
        <time>2017-03-22T09:25:16Z</time>
      </trkpt>
      <trkpt lat="44.38805" lon="6.90031">
        <ele>2411.6</ele>
        <time>2017-03-22T09:25:29Z</time>
      </trkpt>
      <trkpt lat="44.38803" lon="6.90027">
        <ele>2413.05</ele>
        <time>2017-03-22T09:25:42Z</time>
      </trkpt>
      <trkpt lat="44.38806" lon="6.90025">
        <ele>2414.49</ele>
        <time>2017-03-22T09:25:57Z</time>
      </trkpt>
      <trkpt lat="44.3881" lon="6.90025">
        <ele>2415.93</ele>
        <time>2017-03-22T09:26:12Z</time>
      </trkpt>
      <trkpt lat="44.38815" lon="6.90022">
        <ele>2417.37</ele>
        <time>2017-03-22T09:26:28Z</time>
      </trkpt>
      <trkpt lat="44.3882" lon="6.9002">
        <ele>2418.81</ele>
        <time>2017-03-22T09:26:45Z</time>
      </trkpt>
      <trkpt lat="44.38822" lon="6.9002">
        <ele>2420.26</ele>
        <time>2017-03-22T09:27:00Z</time>
      </trkpt>
      <trkpt lat="44.38826" lon="6.90014">
        <ele>2422.18</ele>
        <time>2017-03-22T09:27:16Z</time>
      </trkpt>
      <trkpt lat="44.38826" lon="6.90005">
        <ele>2424.1</ele>
        <time>2017-03-22T09:27:32Z</time>
      </trkpt>
      <trkpt lat="44.38824" lon="6.9">
        <ele>2425.06</ele>
        <time>2017-03-22T09:27:46Z</time>
      </trkpt>
      <trkpt lat="44.38823" lon="6.89995">
        <ele>2426.02</ele>
        <time>2017-03-22T09:28:00Z</time>
      </trkpt>
      <trkpt lat="44.38822" lon="6.89992">
        <ele>2426.99</ele>
        <time>2017-03-22T09:28:15Z</time>
      </trkpt>
      <trkpt lat="44.38822" lon="6.89982">
        <ele>2428.43</ele>
        <time>2017-03-22T09:28:32Z</time>
      </trkpt>
      <trkpt lat="44.38822" lon="6.89976">
        <ele>2429.87</ele>
        <time>2017-03-22T09:28:46Z</time>
      </trkpt>
      <trkpt lat="44.38822" lon="6.8997">
        <ele>2431.79</ele>
        <time>2017-03-22T09:29:02Z</time>
      </trkpt>
      <trkpt lat="44.38818" lon="6.89962">
        <ele>2433.23</ele>
        <time>2017-03-22T09:29:16Z</time>
      </trkpt>
      <trkpt lat="44.38817" lon="6.89958">
        <ele>2433.23</ele>
        <time>2017-03-22T09:29:33Z</time>
      </trkpt>
      <trkpt lat="44.38819" lon="6.89957">
        <ele>2433.23</ele>
        <time>2017-03-22T09:30:09Z</time>
      </trkpt>
      <trkpt lat="44.38821" lon="6.89956">
        <ele>2433.23</ele>
        <time>2017-03-22T09:30:39Z</time>
      </trkpt>
      <trkpt lat="44.38821" lon="6.89956">
        <ele>2433.23</ele>
        <time>2017-03-22T09:31:15Z</time>
      </trkpt>
      <trkpt lat="44.38819" lon="6.89956">
        <ele>2432.27</ele>
        <time>2017-03-22T09:31:52Z</time>
      </trkpt>
      <trkpt lat="44.38817" lon="6.89958">
        <ele>2432.75</ele>
        <time>2017-03-22T09:32:18Z</time>
      </trkpt>
      <trkpt lat="44.38819" lon="6.89957">
        <ele>2433.23</ele>
        <time>2017-03-22T09:32:58Z</time>
      </trkpt>
      <trkpt lat="44.38817" lon="6.89958">
        <ele>2433.23</ele>
        <time>2017-03-22T09:33:31Z</time>
      </trkpt>
      <trkpt lat="44.38814" lon="6.89955">
        <ele>2433.23</ele>
        <time>2017-03-22T09:34:02Z</time>
      </trkpt>
      <trkpt lat="44.38812" lon="6.89956">
        <ele>2433.23</ele>
        <time>2017-03-22T09:34:38Z</time>
      </trkpt>
      <trkpt lat="44.3881" lon="6.89959">
        <ele>2433.71</ele>
        <time>2017-03-22T09:35:14Z</time>
      </trkpt>
      <trkpt lat="44.38815" lon="6.89957">
        <ele>2433.71</ele>
        <time>2017-03-22T09:35:47Z</time>
      </trkpt>
      <trkpt lat="44.38815" lon="6.89958">
        <ele>2433.71</ele>
        <time>2017-03-22T09:36:18Z</time>
      </trkpt>
      <trkpt lat="44.38817" lon="6.89957">
        <ele>2433.71</ele>
        <time>2017-03-22T09:36:49Z</time>
      </trkpt>
      <trkpt lat="44.38818" lon="6.89957">
        <ele>2433.23</ele>
        <time>2017-03-22T09:37:21Z</time>
      </trkpt>
      <trkpt lat="44.38818" lon="6.89957">
        <ele>2433.71</ele>
        <time>2017-03-22T09:37:47Z</time>
      </trkpt>
      <trkpt lat="44.38819" lon="6.89958">
        <ele>2433.23</ele>
        <time>2017-03-22T09:38:15Z</time>
      </trkpt>
      <trkpt lat="44.3882" lon="6.89958">
        <ele>2433.23</ele>
        <time>2017-03-22T09:38:45Z</time>
      </trkpt>
      <trkpt lat="44.3882" lon="6.89958">
        <ele>2433.71</ele>
        <time>2017-03-22T09:39:18Z</time>
      </trkpt>
      <trkpt lat="44.3882" lon="6.89958">
        <ele>2433.71</ele>
        <time>2017-03-22T09:39:45Z</time>
      </trkpt>
      <trkpt lat="44.3882" lon="6.89959">
        <ele>2433.71</ele>
        <time>2017-03-22T09:40:21Z</time>
      </trkpt>
      <trkpt lat="44.3882" lon="6.89961">
        <ele>2433.23</ele>
        <time>2017-03-22T09:40:54Z</time>
      </trkpt>
      <trkpt lat="44.38818" lon="6.8996">
        <ele>2433.71</ele>
        <time>2017-03-22T09:41:29Z</time>
      </trkpt>
      <trkpt lat="44.38819" lon="6.89959">
        <ele>2433.71</ele>
        <time>2017-03-22T09:41:55Z</time>
      </trkpt>
      <trkpt lat="44.3882" lon="6.89959">
        <ele>2436.12</ele>
        <time>2017-03-22T09:42:21Z</time>
      </trkpt>
      <trkpt lat="44.38822" lon="6.89962">
        <ele>2435.16</ele>
        <time>2017-03-22T09:42:34Z</time>
      </trkpt>
      <trkpt lat="44.3882" lon="6.89962">
        <ele>2435.16</ele>
        <time>2017-03-22T09:42:50Z</time>
      </trkpt>
      <trkpt lat="44.38818" lon="6.89954">
        <ele>2436.6</ele>
        <time>2017-03-22T09:43:08Z</time>
      </trkpt>
      <trkpt lat="44.38818" lon="6.89949">
        <ele>2437.56</ele>
        <time>2017-03-22T09:43:22Z</time>
      </trkpt>
      <trkpt lat="44.38819" lon="6.89945">
        <ele>2438.04</ele>
        <time>2017-03-22T09:43:38Z</time>
      </trkpt>
      <trkpt lat="44.38819" lon="6.89939">
        <ele>2439</ele>
        <time>2017-03-22T09:43:55Z</time>
      </trkpt>
      <trkpt lat="44.38816" lon="6.89935">
        <ele>2440.44</ele>
        <time>2017-03-22T09:44:09Z</time>
      </trkpt>
      <trkpt lat="44.38814" lon="6.8993">
        <ele>2440.92</ele>
        <time>2017-03-22T09:44:24Z</time>
      </trkpt>
      <trkpt lat="44.38811" lon="6.89928">
        <ele>2441.89</ele>
        <time>2017-03-22T09:44:39Z</time>
      </trkpt>
      <trkpt lat="44.38811" lon="6.89921">
        <ele>2443.33</ele>
        <time>2017-03-22T09:44:52Z</time>
      </trkpt>
      <trkpt lat="44.38811" lon="6.89912">
        <ele>2444.77</ele>
        <time>2017-03-22T09:45:07Z</time>
      </trkpt>
      <trkpt lat="44.3881" lon="6.89906">
        <ele>2446.21</ele>
        <time>2017-03-22T09:45:22Z</time>
      </trkpt>
      <trkpt lat="44.38809" lon="6.89896">
        <ele>2447.65</ele>
        <time>2017-03-22T09:45:38Z</time>
      </trkpt>
      <trkpt lat="44.38809" lon="6.89889">
        <ele>2449.1</ele>
        <time>2017-03-22T09:45:55Z</time>
      </trkpt>
      <trkpt lat="44.38811" lon="6.89886">
        <ele>2450.54</ele>
        <time>2017-03-22T09:46:11Z</time>
      </trkpt>
      <trkpt lat="44.38816" lon="6.89881">
        <ele>2451.5</ele>
        <time>2017-03-22T09:46:27Z</time>
      </trkpt>
      <trkpt lat="44.38819" lon="6.89876">
        <ele>2451.98</ele>
        <time>2017-03-22T09:46:43Z</time>
      </trkpt>
      <trkpt lat="44.38823" lon="6.8987">
        <ele>2452.94</ele>
        <time>2017-03-22T09:46:59Z</time>
      </trkpt>
      <trkpt lat="44.38819" lon="6.89862">
        <ele>2454.86</ele>
        <time>2017-03-22T09:47:18Z</time>
      </trkpt>
      <trkpt lat="44.38815" lon="6.89859">
        <ele>2456.31</ele>
        <time>2017-03-22T09:47:34Z</time>
      </trkpt>
      <trkpt lat="44.38813" lon="6.89856">
        <ele>2455.82</ele>
        <time>2017-03-22T09:47:40Z</time>
      </trkpt>
      <trkpt lat="44.38812" lon="6.89852">
        <ele>2458.71</ele>
        <time>2017-03-22T09:47:50Z</time>
      </trkpt>
      <trkpt lat="44.38812" lon="6.89851">
        <ele>2458.23</ele>
        <time>2017-03-22T09:47:51Z</time>
      </trkpt>
      <trkpt lat="44.38808" lon="6.8985">
        <ele>2459.19</ele>
        <time>2017-03-22T09:48:05Z</time>
      </trkpt>
      <trkpt lat="44.38805" lon="6.89844">
        <ele>2460.15</ele>
        <time>2017-03-22T09:48:20Z</time>
      </trkpt>
      <trkpt lat="44.38804" lon="6.8984">
        <ele>2461.11</ele>
        <time>2017-03-22T09:48:34Z</time>
      </trkpt>
      <trkpt lat="44.38804" lon="6.89837">
        <ele>2462.55</ele>
        <time>2017-03-22T09:48:47Z</time>
      </trkpt>
      <trkpt lat="44.38809" lon="6.89835">
        <ele>2464</ele>
        <time>2017-03-22T09:49:00Z</time>
      </trkpt>
      <trkpt lat="44.38813" lon="6.89832">
        <ele>2464.96</ele>
        <time>2017-03-22T09:49:13Z</time>
      </trkpt>
      <trkpt lat="44.38816" lon="6.8983">
        <ele>2465.92</ele>
        <time>2017-03-22T09:49:25Z</time>
      </trkpt>
      <trkpt lat="44.38819" lon="6.89826">
        <ele>2466.88</ele>
        <time>2017-03-22T09:49:37Z</time>
      </trkpt>
      <trkpt lat="44.38822" lon="6.89822">
        <ele>2467.84</ele>
        <time>2017-03-22T09:49:50Z</time>
      </trkpt>
      <trkpt lat="44.38826" lon="6.89821">
        <ele>2469.28</ele>
        <time>2017-03-22T09:50:05Z</time>
      </trkpt>
      <trkpt lat="44.3883" lon="6.89818">
        <ele>2470.24</ele>
        <time>2017-03-22T09:50:19Z</time>
      </trkpt>
      <trkpt lat="44.38833" lon="6.89815">
        <ele>2471.69</ele>
        <time>2017-03-22T09:50:32Z</time>
      </trkpt>
      <trkpt lat="44.38837" lon="6.89813">
        <ele>2472.65</ele>
        <time>2017-03-22T09:50:46Z</time>
      </trkpt>
      <trkpt lat="44.3884" lon="6.89814">
        <ele>2473.61</ele>
        <time>2017-03-22T09:50:59Z</time>
      </trkpt>
      <trkpt lat="44.38841" lon="6.89811">
        <ele>2475.05</ele>
        <time>2017-03-22T09:51:12Z</time>
      </trkpt>
      <trkpt lat="44.3884" lon="6.89805">
        <ele>2476.49</ele>
        <time>2017-03-22T09:51:27Z</time>
      </trkpt>
      <trkpt lat="44.38837" lon="6.89801">
        <ele>2477.94</ele>
        <time>2017-03-22T09:51:42Z</time>
      </trkpt>
      <trkpt lat="44.38834" lon="6.89797">
        <ele>2479.38</ele>
        <time>2017-03-22T09:51:56Z</time>
      </trkpt>
      <trkpt lat="44.38831" lon="6.89795">
        <ele>2479.86</ele>
        <time>2017-03-22T09:52:09Z</time>
      </trkpt>
      <trkpt lat="44.38829" lon="6.89791">
        <ele>2481.3</ele>
        <time>2017-03-22T09:52:24Z</time>
      </trkpt>
      <trkpt lat="44.38825" lon="6.89787">
        <ele>2482.74</ele>
        <time>2017-03-22T09:52:36Z</time>
      </trkpt>
      <trkpt lat="44.38823" lon="6.89783">
        <ele>2483.7</ele>
        <time>2017-03-22T09:52:50Z</time>
      </trkpt>
      <trkpt lat="44.38822" lon="6.89781">
        <ele>2484.66</ele>
        <time>2017-03-22T09:53:07Z</time>
      </trkpt>
      <trkpt lat="44.38827" lon="6.89779">
        <ele>2486.11</ele>
        <time>2017-03-22T09:53:24Z</time>
      </trkpt>
      <trkpt lat="44.3883" lon="6.89778">
        <ele>2487.07</ele>
        <time>2017-03-22T09:53:39Z</time>
      </trkpt>
      <trkpt lat="44.38832" lon="6.89775">
        <ele>2489.47</ele>
        <time>2017-03-22T09:53:53Z</time>
      </trkpt>
      <trkpt lat="44.38836" lon="6.89773">
        <ele>2488.99</ele>
        <time>2017-03-22T09:54:06Z</time>
      </trkpt>
      <trkpt lat="44.38838" lon="6.89772">
        <ele>2490.43</ele>
        <time>2017-03-22T09:54:20Z</time>
      </trkpt>
      <trkpt lat="44.3884" lon="6.89769">
        <ele>2491.39</ele>
        <time>2017-03-22T09:54:35Z</time>
      </trkpt>
      <trkpt lat="44.38843" lon="6.89768">
        <ele>2492.36</ele>
        <time>2017-03-22T09:54:49Z</time>
      </trkpt>
      <trkpt lat="44.38846" lon="6.89768">
        <ele>2492.84</ele>
        <time>2017-03-22T09:55:00Z</time>
      </trkpt>
      <trkpt lat="44.38849" lon="6.89767">
        <ele>2494.28</ele>
        <time>2017-03-22T09:55:16Z</time>
      </trkpt>
      <trkpt lat="44.38853" lon="6.89767">
        <ele>2494.76</ele>
        <time>2017-03-22T09:55:30Z</time>
      </trkpt>
      <trkpt lat="44.38856" lon="6.89767">
        <ele>2495.24</ele>
        <time>2017-03-22T09:55:47Z</time>
      </trkpt>
      <trkpt lat="44.38857" lon="6.89764">
        <ele>2496.2</ele>
        <time>2017-03-22T09:56:03Z</time>
      </trkpt>
      <trkpt lat="44.38853" lon="6.89758">
        <ele>2497.64</ele>
        <time>2017-03-22T09:56:19Z</time>
      </trkpt>
      <trkpt lat="44.38851" lon="6.89757">
        <ele>2498.6</ele>
        <time>2017-03-22T09:56:31Z</time>
      </trkpt>
      <trkpt lat="44.38849" lon="6.89752">
        <ele>2499.57</ele>
        <time>2017-03-22T09:56:47Z</time>
      </trkpt>
      <trkpt lat="44.38844" lon="6.8975">
        <ele>2501.01</ele>
        <time>2017-03-22T09:57:00Z</time>
      </trkpt>
      <trkpt lat="44.38841" lon="6.89746">
        <ele>2501.97</ele>
        <time>2017-03-22T09:57:12Z</time>
      </trkpt>
      <trkpt lat="44.38838" lon="6.89742">
        <ele>2502.93</ele>
        <time>2017-03-22T09:57:26Z</time>
      </trkpt>
      <trkpt lat="44.38837" lon="6.89737">
        <ele>2503.89</ele>
        <time>2017-03-22T09:57:40Z</time>
      </trkpt>
      <trkpt lat="44.38834" lon="6.89733">
        <ele>2506.77</ele>
        <time>2017-03-22T09:57:56Z</time>
      </trkpt>
      <trkpt lat="44.38832" lon="6.89729">
        <ele>2506.29</ele>
        <time>2017-03-22T09:58:08Z</time>
      </trkpt>
      <trkpt lat="44.38832" lon="6.89728">
        <ele>2506.77</ele>
        <time>2017-03-22T09:58:24Z</time>
      </trkpt>
      <trkpt lat="44.38832" lon="6.89722">
        <ele>2508.22</ele>
        <time>2017-03-22T09:58:38Z</time>
      </trkpt>
      <trkpt lat="44.38835" lon="6.89722">
        <ele>2508.7</ele>
        <time>2017-03-22T09:58:53Z</time>
      </trkpt>
      <trkpt lat="44.38839" lon="6.89721">
        <ele>2510.62</ele>
        <time>2017-03-22T09:59:09Z</time>
      </trkpt>
      <trkpt lat="44.38841" lon="6.89719">
        <ele>2511.1</ele>
        <time>2017-03-22T09:59:20Z</time>
      </trkpt>
      <trkpt lat="44.38843" lon="6.89716">
        <ele>2512.54</ele>
        <time>2017-03-22T09:59:36Z</time>
      </trkpt>
      <trkpt lat="44.38849" lon="6.89715">
        <ele>2513.98</ele>
        <time>2017-03-22T09:59:52Z</time>
      </trkpt>
      <trkpt lat="44.38851" lon="6.89714">
        <ele>2515.43</ele>
        <time>2017-03-22T10:00:06Z</time>
      </trkpt>
      <trkpt lat="44.38852" lon="6.89714">
        <ele>2516.39</ele>
        <time>2017-03-22T10:00:22Z</time>
      </trkpt>
      <trkpt lat="44.38855" lon="6.89712">
        <ele>2516.87</ele>
        <time>2017-03-22T10:00:35Z</time>
      </trkpt>
      <trkpt lat="44.38855" lon="6.8971">
        <ele>2517.35</ele>
        <time>2017-03-22T10:00:52Z</time>
      </trkpt>
      <trkpt lat="44.38857" lon="6.89711">
        <ele>2517.83</ele>
        <time>2017-03-22T10:01:09Z</time>
      </trkpt>
      <trkpt lat="44.38857" lon="6.89708">
        <ele>2519.27</ele>
        <time>2017-03-22T10:01:28Z</time>
      </trkpt>
      <trkpt lat="44.38849" lon="6.897">
        <ele>2520.71</ele>
        <time>2017-03-22T10:01:42Z</time>
      </trkpt>
      <trkpt lat="44.38844" lon="6.89695">
        <ele>2522.16</ele>
        <time>2017-03-22T10:01:57Z</time>
      </trkpt>
      <trkpt lat="44.38849" lon="6.89694">
        <ele>2523.6</ele>
        <time>2017-03-22T10:02:12Z</time>
      </trkpt>
      <trkpt lat="44.38852" lon="6.89694">
        <ele>2524.56</ele>
        <time>2017-03-22T10:02:27Z</time>
      </trkpt>
      <trkpt lat="44.38857" lon="6.89693">
        <ele>2525.52</ele>
        <time>2017-03-22T10:02:41Z</time>
      </trkpt>
      <trkpt lat="44.38861" lon="6.89691">
        <ele>2526.96</ele>
        <time>2017-03-22T10:02:56Z</time>
      </trkpt>
      <trkpt lat="44.38862" lon="6.8969">
        <ele>2527.92</ele>
        <time>2017-03-22T10:03:18Z</time>
      </trkpt>
      <trkpt lat="44.38859" lon="6.89686">
        <ele>2528.4</ele>
        <time>2017-03-22T10:03:33Z</time>
      </trkpt>
      <trkpt lat="44.38854" lon="6.89681">
        <ele>2530.33</ele>
        <time>2017-03-22T10:03:50Z</time>
      </trkpt>
      <trkpt lat="44.38849" lon="6.89677">
        <ele>2531.29</ele>
        <time>2017-03-22T10:04:04Z</time>
      </trkpt>
      <trkpt lat="44.38846" lon="6.89674">
        <ele>2532.73</ele>
        <time>2017-03-22T10:04:19Z</time>
      </trkpt>
      <trkpt lat="44.38843" lon="6.8967">
        <ele>2534.17</ele>
        <time>2017-03-22T10:04:33Z</time>
      </trkpt>
      <trkpt lat="44.3884" lon="6.89665">
        <ele>2535.61</ele>
        <time>2017-03-22T10:04:49Z</time>
      </trkpt>
      <trkpt lat="44.38839" lon="6.89663">
        <ele>2536.58</ele>
        <time>2017-03-22T10:05:06Z</time>
      </trkpt>
      <trkpt lat="44.38842" lon="6.89663">
        <ele>2537.54</ele>
        <time>2017-03-22T10:05:19Z</time>
      </trkpt>
      <trkpt lat="44.38848" lon="6.89662">
        <ele>2538.5</ele>
        <time>2017-03-22T10:05:34Z</time>
      </trkpt>
      <trkpt lat="44.38853" lon="6.89662">
        <ele>2539.46</ele>
        <time>2017-03-22T10:05:51Z</time>
      </trkpt>
      <trkpt lat="44.38858" lon="6.8966">
        <ele>2540.9</ele>
        <time>2017-03-22T10:06:08Z</time>
      </trkpt>
      <trkpt lat="44.38862" lon="6.8966">
        <ele>2541.86</ele>
        <time>2017-03-22T10:06:22Z</time>
      </trkpt>
      <trkpt lat="44.38865" lon="6.89658">
        <ele>2543.31</ele>
        <time>2017-03-22T10:06:40Z</time>
      </trkpt>
      <trkpt lat="44.38868" lon="6.89656">
        <ele>2543.79</ele>
        <time>2017-03-22T10:06:56Z</time>
      </trkpt>
      <trkpt lat="44.38868" lon="6.89654">
        <ele>2544.75</ele>
        <time>2017-03-22T10:07:12Z</time>
      </trkpt>
      <trkpt lat="44.38861" lon="6.89651">
        <ele>2546.19</ele>
        <time>2017-03-22T10:07:26Z</time>
      </trkpt>
      <trkpt lat="44.38859" lon="6.89647">
        <ele>2547.63</ele>
        <time>2017-03-22T10:07:41Z</time>
      </trkpt>
      <trkpt lat="44.38858" lon="6.89643">
        <ele>2549.07</ele>
        <time>2017-03-22T10:07:57Z</time>
      </trkpt>
      <trkpt lat="44.3886" lon="6.89642">
        <ele>2550.03</ele>
        <time>2017-03-22T10:08:09Z</time>
      </trkpt>
      <trkpt lat="44.38865" lon="6.89642">
        <ele>2551</ele>
        <time>2017-03-22T10:08:24Z</time>
      </trkpt>
      <trkpt lat="44.38865" lon="6.89638">
        <ele>2552.44</ele>
        <time>2017-03-22T10:08:38Z</time>
      </trkpt>
      <trkpt lat="44.38862" lon="6.89634">
        <ele>2553.4</ele>
        <time>2017-03-22T10:08:51Z</time>
      </trkpt>
      <trkpt lat="44.3886" lon="6.89632">
        <ele>2554.36</ele>
        <time>2017-03-22T10:09:04Z</time>
      </trkpt>
      <trkpt lat="44.38858" lon="6.89629">
        <ele>2554.84</ele>
        <time>2017-03-22T10:09:16Z</time>
      </trkpt>
      <trkpt lat="44.38856" lon="6.89625">
        <ele>2556.28</ele>
        <time>2017-03-22T10:09:29Z</time>
      </trkpt>
      <trkpt lat="44.38852" lon="6.89621">
        <ele>2557.24</ele>
        <time>2017-03-22T10:09:42Z</time>
      </trkpt>
      <trkpt lat="44.38849" lon="6.89617">
        <ele>2558.21</ele>
        <time>2017-03-22T10:09:56Z</time>
      </trkpt>
      <trkpt lat="44.38847" lon="6.89614">
        <ele>2559.65</ele>
        <time>2017-03-22T10:10:11Z</time>
      </trkpt>
      <trkpt lat="44.3885" lon="6.89615">
        <ele>2560.13</ele>
        <time>2017-03-22T10:10:26Z</time>
      </trkpt>
      <trkpt lat="44.38854" lon="6.89615">
        <ele>2561.09</ele>
        <time>2017-03-22T10:10:42Z</time>
      </trkpt>
      <trkpt lat="44.38855" lon="6.89615">
        <ele>2560.61</ele>
        <time>2017-03-22T10:10:56Z</time>
      </trkpt>
      <trkpt lat="44.38859" lon="6.89615">
        <ele>2562.05</ele>
        <time>2017-03-22T10:11:10Z</time>
      </trkpt>
      <trkpt lat="44.38865" lon="6.89615">
        <ele>2563.49</ele>
        <time>2017-03-22T10:11:24Z</time>
      </trkpt>
      <trkpt lat="44.38869" lon="6.89614">
        <ele>2564.93</ele>
        <time>2017-03-22T10:11:42Z</time>
      </trkpt>
      <trkpt lat="44.3887" lon="6.89613">
        <ele>2566.38</ele>
        <time>2017-03-22T10:11:59Z</time>
      </trkpt>
      <trkpt lat="44.38865" lon="6.89609">
        <ele>2566.86</ele>
        <time>2017-03-22T10:12:16Z</time>
      </trkpt>
      <trkpt lat="44.38863" lon="6.89606">
        <ele>2568.3</ele>
        <time>2017-03-22T10:12:31Z</time>
      </trkpt>
      <trkpt lat="44.38861" lon="6.89602">
        <ele>2569.26</ele>
        <time>2017-03-22T10:12:43Z</time>
      </trkpt>
      <trkpt lat="44.38858" lon="6.89598">
        <ele>2570.22</ele>
        <time>2017-03-22T10:12:56Z</time>
      </trkpt>
      <trkpt lat="44.38856" lon="6.89593">
        <ele>2571.66</ele>
        <time>2017-03-22T10:13:11Z</time>
      </trkpt>
      <trkpt lat="44.38854" lon="6.8959">
        <ele>2573.11</ele>
        <time>2017-03-22T10:13:27Z</time>
      </trkpt>
      <trkpt lat="44.3885" lon="6.89586">
        <ele>2575.03</ele>
        <time>2017-03-22T10:13:41Z</time>
      </trkpt>
      <trkpt lat="44.38846" lon="6.89583">
        <ele>2576.47</ele>
        <time>2017-03-22T10:13:56Z</time>
      </trkpt>
      <trkpt lat="44.38848" lon="6.89585">
        <ele>2576.47</ele>
        <time>2017-03-22T10:14:12Z</time>
      </trkpt>
      <trkpt lat="44.38851" lon="6.89584">
        <ele>2576.47</ele>
        <time>2017-03-22T10:14:42Z</time>
      </trkpt>
      <trkpt lat="44.38853" lon="6.89583">
        <ele>2576.47</ele>
        <time>2017-03-22T10:15:11Z</time>
      </trkpt>
      <trkpt lat="44.38851" lon="6.89584">
        <ele>2576.47</ele>
        <time>2017-03-22T10:15:33Z</time>
      </trkpt>
      <trkpt lat="44.38854" lon="6.89583">
        <ele>2576.95</ele>
        <time>2017-03-22T10:15:49Z</time>
      </trkpt>
      <trkpt lat="44.38855" lon="6.89582">
        <ele>2577.91</ele>
        <time>2017-03-22T10:16:04Z</time>
      </trkpt>
      <trkpt lat="44.38857" lon="6.89579">
        <ele>2579.35</ele>
        <time>2017-03-22T10:16:23Z</time>
      </trkpt>
      <trkpt lat="44.38854" lon="6.89577">
        <ele>2579.84</ele>
        <time>2017-03-22T10:16:39Z</time>
      </trkpt>
      <trkpt lat="44.38853" lon="6.89577">
        <ele>2580.32</ele>
        <time>2017-03-22T10:16:58Z</time>
      </trkpt>
      <trkpt lat="44.38852" lon="6.89572">
        <ele>2580.32</ele>
        <time>2017-03-22T10:17:35Z</time>
      </trkpt>
      <trkpt lat="44.38846" lon="6.89572">
        <ele>2581.76</ele>
        <time>2017-03-22T10:17:51Z</time>
      </trkpt>
      <trkpt lat="44.38846" lon="6.89571">
        <ele>2582.72</ele>
        <time>2017-03-22T10:18:05Z</time>
      </trkpt>
      <trkpt lat="44.3885" lon="6.8957">
        <ele>2583.2</ele>
        <time>2017-03-22T10:18:22Z</time>
      </trkpt>
      <trkpt lat="44.38853" lon="6.89572">
        <ele>2583.68</ele>
        <time>2017-03-22T10:18:51Z</time>
      </trkpt>
      <trkpt lat="44.38852" lon="6.89571">
        <ele>2583.2</ele>
        <time>2017-03-22T10:19:19Z</time>
      </trkpt>
      <trkpt lat="44.38852" lon="6.89569">
        <ele>2583.2</ele>
        <time>2017-03-22T10:19:45Z</time>
      </trkpt>
      <trkpt lat="44.38857" lon="6.89568">
        <ele>2584.64</ele>
        <time>2017-03-22T10:20:00Z</time>
      </trkpt>
      <trkpt lat="44.3886" lon="6.89567">
        <ele>2586.08</ele>
        <time>2017-03-22T10:20:14Z</time>
      </trkpt>
      <trkpt lat="44.38857" lon="6.89564">
        <ele>2586.56</ele>
        <time>2017-03-22T10:20:28Z</time>
      </trkpt>
      <trkpt lat="44.38854" lon="6.89564">
        <ele>2587.53</ele>
        <time>2017-03-22T10:20:42Z</time>
      </trkpt>
      <trkpt lat="44.38853" lon="6.89563">
        <ele>2587.53</ele>
        <time>2017-03-22T10:20:59Z</time>
      </trkpt>
      <trkpt lat="44.38852" lon="6.89563">
        <ele>2588.01</ele>
        <time>2017-03-22T10:21:19Z</time>
      </trkpt>
      <trkpt lat="44.38849" lon="6.8956">
        <ele>2589.45</ele>
        <time>2017-03-22T10:21:33Z</time>
      </trkpt>
      <trkpt lat="44.38847" lon="6.89557">
        <ele>2589.93</ele>
        <time>2017-03-22T10:21:49Z</time>
      </trkpt>
      <trkpt lat="44.38846" lon="6.89555">
        <ele>2590.89</ele>
        <time>2017-03-22T10:22:00Z</time>
      </trkpt>
      <trkpt lat="44.38844" lon="6.89553">
        <ele>2592.33</ele>
        <time>2017-03-22T10:22:13Z</time>
      </trkpt>
      <trkpt lat="44.38842" lon="6.89551">
        <ele>2593.77</ele>
        <time>2017-03-22T10:22:29Z</time>
      </trkpt>
      <trkpt lat="44.3884" lon="6.8955">
        <ele>2594.25</ele>
        <time>2017-03-22T10:22:44Z</time>
      </trkpt>
      <trkpt lat="44.38836" lon="6.89548">
        <ele>2595.7</ele>
        <time>2017-03-22T10:23:02Z</time>
      </trkpt>
      <trkpt lat="44.38833" lon="6.89547">
        <ele>2597.14</ele>
        <time>2017-03-22T10:23:15Z</time>
      </trkpt>
      <trkpt lat="44.38832" lon="6.89547">
        <ele>2597.62</ele>
        <time>2017-03-22T10:23:22Z</time>
      </trkpt>
      <trkpt lat="44.38828" lon="6.89548">
        <ele>2598.58</ele>
        <time>2017-03-22T10:23:34Z</time>
      </trkpt>
      <trkpt lat="44.38824" lon="6.89548">
        <ele>2600.02</ele>
        <time>2017-03-22T10:23:47Z</time>
      </trkpt>
      <trkpt lat="44.3882" lon="6.89549">
        <ele>2600.5</ele>
        <time>2017-03-22T10:23:59Z</time>
      </trkpt>
      <trkpt lat="44.38817" lon="6.89551">
        <ele>2602.43</ele>
        <time>2017-03-22T10:24:11Z</time>
      </trkpt>
      <trkpt lat="44.38813" lon="6.89555">
        <ele>2601.95</ele>
        <time>2017-03-22T10:24:24Z</time>
      </trkpt>
      <trkpt lat="44.38807" lon="6.89559">
        <ele>2603.39</ele>
        <time>2017-03-22T10:24:40Z</time>
      </trkpt>
      <trkpt lat="44.38801" lon="6.8956">
        <ele>2605.31</ele>
        <time>2017-03-22T10:24:54Z</time>
      </trkpt>
      <trkpt lat="44.38797" lon="6.8956">
        <ele>2606.75</ele>
        <time>2017-03-22T10:25:08Z</time>
      </trkpt>
      <trkpt lat="44.38794" lon="6.89558">
        <ele>2608.19</ele>
        <time>2017-03-22T10:25:22Z</time>
      </trkpt>
      <trkpt lat="44.3879" lon="6.89558">
        <ele>2609.16</ele>
        <time>2017-03-22T10:25:36Z</time>
      </trkpt>
      <trkpt lat="44.3879" lon="6.89556">
        <ele>2610.12</ele>
        <time>2017-03-22T10:25:52Z</time>
      </trkpt>
      <trkpt lat="44.38794" lon="6.89555">
        <ele>2610.12</ele>
        <time>2017-03-22T10:26:06Z</time>
      </trkpt>
      <trkpt lat="44.38794" lon="6.89553">
        <ele>2610.6</ele>
        <time>2017-03-22T10:26:22Z</time>
      </trkpt>
      <trkpt lat="44.38792" lon="6.89548">
        <ele>2612.04</ele>
        <time>2017-03-22T10:26:37Z</time>
      </trkpt>
      <trkpt lat="44.38794" lon="6.8955">
        <ele>2612.04</ele>
        <time>2017-03-22T10:26:57Z</time>
      </trkpt>
      <trkpt lat="44.38794" lon="6.89551">
        <ele>2612.52</ele>
        <time>2017-03-22T10:27:19Z</time>
      </trkpt>
      <trkpt lat="44.38793" lon="6.89551">
        <ele>2612.04</ele>
        <time>2017-03-22T10:27:48Z</time>
      </trkpt>
      <trkpt lat="44.38795" lon="6.89551">
        <ele>2612.52</ele>
        <time>2017-03-22T10:28:21Z</time>
      </trkpt>
      <trkpt lat="44.38797" lon="6.8955">
        <ele>2613</ele>
        <time>2017-03-22T10:28:40Z</time>
      </trkpt>
      <trkpt lat="44.38798" lon="6.89542">
        <ele>2614.92</ele>
        <time>2017-03-22T10:28:56Z</time>
      </trkpt>
      <trkpt lat="44.38798" lon="6.89538">
        <ele>2615.88</ele>
        <time>2017-03-22T10:29:07Z</time>
      </trkpt>
      <trkpt lat="44.38798" lon="6.8953">
        <ele>2617.33</ele>
        <time>2017-03-22T10:29:20Z</time>
      </trkpt>
      <trkpt lat="44.38798" lon="6.89531">
        <ele>2618.29</ele>
        <time>2017-03-22T10:29:42Z</time>
      </trkpt>
      <trkpt lat="44.38798" lon="6.89532">
        <ele>2617.81</ele>
        <time>2017-03-22T10:29:57Z</time>
      </trkpt>
      <trkpt lat="44.38804" lon="6.89532">
        <ele>2616.37</ele>
        <time>2017-03-22T10:30:13Z</time>
      </trkpt>
      <trkpt lat="44.38812" lon="6.89526">
        <ele>2617.81</ele>
        <time>2017-03-22T10:30:29Z</time>
      </trkpt>
      <trkpt lat="44.38815" lon="6.89523">
        <ele>2619.25</ele>
        <time>2017-03-22T10:30:44Z</time>
      </trkpt>
      <trkpt lat="44.38818" lon="6.89519">
        <ele>2621.17</ele>
        <time>2017-03-22T10:30:58Z</time>
      </trkpt>
      <trkpt lat="44.38821" lon="6.89515">
        <ele>2622.13</ele>
        <time>2017-03-22T10:31:10Z</time>
      </trkpt>
      <trkpt lat="44.38823" lon="6.89511">
        <ele>2623.09</ele>
        <time>2017-03-22T10:31:23Z</time>
      </trkpt>
      <trkpt lat="44.38824" lon="6.89506">
        <ele>2624.06</ele>
        <time>2017-03-22T10:31:38Z</time>
      </trkpt>
      <trkpt lat="44.38828" lon="6.895">
        <ele>2625.5</ele>
        <time>2017-03-22T10:31:52Z</time>
      </trkpt>
      <trkpt lat="44.38832" lon="6.89496">
        <ele>2625.98</ele>
        <time>2017-03-22T10:32:06Z</time>
      </trkpt>
      <trkpt lat="44.38837" lon="6.89492">
        <ele>2626.94</ele>
        <time>2017-03-22T10:32:21Z</time>
      </trkpt>
      <trkpt lat="44.38842" lon="6.89489">
        <ele>2628.86</ele>
        <time>2017-03-22T10:32:36Z</time>
      </trkpt>
      <trkpt lat="44.38847" lon="6.89485">
        <ele>2629.82</ele>
        <time>2017-03-22T10:32:52Z</time>
      </trkpt>
      <trkpt lat="44.38851" lon="6.89481">
        <ele>2630.79</ele>
        <time>2017-03-22T10:33:07Z</time>
      </trkpt>
      <trkpt lat="44.38853" lon="6.89481">
        <ele>2631.27</ele>
        <time>2017-03-22T10:33:27Z</time>
      </trkpt>
      <trkpt lat="44.38855" lon="6.89479">
        <ele>2632.23</ele>
        <time>2017-03-22T10:33:54Z</time>
      </trkpt>
      <trkpt lat="44.3886" lon="6.89474">
        <ele>2633.19</ele>
        <time>2017-03-22T10:34:10Z</time>
      </trkpt>
      <trkpt lat="44.38861" lon="6.89471">
        <ele>2633.67</ele>
        <time>2017-03-22T10:34:27Z</time>
      </trkpt>
      <trkpt lat="44.38863" lon="6.8947">
        <ele>2633.19</ele>
        <time>2017-03-22T10:34:42Z</time>
      </trkpt>
      <trkpt lat="44.38866" lon="6.8947">
        <ele>2633.19</ele>
        <time>2017-03-22T10:35:00Z</time>
      </trkpt>
      <trkpt lat="44.38866" lon="6.8947">
        <ele>2633.19</ele>
        <time>2017-03-22T10:35:18Z</time>
      </trkpt>
      <trkpt lat="44.3887" lon="6.89468">
        <ele>2633.67</ele>
        <time>2017-03-22T10:35:39Z</time>
      </trkpt>
      <trkpt lat="44.38871" lon="6.89469">
        <ele>2633.67</ele>
        <time>2017-03-22T10:35:43Z</time>
      </trkpt>
      <trkpt lat="44.38876" lon="6.8947">
        <ele>2634.63</ele>
        <time>2017-03-22T10:35:57Z</time>
      </trkpt>
      <trkpt lat="44.3888" lon="6.8947">
        <ele>2636.07</ele>
        <time>2017-03-22T10:36:10Z</time>
      </trkpt>
      <trkpt lat="44.38883" lon="6.8947">
        <ele>2636.55</ele>
        <time>2017-03-22T10:36:27Z</time>
      </trkpt>
      <trkpt lat="44.38883" lon="6.89464">
        <ele>2638.48</ele>
        <time>2017-03-22T10:36:41Z</time>
      </trkpt>
      <trkpt lat="44.38888" lon="6.89464">
        <ele>2639.92</ele>
        <time>2017-03-22T10:36:56Z</time>
      </trkpt>
      <trkpt lat="44.38893" lon="6.89465">
        <ele>2641.84</ele>
        <time>2017-03-22T10:37:08Z</time>
      </trkpt>
      <trkpt lat="44.38898" lon="6.89465">
        <ele>2642.8</ele>
        <time>2017-03-22T10:37:22Z</time>
      </trkpt>
      <trkpt lat="44.38901" lon="6.89465">
        <ele>2644.24</ele>
        <time>2017-03-22T10:37:36Z</time>
      </trkpt>
      <trkpt lat="44.38905" lon="6.89462">
        <ele>2644.72</ele>
        <time>2017-03-22T10:37:50Z</time>
      </trkpt>
      <trkpt lat="44.38907" lon="6.89458">
        <ele>2647.61</ele>
        <time>2017-03-22T10:38:05Z</time>
      </trkpt>
      <trkpt lat="44.38911" lon="6.89456">
        <ele>2649.53</ele>
        <time>2017-03-22T10:38:22Z</time>
      </trkpt>
      <trkpt lat="44.38915" lon="6.89456">
        <ele>2650.49</ele>
        <time>2017-03-22T10:38:37Z</time>
      </trkpt>
      <trkpt lat="44.38918" lon="6.89454">
        <ele>2652.42</ele>
        <time>2017-03-22T10:38:50Z</time>
      </trkpt>
      <trkpt lat="44.38922" lon="6.89453">
        <ele>2653.38</ele>
        <time>2017-03-22T10:39:04Z</time>
      </trkpt>
      <trkpt lat="44.38924" lon="6.89456">
        <ele>2654.34</ele>
        <time>2017-03-22T10:39:17Z</time>
      </trkpt>
      <trkpt lat="44.38929" lon="6.89458">
        <ele>2656.26</ele>
        <time>2017-03-22T10:39:32Z</time>
      </trkpt>
      <trkpt lat="44.38934" lon="6.89457">
        <ele>2657.7</ele>
        <time>2017-03-22T10:39:47Z</time>
      </trkpt>
      <trkpt lat="44.38941" lon="6.89457">
        <ele>2658.66</ele>
        <time>2017-03-22T10:40:03Z</time>
      </trkpt>
      <trkpt lat="44.38941" lon="6.89456">
        <ele>2658.66</ele>
        <time>2017-03-22T10:40:17Z</time>
      </trkpt>
      <trkpt lat="44.38949" lon="6.89452">
        <ele>2660.59</ele>
        <time>2017-03-22T10:40:34Z</time>
      </trkpt>
      <trkpt lat="44.38954" lon="6.89451">
        <ele>2661.07</ele>
        <time>2017-03-22T10:40:46Z</time>
      </trkpt>
      <trkpt lat="44.38958" lon="6.89452">
        <ele>2662.03</ele>
        <time>2017-03-22T10:41:00Z</time>
      </trkpt>
      <trkpt lat="44.38964" lon="6.89456">
        <ele>2663.95</ele>
        <time>2017-03-22T10:41:16Z</time>
      </trkpt>
      <trkpt lat="44.3897" lon="6.89457">
        <ele>2665.39</ele>
        <time>2017-03-22T10:41:31Z</time>
      </trkpt>
      <trkpt lat="44.38975" lon="6.8946">
        <ele>2665.39</ele>
        <time>2017-03-22T10:41:46Z</time>
      </trkpt>
      <trkpt lat="44.3898" lon="6.89464">
        <ele>2666.35</ele>
        <time>2017-03-22T10:42:00Z</time>
      </trkpt>
      <trkpt lat="44.38985" lon="6.89467">
        <ele>2666.83</ele>
        <time>2017-03-22T10:42:19Z</time>
      </trkpt>
      <trkpt lat="44.38988" lon="6.89468">
        <ele>2667.31</ele>
        <time>2017-03-22T10:42:34Z</time>
      </trkpt>
      <trkpt lat="44.38991" lon="6.8947">
        <ele>2667.31</ele>
        <time>2017-03-22T10:42:45Z</time>
      </trkpt>
      <trkpt lat="44.38995" lon="6.89474">
        <ele>2667.8</ele>
        <time>2017-03-22T10:42:59Z</time>
      </trkpt>
      <trkpt lat="44.39005" lon="6.89478">
        <ele>2668.76</ele>
        <time>2017-03-22T10:43:15Z</time>
      </trkpt>
      <trkpt lat="44.39011" lon="6.89483">
        <ele>2670.2</ele>
        <time>2017-03-22T10:43:31Z</time>
      </trkpt>
      <trkpt lat="44.39012" lon="6.89487">
        <ele>2671.64</ele>
        <time>2017-03-22T10:43:48Z</time>
      </trkpt>
      <trkpt lat="44.39007" lon="6.89489">
        <ele>2673.08</ele>
        <time>2017-03-22T10:44:04Z</time>
      </trkpt>
      <trkpt lat="44.39" lon="6.89492">
        <ele>2675.01</ele>
        <time>2017-03-22T10:44:24Z</time>
      </trkpt>
      <trkpt lat="44.38998" lon="6.89496">
        <ele>2675.97</ele>
        <time>2017-03-22T10:44:37Z</time>
      </trkpt>
      <trkpt lat="44.38996" lon="6.89499">
        <ele>2677.41</ele>
        <time>2017-03-22T10:44:53Z</time>
      </trkpt>
      <trkpt lat="44.38998" lon="6.89501">
        <ele>2676.93</ele>
        <time>2017-03-22T10:45:08Z</time>
      </trkpt>
      <trkpt lat="44.39004" lon="6.895">
        <ele>2676.93</ele>
        <time>2017-03-22T10:45:21Z</time>
      </trkpt>
      <trkpt lat="44.39002" lon="6.89498">
        <ele>2676.93</ele>
        <time>2017-03-22T10:45:40Z</time>
      </trkpt>
      <trkpt lat="44.39002" lon="6.89495">
        <ele>2676.93</ele>
        <time>2017-03-22T10:46:01Z</time>
      </trkpt>
      <trkpt lat="44.39" lon="6.89498">
        <ele>2676.93</ele>
        <time>2017-03-22T10:46:14Z</time>
      </trkpt>
      <trkpt lat="44.38997" lon="6.89498">
        <ele>2676.93</ele>
        <time>2017-03-22T10:46:29Z</time>
      </trkpt>
      <trkpt lat="44.38997" lon="6.89499">
        <ele>2676.93</ele>
        <time>2017-03-22T10:46:47Z</time>
      </trkpt>
      <trkpt lat="44.38995" lon="6.89498">
        <ele>2677.41</ele>
        <time>2017-03-22T10:47:03Z</time>
      </trkpt>
      <trkpt lat="44.38997" lon="6.895">
        <ele>2677.41</ele>
        <time>2017-03-22T10:47:22Z</time>
      </trkpt>
      <trkpt lat="44.38997" lon="6.89499">
        <ele>2676.45</ele>
        <time>2017-03-22T10:47:46Z</time>
      </trkpt>
      <trkpt lat="44.38998" lon="6.89498">
        <ele>2676.45</ele>
        <time>2017-03-22T10:48:20Z</time>
      </trkpt>
      <trkpt lat="44.38998" lon="6.89499">
        <ele>2676.93</ele>
        <time>2017-03-22T10:48:48Z</time>
      </trkpt>
      <trkpt lat="44.38998" lon="6.89499">
        <ele>2676.93</ele>
        <time>2017-03-22T10:49:19Z</time>
      </trkpt>
      <trkpt lat="44.38999" lon="6.895">
        <ele>2677.41</ele>
        <time>2017-03-22T10:49:54Z</time>
      </trkpt>
      <trkpt lat="44.38996" lon="6.89498">
        <ele>2677.41</ele>
        <time>2017-03-22T10:50:16Z</time>
      </trkpt>
      <trkpt lat="44.38996" lon="6.89496">
        <ele>2677.41</ele>
        <time>2017-03-22T10:50:51Z</time>
      </trkpt>
      <trkpt lat="44.38996" lon="6.895">
        <ele>2677.89</ele>
        <time>2017-03-22T10:51:38Z</time>
      </trkpt>
      <trkpt lat="44.38997" lon="6.89501">
        <ele>2678.37</ele>
        <time>2017-03-22T10:52:22Z</time>
      </trkpt>
      <trkpt lat="44.38996" lon="6.89501">
        <ele>2679.33</ele>
        <time>2017-03-22T10:53:07Z</time>
      </trkpt>
      <trkpt lat="44.38993" lon="6.89502">
        <ele>2678.37</ele>
        <time>2017-03-22T10:53:47Z</time>
      </trkpt>
      <trkpt lat="44.38995" lon="6.89499">
        <ele>2678.37</ele>
        <time>2017-03-22T10:54:19Z</time>
      </trkpt>
      <trkpt lat="44.38994" lon="6.89499">
        <ele>2678.85</ele>
        <time>2017-03-22T10:54:44Z</time>
      </trkpt>
      <trkpt lat="44.38993" lon="6.89499">
        <ele>2678.85</ele>
        <time>2017-03-22T10:55:10Z</time>
      </trkpt>
      <trkpt lat="44.38993" lon="6.89499">
        <ele>2679.33</ele>
        <time>2017-03-22T10:55:44Z</time>
      </trkpt>
      <trkpt lat="44.38992" lon="6.89501">
        <ele>2679.81</ele>
        <time>2017-03-22T10:56:19Z</time>
      </trkpt>
      <trkpt lat="44.38991" lon="6.89501">
        <ele>2679.81</ele>
        <time>2017-03-22T10:56:52Z</time>
      </trkpt>
      <trkpt lat="44.38996" lon="6.89501">
        <ele>2680.29</ele>
        <time>2017-03-22T10:57:31Z</time>
      </trkpt>
      <trkpt lat="44.38996" lon="6.89501">
        <ele>2680.29</ele>
        <time>2017-03-22T10:58:04Z</time>
      </trkpt>
      <trkpt lat="44.38996" lon="6.89501">
        <ele>2680.29</ele>
        <time>2017-03-22T10:58:37Z</time>
      </trkpt>
      <trkpt lat="44.38994" lon="6.89501">
        <ele>2680.29</ele>
        <time>2017-03-22T10:59:12Z</time>
      </trkpt>
      <trkpt lat="44.38993" lon="6.89501">
        <ele>2680.29</ele>
        <time>2017-03-22T10:59:53Z</time>
      </trkpt>
      <trkpt lat="44.38993" lon="6.89501">
        <ele>2680.29</ele>
        <time>2017-03-22T11:00:43Z</time>
      </trkpt>
      <trkpt lat="44.38994" lon="6.89502">
        <ele>2680.77</ele>
        <time>2017-03-22T11:01:27Z</time>
      </trkpt>
      <trkpt lat="44.38995" lon="6.895">
        <ele>2681.73</ele>
        <time>2017-03-22T11:01:48Z</time>
      </trkpt>
      <trkpt lat="44.38993" lon="6.89499">
        <ele>2681.73</ele>
        <time>2017-03-22T11:02:05Z</time>
      </trkpt>
      <trkpt lat="44.38992" lon="6.89502">
        <ele>2682.22</ele>
        <time>2017-03-22T11:02:18Z</time>
      </trkpt>
      <trkpt lat="44.38992" lon="6.89499">
        <ele>2681.25</ele>
        <time>2017-03-22T11:02:31Z</time>
      </trkpt>
      <trkpt lat="44.38992" lon="6.89501">
        <ele>2682.22</ele>
        <time>2017-03-22T11:02:57Z</time>
      </trkpt>
      <trkpt lat="44.38992" lon="6.89501">
        <ele>2681.25</ele>
        <time>2017-03-22T11:03:19Z</time>
      </trkpt>
      <trkpt lat="44.38994" lon="6.89501">
        <ele>2681.73</ele>
        <time>2017-03-22T11:03:40Z</time>
      </trkpt>
      <trkpt lat="44.38994" lon="6.89502">
        <ele>2681.73</ele>
        <time>2017-03-22T11:03:46Z</time>
      </trkpt>
      <trkpt lat="44.38997" lon="6.895">
        <ele>2681.73</ele>
        <time>2017-03-22T11:03:59Z</time>
      </trkpt>
      <trkpt lat="44.38996" lon="6.895">
        <ele>2681.25</ele>
        <time>2017-03-22T11:04:22Z</time>
      </trkpt>
      <trkpt lat="44.38998" lon="6.895">
        <ele>2680.77</ele>
        <time>2017-03-22T11:04:35Z</time>
      </trkpt>
      <trkpt lat="44.39" lon="6.89501">
        <ele>2680.77</ele>
        <time>2017-03-22T11:04:45Z</time>
      </trkpt>
      <trkpt lat="44.39001" lon="6.89502">
        <ele>2681.25</ele>
        <time>2017-03-22T11:05:02Z</time>
      </trkpt>
      <trkpt lat="44.39" lon="6.89502">
        <ele>2681.25</ele>
        <time>2017-03-22T11:05:19Z</time>
      </trkpt>
      <trkpt lat="44.39" lon="6.89497">
        <ele>2680.77</ele>
        <time>2017-03-22T11:05:34Z</time>
      </trkpt>
      <trkpt lat="44.39" lon="6.89497">
        <ele>2680.77</ele>
        <time>2017-03-22T11:05:43Z</time>
      </trkpt>
      <trkpt lat="44.38999" lon="6.89499">
        <ele>2680.29</ele>
        <time>2017-03-22T11:06:05Z</time>
      </trkpt>
      <trkpt lat="44.38999" lon="6.89497">
        <ele>2679.81</ele>
        <time>2017-03-22T11:06:26Z</time>
      </trkpt>
      <trkpt lat="44.39" lon="6.89499">
        <ele>2679.81</ele>
        <time>2017-03-22T11:06:53Z</time>
      </trkpt>
      <trkpt lat="44.39001" lon="6.89499">
        <ele>2679.81</ele>
        <time>2017-03-22T11:07:18Z</time>
      </trkpt>
      <trkpt lat="44.39" lon="6.89498">
        <ele>2679.81</ele>
        <time>2017-03-22T11:07:48Z</time>
      </trkpt>
      <trkpt lat="44.39001" lon="6.89495">
        <ele>2679.33</ele>
        <time>2017-03-22T11:08:12Z</time>
      </trkpt>
      <trkpt lat="44.38981" lon="6.89488">
        <ele>2676.45</ele>
        <time>2017-03-22T11:08:21Z</time>
      </trkpt>
      <trkpt lat="44.38976" lon="6.89486">
        <ele>2675.49</ele>
        <time>2017-03-22T11:08:28Z</time>
      </trkpt>
      <trkpt lat="44.38975" lon="6.89487">
        <ele>2675.01</ele>
        <time>2017-03-22T11:08:45Z</time>
      </trkpt>
      <trkpt lat="44.38974" lon="6.89488">
        <ele>2675.49</ele>
        <time>2017-03-22T11:09:20Z</time>
      </trkpt>
      <trkpt lat="44.38974" lon="6.89489">
        <ele>2675.49</ele>
        <time>2017-03-22T11:09:39Z</time>
      </trkpt>
      <trkpt lat="44.38974" lon="6.89487">
        <ele>2675.01</ele>
        <time>2017-03-22T11:09:48Z</time>
      </trkpt>
      <trkpt lat="44.38985" lon="6.89481">
        <ele>2672.6</ele>
        <time>2017-03-22T11:09:53Z</time>
      </trkpt>
      <trkpt lat="44.38985" lon="6.89468">
        <ele>2670.68</ele>
        <time>2017-03-22T11:09:56Z</time>
      </trkpt>
      <trkpt lat="44.38972" lon="6.89455">
        <ele>2668.76</ele>
        <time>2017-03-22T11:10:06Z</time>
      </trkpt>
      <trkpt lat="44.38968" lon="6.89457">
        <ele>2668.76</ele>
        <time>2017-03-22T11:10:21Z</time>
      </trkpt>
      <trkpt lat="44.38969" lon="6.89457">
        <ele>2668.28</ele>
        <time>2017-03-22T11:10:28Z</time>
      </trkpt>
      <trkpt lat="44.3896" lon="6.89458">
        <ele>2668.28</ele>
        <time>2017-03-22T11:10:33Z</time>
      </trkpt>
      <trkpt lat="44.3894" lon="6.89456">
        <ele>2662.51</ele>
        <time>2017-03-22T11:10:38Z</time>
      </trkpt>
      <trkpt lat="44.38937" lon="6.89457">
        <ele>2662.51</ele>
        <time>2017-03-22T11:10:39Z</time>
      </trkpt>
      <trkpt lat="44.38931" lon="6.89461">
        <ele>2661.07</ele>
        <time>2017-03-22T11:10:41Z</time>
      </trkpt>
      <trkpt lat="44.38926" lon="6.89461">
        <ele>2660.11</ele>
        <time>2017-03-22T11:10:53Z</time>
      </trkpt>
      <trkpt lat="44.38926" lon="6.89461">
        <ele>2660.11</ele>
        <time>2017-03-22T11:10:56Z</time>
      </trkpt>
      <trkpt lat="44.38919" lon="6.8947">
        <ele>2655.78</ele>
        <time>2017-03-22T11:11:02Z</time>
      </trkpt>
      <trkpt lat="44.38911" lon="6.89474">
        <ele>2650.97</ele>
        <time>2017-03-22T11:11:07Z</time>
      </trkpt>
      <trkpt lat="44.38909" lon="6.89475">
        <ele>2650.49</ele>
        <time>2017-03-22T11:11:16Z</time>
      </trkpt>
      <trkpt lat="44.38904" lon="6.89479">
        <ele>2647.13</ele>
        <time>2017-03-22T11:11:23Z</time>
      </trkpt>
      <trkpt lat="44.38905" lon="6.8948">
        <ele>2647.13</ele>
        <time>2017-03-22T11:11:40Z</time>
      </trkpt>
      <trkpt lat="44.38906" lon="6.89478">
        <ele>2647.13</ele>
        <time>2017-03-22T11:11:50Z</time>
      </trkpt>
      <trkpt lat="44.38902" lon="6.89482">
        <ele>2644.72</ele>
        <time>2017-03-22T11:11:53Z</time>
      </trkpt>
      <trkpt lat="44.38896" lon="6.89485">
        <ele>2640.88</ele>
        <time>2017-03-22T11:11:57Z</time>
      </trkpt>
      <trkpt lat="44.38889" lon="6.89492">
        <ele>2636.55</ele>
        <time>2017-03-22T11:12:01Z</time>
      </trkpt>
      <trkpt lat="44.38884" lon="6.89497">
        <ele>2633.67</ele>
        <time>2017-03-22T11:12:03Z</time>
      </trkpt>
      <trkpt lat="44.38879" lon="6.89503">
        <ele>2629.82</ele>
        <time>2017-03-22T11:12:06Z</time>
      </trkpt>
      <trkpt lat="44.3888" lon="6.89504">
        <ele>2629.34</ele>
        <time>2017-03-22T11:12:08Z</time>
      </trkpt>
      <trkpt lat="44.38875" lon="6.89505">
        <ele>2628.86</ele>
        <time>2017-03-22T11:12:10Z</time>
      </trkpt>
      <trkpt lat="44.38865" lon="6.89505">
        <ele>2625.5</ele>
        <time>2017-03-22T11:12:13Z</time>
      </trkpt>
      <trkpt lat="44.38858" lon="6.89504">
        <ele>2624.54</ele>
        <time>2017-03-22T11:12:15Z</time>
      </trkpt>
      <trkpt lat="44.38848" lon="6.89504">
        <ele>2624.06</ele>
        <time>2017-03-22T11:12:25Z</time>
      </trkpt>
      <trkpt lat="44.38849" lon="6.89504">
        <ele>2624.06</ele>
        <time>2017-03-22T11:12:45Z</time>
      </trkpt>
      <trkpt lat="44.3885" lon="6.89507">
        <ele>2624.06</ele>
        <time>2017-03-22T11:13:08Z</time>
      </trkpt>
      <trkpt lat="44.3885" lon="6.89504">
        <ele>2624.54</ele>
        <time>2017-03-22T11:13:30Z</time>
      </trkpt>
      <trkpt lat="44.38851" lon="6.89501">
        <ele>2624.54</ele>
        <time>2017-03-22T11:13:46Z</time>
      </trkpt>
      <trkpt lat="44.3885" lon="6.89502">
        <ele>2624.54</ele>
        <time>2017-03-22T11:14:03Z</time>
      </trkpt>
      <trkpt lat="44.3885" lon="6.89503">
        <ele>2624.54</ele>
        <time>2017-03-22T11:14:25Z</time>
      </trkpt>
      <trkpt lat="44.3885" lon="6.89503">
        <ele>2624.54</ele>
        <time>2017-03-22T11:14:52Z</time>
      </trkpt>
      <trkpt lat="44.38836" lon="6.8951">
        <ele>2623.09</ele>
        <time>2017-03-22T11:15:03Z</time>
      </trkpt>
      <trkpt lat="44.3881" lon="6.89532">
        <ele>2620.21</ele>
        <time>2017-03-22T11:15:14Z</time>
      </trkpt>
      <trkpt lat="44.38797" lon="6.89537">
        <ele>2619.25</ele>
        <time>2017-03-22T11:15:24Z</time>
      </trkpt>
      <trkpt lat="44.38798" lon="6.89539">
        <ele>2618.77</ele>
        <time>2017-03-22T11:15:33Z</time>
      </trkpt>
      <trkpt lat="44.38798" lon="6.89545">
        <ele>2617.81</ele>
        <time>2017-03-22T11:15:44Z</time>
      </trkpt>
      <trkpt lat="44.388" lon="6.89545">
        <ele>2619.25</ele>
        <time>2017-03-22T11:16:12Z</time>
      </trkpt>
      <trkpt lat="44.38798" lon="6.89545">
        <ele>2619.73</ele>
        <time>2017-03-22T11:16:32Z</time>
      </trkpt>
      <trkpt lat="44.38798" lon="6.89546">
        <ele>2618.29</ele>
        <time>2017-03-22T11:17:03Z</time>
      </trkpt>
      <trkpt lat="44.388" lon="6.89545">
        <ele>2617.33</ele>
        <time>2017-03-22T11:17:40Z</time>
      </trkpt>
      <trkpt lat="44.38801" lon="6.89548">
        <ele>2616.85</ele>
        <time>2017-03-22T11:17:46Z</time>
      </trkpt>
      <trkpt lat="44.38804" lon="6.89554">
        <ele>2612.52</ele>
        <time>2017-03-22T11:17:49Z</time>
      </trkpt>
      <trkpt lat="44.38808" lon="6.89561">
        <ele>2608.67</ele>
        <time>2017-03-22T11:17:52Z</time>
      </trkpt>
      <trkpt lat="44.38813" lon="6.8956">
        <ele>2604.83</ele>
        <time>2017-03-22T11:17:54Z</time>
      </trkpt>
      <trkpt lat="44.38815" lon="6.89562">
        <ele>2602.91</ele>
        <time>2017-03-22T11:17:55Z</time>
      </trkpt>
      <trkpt lat="44.38818" lon="6.89566">
        <ele>2600.5</ele>
        <time>2017-03-22T11:17:57Z</time>
      </trkpt>
      <trkpt lat="44.38829" lon="6.89569">
        <ele>2594.74</ele>
        <time>2017-03-22T11:18:03Z</time>
      </trkpt>
      <trkpt lat="44.38837" lon="6.89576">
        <ele>2590.41</ele>
        <time>2017-03-22T11:18:05Z</time>
      </trkpt>
      <trkpt lat="44.38843" lon="6.89579">
        <ele>2587.04</ele>
        <time>2017-03-22T11:18:07Z</time>
      </trkpt>
      <trkpt lat="44.38845" lon="6.89587">
        <ele>2584.16</ele>
        <time>2017-03-22T11:18:09Z</time>
      </trkpt>
      <trkpt lat="44.38851" lon="6.89602">
        <ele>2575.03</ele>
        <time>2017-03-22T11:18:13Z</time>
      </trkpt>
      <trkpt lat="44.38844" lon="6.89617">
        <ele>2569.26</ele>
        <time>2017-03-22T11:18:16Z</time>
      </trkpt>
      <trkpt lat="44.38848" lon="6.89624">
        <ele>2564.93</ele>
        <time>2017-03-22T11:18:18Z</time>
      </trkpt>
      <trkpt lat="44.38843" lon="6.89623">
        <ele>2562.05</ele>
        <time>2017-03-22T11:18:21Z</time>
      </trkpt>
      <trkpt lat="44.38845" lon="6.89619">
        <ele>2562.05</ele>
        <time>2017-03-22T11:18:35Z</time>
      </trkpt>
      <trkpt lat="44.38841" lon="6.89635">
        <ele>2559.17</ele>
        <time>2017-03-22T11:18:40Z</time>
      </trkpt>
      <trkpt lat="44.38835" lon="6.89636">
        <ele>2555.32</ele>
        <time>2017-03-22T11:18:42Z</time>
      </trkpt>
      <trkpt lat="44.38834" lon="6.89644">
        <ele>2551.96</ele>
        <time>2017-03-22T11:18:45Z</time>
      </trkpt>
      <trkpt lat="44.38835" lon="6.89644">
        <ele>2551.48</ele>
        <time>2017-03-22T11:18:46Z</time>
      </trkpt>
      <trkpt lat="44.38839" lon="6.89639">
        <ele>2551.96</ele>
        <time>2017-03-22T11:19:14Z</time>
      </trkpt>
      <trkpt lat="44.38842" lon="6.89635">
        <ele>2551.48</ele>
        <time>2017-03-22T11:19:50Z</time>
      </trkpt>
      <trkpt lat="44.3884" lon="6.89636">
        <ele>2551.48</ele>
        <time>2017-03-22T11:20:20Z</time>
      </trkpt>
      <trkpt lat="44.38843" lon="6.89636">
        <ele>2551.48</ele>
        <time>2017-03-22T11:20:56Z</time>
      </trkpt>
      <trkpt lat="44.38841" lon="6.89637">
        <ele>2551.48</ele>
        <time>2017-03-22T11:21:23Z</time>
      </trkpt>
      <trkpt lat="44.38839" lon="6.8964">
        <ele>2551.48</ele>
        <time>2017-03-22T11:21:42Z</time>
      </trkpt>
      <trkpt lat="44.38837" lon="6.89641">
        <ele>2549.55</ele>
        <time>2017-03-22T11:21:47Z</time>
      </trkpt>
      <trkpt lat="44.38837" lon="6.89636">
        <ele>2549.07</ele>
        <time>2017-03-22T11:22:10Z</time>
      </trkpt>
      <trkpt lat="44.38832" lon="6.89642">
        <ele>2549.07</ele>
        <time>2017-03-22T11:22:14Z</time>
      </trkpt>
      <trkpt lat="44.3883" lon="6.89655">
        <ele>2544.27</ele>
        <time>2017-03-22T11:22:17Z</time>
      </trkpt>
      <trkpt lat="44.38826" lon="6.89663">
        <ele>2541.38</ele>
        <time>2017-03-22T11:22:19Z</time>
      </trkpt>
      <trkpt lat="44.38829" lon="6.89673">
        <ele>2538.02</ele>
        <time>2017-03-22T11:22:21Z</time>
      </trkpt>
      <trkpt lat="44.38828" lon="6.89677">
        <ele>2535.13</ele>
        <time>2017-03-22T11:22:22Z</time>
      </trkpt>
      <trkpt lat="44.38825" lon="6.89692">
        <ele>2530.81</ele>
        <time>2017-03-22T11:22:25Z</time>
      </trkpt>
      <trkpt lat="44.3883" lon="6.89696">
        <ele>2527.44</ele>
        <time>2017-03-22T11:22:27Z</time>
      </trkpt>
      <trkpt lat="44.38824" lon="6.89701">
        <ele>2523.12</ele>
        <time>2017-03-22T11:22:31Z</time>
      </trkpt>
      <trkpt lat="44.3882" lon="6.89702">
        <ele>2523.12</ele>
        <time>2017-03-22T11:22:32Z</time>
      </trkpt>
      <trkpt lat="44.38813" lon="6.8971">
        <ele>2521.19</ele>
        <time>2017-03-22T11:22:35Z</time>
      </trkpt>
      <trkpt lat="44.38816" lon="6.89719">
        <ele>2516.39</ele>
        <time>2017-03-22T11:22:37Z</time>
      </trkpt>
      <trkpt lat="44.38822" lon="6.89722">
        <ele>2514.95</ele>
        <time>2017-03-22T11:22:39Z</time>
      </trkpt>
      <trkpt lat="44.3883" lon="6.89721">
        <ele>2514.47</ele>
        <time>2017-03-22T11:22:48Z</time>
      </trkpt>
      <trkpt lat="44.38833" lon="6.89719">
        <ele>2514.47</ele>
        <time>2017-03-22T11:23:10Z</time>
      </trkpt>
      <trkpt lat="44.38833" lon="6.89719">
        <ele>2513.98</ele>
        <time>2017-03-22T11:23:15Z</time>
      </trkpt>
      <trkpt lat="44.38819" lon="6.89727">
        <ele>2511.1</ele>
        <time>2017-03-22T11:23:19Z</time>
      </trkpt>
      <trkpt lat="44.38812" lon="6.89734">
        <ele>2508.7</ele>
        <time>2017-03-22T11:23:22Z</time>
      </trkpt>
      <trkpt lat="44.38817" lon="6.89742">
        <ele>2505.33</ele>
        <time>2017-03-22T11:23:24Z</time>
      </trkpt>
      <trkpt lat="44.38806" lon="6.89758">
        <ele>2498.6</ele>
        <time>2017-03-22T11:23:30Z</time>
      </trkpt>
      <trkpt lat="44.38805" lon="6.89767">
        <ele>2494.76</ele>
        <time>2017-03-22T11:23:33Z</time>
      </trkpt>
      <trkpt lat="44.38804" lon="6.89774">
        <ele>2491.39</ele>
        <time>2017-03-22T11:23:36Z</time>
      </trkpt>
      <trkpt lat="44.38808" lon="6.8977">
        <ele>2491.87</ele>
        <time>2017-03-22T11:23:51Z</time>
      </trkpt>
      <trkpt lat="44.3881" lon="6.89768">
        <ele>2491.87</ele>
        <time>2017-03-22T11:24:10Z</time>
      </trkpt>
      <trkpt lat="44.3881" lon="6.89768">
        <ele>2491.87</ele>
        <time>2017-03-22T11:24:32Z</time>
      </trkpt>
      <trkpt lat="44.3881" lon="6.89767">
        <ele>2491.87</ele>
        <time>2017-03-22T11:24:53Z</time>
      </trkpt>
      <trkpt lat="44.38803" lon="6.89772">
        <ele>2491.39</ele>
        <time>2017-03-22T11:25:02Z</time>
      </trkpt>
      <trkpt lat="44.38801" lon="6.89788">
        <ele>2488.51</ele>
        <time>2017-03-22T11:25:07Z</time>
      </trkpt>
      <trkpt lat="44.38795" lon="6.89793">
        <ele>2484.66</ele>
        <time>2017-03-22T11:25:10Z</time>
      </trkpt>
      <trkpt lat="44.388" lon="6.898">
        <ele>2481.3</ele>
        <time>2017-03-22T11:25:13Z</time>
      </trkpt>
      <trkpt lat="44.38801" lon="6.89801">
        <ele>2480.82</ele>
        <time>2017-03-22T11:25:14Z</time>
      </trkpt>
      <trkpt lat="44.38795" lon="6.89808">
        <ele>2478.42</ele>
        <time>2017-03-22T11:25:19Z</time>
      </trkpt>
      <trkpt lat="44.38798" lon="6.89815">
        <ele>2475.53</ele>
        <time>2017-03-22T11:25:22Z</time>
      </trkpt>
      <trkpt lat="44.38791" lon="6.89817">
        <ele>2473.13</ele>
        <time>2017-03-22T11:25:25Z</time>
      </trkpt>
      <trkpt lat="44.38791" lon="6.89825">
        <ele>2468.8</ele>
        <time>2017-03-22T11:25:30Z</time>
      </trkpt>
      <trkpt lat="44.38793" lon="6.89828">
        <ele>2468.8</ele>
        <time>2017-03-22T11:25:31Z</time>
      </trkpt>
      <trkpt lat="44.38785" lon="6.89838">
        <ele>2465.44</ele>
        <time>2017-03-22T11:25:34Z</time>
      </trkpt>
      <trkpt lat="44.3879" lon="6.89852">
        <ele>2461.59</ele>
        <time>2017-03-22T11:25:37Z</time>
      </trkpt>
      <trkpt lat="44.38786" lon="6.8986">
        <ele>2458.23</ele>
        <time>2017-03-22T11:25:39Z</time>
      </trkpt>
      <trkpt lat="44.38785" lon="6.89863">
        <ele>2458.23</ele>
        <time>2017-03-22T11:25:40Z</time>
      </trkpt>
      <trkpt lat="44.38787" lon="6.89867">
        <ele>2455.34</ele>
        <time>2017-03-22T11:25:42Z</time>
      </trkpt>
      <trkpt lat="44.3879" lon="6.89862">
        <ele>2455.34</ele>
        <time>2017-03-22T11:25:59Z</time>
      </trkpt>
      <trkpt lat="44.38791" lon="6.89862">
        <ele>2454.86</ele>
        <time>2017-03-22T11:26:08Z</time>
      </trkpt>
      <trkpt lat="44.38786" lon="6.8989">
        <ele>2451.02</ele>
        <time>2017-03-22T11:26:14Z</time>
      </trkpt>
      <trkpt lat="44.38783" lon="6.89903">
        <ele>2446.69</ele>
        <time>2017-03-22T11:26:16Z</time>
      </trkpt>
      <trkpt lat="44.3877" lon="6.89921">
        <ele>2442.85</ele>
        <time>2017-03-22T11:26:20Z</time>
      </trkpt>
      <trkpt lat="44.38766" lon="6.89929">
        <ele>2439.48</ele>
        <time>2017-03-22T11:26:22Z</time>
      </trkpt>
      <trkpt lat="44.38768" lon="6.8993">
        <ele>2439</ele>
        <time>2017-03-22T11:26:24Z</time>
      </trkpt>
      <trkpt lat="44.38769" lon="6.89928">
        <ele>2439.48</ele>
        <time>2017-03-22T11:26:47Z</time>
      </trkpt>
      <trkpt lat="44.38769" lon="6.89928">
        <ele>2439</ele>
        <time>2017-03-22T11:27:05Z</time>
      </trkpt>
      <trkpt lat="44.38768" lon="6.89929">
        <ele>2438.52</ele>
        <time>2017-03-22T11:27:27Z</time>
      </trkpt>
      <trkpt lat="44.38768" lon="6.89932">
        <ele>2438.52</ele>
        <time>2017-03-22T11:27:48Z</time>
      </trkpt>
      <trkpt lat="44.38767" lon="6.89933">
        <ele>2438.52</ele>
        <time>2017-03-22T11:28:17Z</time>
      </trkpt>
      <trkpt lat="44.38783" lon="6.8996">
        <ele>2436.6</ele>
        <time>2017-03-22T11:28:27Z</time>
      </trkpt>
      <trkpt lat="44.38785" lon="6.89979">
        <ele>2432.75</ele>
        <time>2017-03-22T11:28:33Z</time>
      </trkpt>
      <trkpt lat="44.38785" lon="6.89982">
        <ele>2432.75</ele>
        <time>2017-03-22T11:28:34Z</time>
      </trkpt>
      <trkpt lat="44.38778" lon="6.89986">
        <ele>2428.91</ele>
        <time>2017-03-22T11:28:37Z</time>
      </trkpt>
      <trkpt lat="44.38776" lon="6.89986">
        <ele>2429.39</ele>
        <time>2017-03-22T11:28:38Z</time>
      </trkpt>
      <trkpt lat="44.38776" lon="6.90001">
        <ele>2425.06</ele>
        <time>2017-03-22T11:28:41Z</time>
      </trkpt>
      <trkpt lat="44.38778" lon="6.90005">
        <ele>2422.66</ele>
        <time>2017-03-22T11:28:43Z</time>
      </trkpt>
      <trkpt lat="44.38782" lon="6.90007">
        <ele>2421.22</ele>
        <time>2017-03-22T11:28:53Z</time>
      </trkpt>
      <trkpt lat="44.38782" lon="6.90006">
        <ele>2421.22</ele>
        <time>2017-03-22T11:29:10Z</time>
      </trkpt>
      <trkpt lat="44.38783" lon="6.90005">
        <ele>2421.22</ele>
        <time>2017-03-22T11:29:28Z</time>
      </trkpt>
      <trkpt lat="44.38783" lon="6.90005">
        <ele>2421.22</ele>
        <time>2017-03-22T11:29:31Z</time>
      </trkpt>
      <trkpt lat="44.38765" lon="6.90007">
        <ele>2417.37</ele>
        <time>2017-03-22T11:29:37Z</time>
      </trkpt>
      <trkpt lat="44.38762" lon="6.90009">
        <ele>2417.37</ele>
        <time>2017-03-22T11:29:38Z</time>
      </trkpt>
      <trkpt lat="44.38754" lon="6.90016">
        <ele>2415.45</ele>
        <time>2017-03-22T11:29:41Z</time>
      </trkpt>
      <trkpt lat="44.38751" lon="6.90029">
        <ele>2411.6</ele>
        <time>2017-03-22T11:29:45Z</time>
      </trkpt>
      <trkpt lat="44.38752" lon="6.90033">
        <ele>2411.6</ele>
        <time>2017-03-22T11:29:46Z</time>
      </trkpt>
      <trkpt lat="44.38754" lon="6.9004">
        <ele>2409.68</ele>
        <time>2017-03-22T11:29:48Z</time>
      </trkpt>
      <trkpt lat="44.38751" lon="6.90042">
        <ele>2406.32</ele>
        <time>2017-03-22T11:29:49Z</time>
      </trkpt>
      <trkpt lat="44.38749" lon="6.90044">
        <ele>2406.32</ele>
        <time>2017-03-22T11:29:50Z</time>
      </trkpt>
      <trkpt lat="44.38752" lon="6.90055">
        <ele>2402.95</ele>
        <time>2017-03-22T11:29:53Z</time>
      </trkpt>
      <trkpt lat="44.38746" lon="6.9006">
        <ele>2399.59</ele>
        <time>2017-03-22T11:29:56Z</time>
      </trkpt>
      <trkpt lat="44.38743" lon="6.90072">
        <ele>2396.7</ele>
        <time>2017-03-22T11:30:00Z</time>
      </trkpt>
      <trkpt lat="44.38744" lon="6.9008">
        <ele>2393.34</ele>
        <time>2017-03-22T11:30:03Z</time>
      </trkpt>
      <trkpt lat="44.38753" lon="6.90085">
        <ele>2390.46</ele>
        <time>2017-03-22T11:30:07Z</time>
      </trkpt>
      <trkpt lat="44.38749" lon="6.90094">
        <ele>2387.09</ele>
        <time>2017-03-22T11:30:11Z</time>
      </trkpt>
      <trkpt lat="44.3875" lon="6.90093">
        <ele>2386.61</ele>
        <time>2017-03-22T11:30:13Z</time>
      </trkpt>
      <trkpt lat="44.38755" lon="6.90101">
        <ele>2383.73</ele>
        <time>2017-03-22T11:30:17Z</time>
      </trkpt>
      <trkpt lat="44.38752" lon="6.90107">
        <ele>2380.36</ele>
        <time>2017-03-22T11:30:21Z</time>
      </trkpt>
      <trkpt lat="44.38753" lon="6.90106">
        <ele>2380.36</ele>
        <time>2017-03-22T11:30:22Z</time>
      </trkpt>
      <trkpt lat="44.38755" lon="6.90104">
        <ele>2377</ele>
        <time>2017-03-22T11:30:29Z</time>
      </trkpt>
      <trkpt lat="44.38756" lon="6.90105">
        <ele>2381.8</ele>
        <time>2017-03-22T11:30:31Z</time>
      </trkpt>
      <trkpt lat="44.38756" lon="6.90105">
        <ele>2380.36</ele>
        <time>2017-03-22T11:30:32Z</time>
      </trkpt>
      <trkpt lat="44.38754" lon="6.90104">
        <ele>2378.92</ele>
        <time>2017-03-22T11:30:52Z</time>
      </trkpt>
      <trkpt lat="44.38754" lon="6.90103">
        <ele>2380.36</ele>
        <time>2017-03-22T11:30:59Z</time>
      </trkpt>
      <trkpt lat="44.38756" lon="6.90103">
        <ele>2380.36</ele>
        <time>2017-03-22T11:31:18Z</time>
      </trkpt>
      <trkpt lat="44.38753" lon="6.90105">
        <ele>2380.36</ele>
        <time>2017-03-22T11:31:39Z</time>
      </trkpt>
      <trkpt lat="44.38752" lon="6.90107">
        <ele>2380.36</ele>
        <time>2017-03-22T11:31:50Z</time>
      </trkpt>
      <trkpt lat="44.38742" lon="6.90117">
        <ele>2376.04</ele>
        <time>2017-03-22T11:31:58Z</time>
      </trkpt>
      <trkpt lat="44.38745" lon="6.90132">
        <ele>2370.75</ele>
        <time>2017-03-22T11:32:05Z</time>
      </trkpt>
      <trkpt lat="44.38747" lon="6.90132">
        <ele>2370.27</ele>
        <time>2017-03-22T11:32:06Z</time>
      </trkpt>
      <trkpt lat="44.38748" lon="6.90131">
        <ele>2369.79</ele>
        <time>2017-03-22T11:32:09Z</time>
      </trkpt>
      <trkpt lat="44.38747" lon="6.9014">
        <ele>2366.42</ele>
        <time>2017-03-22T11:32:14Z</time>
      </trkpt>
      <trkpt lat="44.38753" lon="6.9014">
        <ele>2364.02</ele>
        <time>2017-03-22T11:32:22Z</time>
      </trkpt>
      <trkpt lat="44.38754" lon="6.90139">
        <ele>2364.02</ele>
        <time>2017-03-22T11:32:47Z</time>
      </trkpt>
      <trkpt lat="44.38752" lon="6.90141">
        <ele>2364.02</ele>
        <time>2017-03-22T11:33:07Z</time>
      </trkpt>
      <trkpt lat="44.38752" lon="6.90141">
        <ele>2364.5</ele>
        <time>2017-03-22T11:33:31Z</time>
      </trkpt>
      <trkpt lat="44.38754" lon="6.9014">
        <ele>2364.98</ele>
        <time>2017-03-22T11:33:50Z</time>
      </trkpt>
      <trkpt lat="44.38753" lon="6.90141">
        <ele>2364.02</ele>
        <time>2017-03-22T11:34:15Z</time>
      </trkpt>
      <trkpt lat="44.38753" lon="6.90141">
        <ele>2363.54</ele>
        <time>2017-03-22T11:34:40Z</time>
      </trkpt>
      <trkpt lat="44.38753" lon="6.90141">
        <ele>2364.02</ele>
        <time>2017-03-22T11:35:11Z</time>
      </trkpt>
      <trkpt lat="44.38753" lon="6.90141">
        <ele>2364.5</ele>
        <time>2017-03-22T11:35:39Z</time>
      </trkpt>
      <trkpt lat="44.38753" lon="6.90142">
        <ele>2364.02</ele>
        <time>2017-03-22T11:36:08Z</time>
      </trkpt>
      <trkpt lat="44.38753" lon="6.90141">
        <ele>2364.02</ele>
        <time>2017-03-22T11:36:37Z</time>
      </trkpt>
      <trkpt lat="44.38754" lon="6.90142">
        <ele>2364.02</ele>
        <time>2017-03-22T11:37:16Z</time>
      </trkpt>
      <trkpt lat="44.38751" lon="6.90143">
        <ele>2364.5</ele>
        <time>2017-03-22T11:37:40Z</time>
      </trkpt>
      <trkpt lat="44.3875" lon="6.90142">
        <ele>2364.02</ele>
        <time>2017-03-22T11:37:59Z</time>
      </trkpt>
      <trkpt lat="44.38753" lon="6.90143">
        <ele>2364.02</ele>
        <time>2017-03-22T11:38:20Z</time>
      </trkpt>
      <trkpt lat="44.38753" lon="6.90143">
        <ele>2363.54</ele>
        <time>2017-03-22T11:38:41Z</time>
      </trkpt>
      <trkpt lat="44.38754" lon="6.90142">
        <ele>2363.54</ele>
        <time>2017-03-22T11:39:00Z</time>
      </trkpt>
      <trkpt lat="44.38755" lon="6.90142">
        <ele>2364.02</ele>
        <time>2017-03-22T11:39:27Z</time>
      </trkpt>
      <trkpt lat="44.38756" lon="6.9014">
        <ele>2363.54</ele>
        <time>2017-03-22T11:39:58Z</time>
      </trkpt>
      <trkpt lat="44.38754" lon="6.9014">
        <ele>2363.06</ele>
        <time>2017-03-22T11:40:31Z</time>
      </trkpt>
      <trkpt lat="44.38755" lon="6.9014">
        <ele>2363.54</ele>
        <time>2017-03-22T11:40:56Z</time>
      </trkpt>
      <trkpt lat="44.38756" lon="6.9014">
        <ele>2363.54</ele>
        <time>2017-03-22T11:41:25Z</time>
      </trkpt>
      <trkpt lat="44.38753" lon="6.90141">
        <ele>2364.02</ele>
        <time>2017-03-22T11:41:42Z</time>
      </trkpt>
      <trkpt lat="44.38752" lon="6.90143">
        <ele>2363.54</ele>
        <time>2017-03-22T11:41:51Z</time>
      </trkpt>
      <trkpt lat="44.38747" lon="6.90145">
        <ele>2362.1</ele>
        <time>2017-03-22T11:41:56Z</time>
      </trkpt>
      <trkpt lat="44.38745" lon="6.90148">
        <ele>2361.62</ele>
        <time>2017-03-22T11:42:12Z</time>
      </trkpt>
      <trkpt lat="44.38746" lon="6.90156">
        <ele>2358.25</ele>
        <time>2017-03-22T11:42:15Z</time>
      </trkpt>
      <trkpt lat="44.38746" lon="6.90159">
        <ele>2357.77</ele>
        <time>2017-03-22T11:42:16Z</time>
      </trkpt>
      <trkpt lat="44.38743" lon="6.90169">
        <ele>2352.48</ele>
        <time>2017-03-22T11:42:20Z</time>
      </trkpt>
      <trkpt lat="44.38738" lon="6.90178">
        <ele>2349.12</ele>
        <time>2017-03-22T11:42:25Z</time>
      </trkpt>
      <trkpt lat="44.3874" lon="6.90184">
        <ele>2344.31</ele>
        <time>2017-03-22T11:42:28Z</time>
      </trkpt>
      <trkpt lat="44.38745" lon="6.90185">
        <ele>2343.83</ele>
        <time>2017-03-22T11:42:40Z</time>
      </trkpt>
      <trkpt lat="44.38749" lon="6.90186">
        <ele>2343.35</ele>
        <time>2017-03-22T11:42:49Z</time>
      </trkpt>
      <trkpt lat="44.38756" lon="6.90207">
        <ele>2339.99</ele>
        <time>2017-03-22T11:42:55Z</time>
      </trkpt>
      <trkpt lat="44.38764" lon="6.90218">
        <ele>2339.02</ele>
        <time>2017-03-22T11:42:58Z</time>
      </trkpt>
      <trkpt lat="44.38763" lon="6.90243">
        <ele>2335.18</ele>
        <time>2017-03-22T11:43:03Z</time>
      </trkpt>
      <trkpt lat="44.38769" lon="6.90253">
        <ele>2333.74</ele>
        <time>2017-03-22T11:43:06Z</time>
      </trkpt>
      <trkpt lat="44.38768" lon="6.90264">
        <ele>2330.37</ele>
        <time>2017-03-22T11:43:10Z</time>
      </trkpt>
      <trkpt lat="44.38769" lon="6.90264">
        <ele>2330.37</ele>
        <time>2017-03-22T11:43:11Z</time>
      </trkpt>
      <trkpt lat="44.38768" lon="6.90262">
        <ele>2330.85</ele>
        <time>2017-03-22T11:43:34Z</time>
      </trkpt>
      <trkpt lat="44.38768" lon="6.90264">
        <ele>2330.37</ele>
        <time>2017-03-22T11:43:56Z</time>
      </trkpt>
      <trkpt lat="44.38768" lon="6.90264">
        <ele>2330.85</ele>
        <time>2017-03-22T11:44:19Z</time>
      </trkpt>
      <trkpt lat="44.38773" lon="6.9027">
        <ele>2329.41</ele>
        <time>2017-03-22T11:44:29Z</time>
      </trkpt>
      <trkpt lat="44.38782" lon="6.90288">
        <ele>2325.57</ele>
        <time>2017-03-22T11:44:35Z</time>
      </trkpt>
      <trkpt lat="44.38787" lon="6.90294">
        <ele>2322.2</ele>
        <time>2017-03-22T11:44:38Z</time>
      </trkpt>
      <trkpt lat="44.38791" lon="6.90313">
        <ele>2317.88</ele>
        <time>2017-03-22T11:44:42Z</time>
      </trkpt>
      <trkpt lat="44.38792" lon="6.90318">
        <ele>2317.4</ele>
        <time>2017-03-22T11:44:43Z</time>
      </trkpt>
      <trkpt lat="44.38792" lon="6.90326">
        <ele>2314.51</ele>
        <time>2017-03-22T11:44:45Z</time>
      </trkpt>
      <trkpt lat="44.38795" lon="6.9034">
        <ele>2311.15</ele>
        <time>2017-03-22T11:44:49Z</time>
      </trkpt>
      <trkpt lat="44.388" lon="6.90339">
        <ele>2310.67</ele>
        <time>2017-03-22T11:44:51Z</time>
      </trkpt>
      <trkpt lat="44.38802" lon="6.90338">
        <ele>2310.67</ele>
        <time>2017-03-22T11:45:01Z</time>
      </trkpt>
      <trkpt lat="44.38806" lon="6.90339">
        <ele>2309.7</ele>
        <time>2017-03-22T11:45:04Z</time>
      </trkpt>
      <trkpt lat="44.38807" lon="6.90353">
        <ele>2306.34</ele>
        <time>2017-03-22T11:45:09Z</time>
      </trkpt>
      <trkpt lat="44.38807" lon="6.90362">
        <ele>2302.98</ele>
        <time>2017-03-22T11:45:15Z</time>
      </trkpt>
      <trkpt lat="44.38806" lon="6.90371">
        <ele>2298.17</ele>
        <time>2017-03-22T11:45:19Z</time>
      </trkpt>
      <trkpt lat="44.3881" lon="6.90373">
        <ele>2295.77</ele>
        <time>2017-03-22T11:45:24Z</time>
      </trkpt>
      <trkpt lat="44.38815" lon="6.90379">
        <ele>2294.32</ele>
        <time>2017-03-22T11:45:28Z</time>
      </trkpt>
      <trkpt lat="44.38815" lon="6.90377">
        <ele>2294.32</ele>
        <time>2017-03-22T11:45:47Z</time>
      </trkpt>
      <trkpt lat="44.38816" lon="6.90376">
        <ele>2294.32</ele>
        <time>2017-03-22T11:46:14Z</time>
      </trkpt>
      <trkpt lat="44.38815" lon="6.90377">
        <ele>2294.32</ele>
        <time>2017-03-22T11:46:38Z</time>
      </trkpt>
      <trkpt lat="44.38814" lon="6.90378">
        <ele>2294.32</ele>
        <time>2017-03-22T11:47:08Z</time>
      </trkpt>
      <trkpt lat="44.38814" lon="6.90378">
        <ele>2294.32</ele>
        <time>2017-03-22T11:47:17Z</time>
      </trkpt>
      <trkpt lat="44.38811" lon="6.90396">
        <ele>2288.08</ele>
        <time>2017-03-22T11:47:23Z</time>
      </trkpt>
      <trkpt lat="44.38813" lon="6.904">
        <ele>2288.08</ele>
        <time>2017-03-22T11:47:24Z</time>
      </trkpt>
      <trkpt lat="44.38809" lon="6.90407">
        <ele>2284.23</ele>
        <time>2017-03-22T11:47:26Z</time>
      </trkpt>
      <trkpt lat="44.38813" lon="6.9042">
        <ele>2281.35</ele>
        <time>2017-03-22T11:47:29Z</time>
      </trkpt>
      <trkpt lat="44.38812" lon="6.90425">
        <ele>2281.35</ele>
        <time>2017-03-22T11:47:30Z</time>
      </trkpt>
      <trkpt lat="44.38806" lon="6.90433">
        <ele>2277.02</ele>
        <time>2017-03-22T11:47:32Z</time>
      </trkpt>
      <trkpt lat="44.38808" lon="6.90438">
        <ele>2273.17</ele>
        <time>2017-03-22T11:47:34Z</time>
      </trkpt>
      <trkpt lat="44.38809" lon="6.90438">
        <ele>2273.17</ele>
        <time>2017-03-22T11:47:35Z</time>
      </trkpt>
      <trkpt lat="44.38811" lon="6.90435">
        <ele>2273.17</ele>
        <time>2017-03-22T11:47:51Z</time>
      </trkpt>
      <trkpt lat="44.38811" lon="6.90435">
        <ele>2273.17</ele>
        <time>2017-03-22T11:48:16Z</time>
      </trkpt>
      <trkpt lat="44.38811" lon="6.90436">
        <ele>2272.69</ele>
        <time>2017-03-22T11:48:32Z</time>
      </trkpt>
      <trkpt lat="44.38809" lon="6.90436">
        <ele>2273.17</ele>
        <time>2017-03-22T11:48:58Z</time>
      </trkpt>
      <trkpt lat="44.38808" lon="6.90435">
        <ele>2273.17</ele>
        <time>2017-03-22T11:49:36Z</time>
      </trkpt>
      <trkpt lat="44.38808" lon="6.90437">
        <ele>2274.14</ele>
        <time>2017-03-22T11:49:45Z</time>
      </trkpt>
      <trkpt lat="44.38806" lon="6.90452">
        <ele>2269.81</ele>
        <time>2017-03-22T11:49:50Z</time>
      </trkpt>
      <trkpt lat="44.38803" lon="6.9047">
        <ele>2260.68</ele>
        <time>2017-03-22T11:49:56Z</time>
      </trkpt>
      <trkpt lat="44.38802" lon="6.9048">
        <ele>2257.31</ele>
        <time>2017-03-22T11:50:00Z</time>
      </trkpt>
      <trkpt lat="44.38801" lon="6.90487">
        <ele>2253.47</ele>
        <time>2017-03-22T11:50:02Z</time>
      </trkpt>
      <trkpt lat="44.38805" lon="6.90492">
        <ele>2249.14</ele>
        <time>2017-03-22T11:50:04Z</time>
      </trkpt>
      <trkpt lat="44.38804" lon="6.90496">
        <ele>2249.14</ele>
        <time>2017-03-22T11:50:05Z</time>
      </trkpt>
      <trkpt lat="44.388" lon="6.90503">
        <ele>2244.33</ele>
        <time>2017-03-22T11:50:08Z</time>
      </trkpt>
      <trkpt lat="44.38804" lon="6.90516">
        <ele>2239.53</ele>
        <time>2017-03-22T11:50:13Z</time>
      </trkpt>
      <trkpt lat="44.38804" lon="6.90523">
        <ele>2235.68</ele>
        <time>2017-03-22T11:50:15Z</time>
      </trkpt>
      <trkpt lat="44.38807" lon="6.90524">
        <ele>2233.28</ele>
        <time>2017-03-22T11:50:16Z</time>
      </trkpt>
      <trkpt lat="44.38813" lon="6.90539">
        <ele>2227.99</ele>
        <time>2017-03-22T11:50:22Z</time>
      </trkpt>
      <trkpt lat="44.38816" lon="6.9054">
        <ele>2227.03</ele>
        <time>2017-03-22T11:50:23Z</time>
      </trkpt>
      <trkpt lat="44.38834" lon="6.90547">
        <ele>2226.07</ele>
        <time>2017-03-22T11:50:30Z</time>
      </trkpt>
      <trkpt lat="44.38845" lon="6.90566">
        <ele>2222.71</ele>
        <time>2017-03-22T11:50:34Z</time>
      </trkpt>
      <trkpt lat="44.38853" lon="6.90586">
        <ele>2218.86</ele>
        <time>2017-03-22T11:50:37Z</time>
      </trkpt>
      <trkpt lat="44.38862" lon="6.90603">
        <ele>2214.53</ele>
        <time>2017-03-22T11:50:40Z</time>
      </trkpt>
      <trkpt lat="44.38865" lon="6.90607">
        <ele>2214.53</ele>
        <time>2017-03-22T11:50:41Z</time>
      </trkpt>
      <trkpt lat="44.38865" lon="6.90612">
        <ele>2212.61</ele>
        <time>2017-03-22T11:50:44Z</time>
      </trkpt>
      <trkpt lat="44.38865" lon="6.90612">
        <ele>2212.61</ele>
        <time>2017-03-22T11:51:00Z</time>
      </trkpt>
      <trkpt lat="44.38866" lon="6.90613">
        <ele>2212.61</ele>
        <time>2017-03-22T11:51:22Z</time>
      </trkpt>
      <trkpt lat="44.38867" lon="6.90611">
        <ele>2211.17</ele>
        <time>2017-03-22T11:51:49Z</time>
      </trkpt>
      <trkpt lat="44.38867" lon="6.90611">
        <ele>2211.65</ele>
        <time>2017-03-22T11:52:11Z</time>
      </trkpt>
      <trkpt lat="44.38867" lon="6.90613">
        <ele>2211.17</ele>
        <time>2017-03-22T11:52:14Z</time>
      </trkpt>
      <trkpt lat="44.38881" lon="6.90606">
        <ele>2208.77</ele>
        <time>2017-03-22T11:52:21Z</time>
      </trkpt>
      <trkpt lat="44.38891" lon="6.90609">
        <ele>2206.36</ele>
        <time>2017-03-22T11:52:26Z</time>
      </trkpt>
      <trkpt lat="44.38896" lon="6.90611">
        <ele>2203.48</ele>
        <time>2017-03-22T11:52:31Z</time>
      </trkpt>
      <trkpt lat="44.38896" lon="6.90612">
        <ele>2203</ele>
        <time>2017-03-22T11:52:32Z</time>
      </trkpt>
      <trkpt lat="44.38902" lon="6.90602">
        <ele>2202.04</ele>
        <time>2017-03-22T11:52:37Z</time>
      </trkpt>
      <trkpt lat="44.38909" lon="6.90607">
        <ele>2199.15</ele>
        <time>2017-03-22T11:52:41Z</time>
      </trkpt>
      <trkpt lat="44.38921" lon="6.90596">
        <ele>2195.79</ele>
        <time>2017-03-22T11:52:46Z</time>
      </trkpt>
      <trkpt lat="44.38922" lon="6.906">
        <ele>2193.39</ele>
        <time>2017-03-22T11:52:49Z</time>
      </trkpt>
      <trkpt lat="44.38921" lon="6.90601">
        <ele>2193.39</ele>
        <time>2017-03-22T11:53:10Z</time>
      </trkpt>
      <trkpt lat="44.38923" lon="6.90606">
        <ele>2192.9</ele>
        <time>2017-03-22T11:53:23Z</time>
      </trkpt>
      <trkpt lat="44.38933" lon="6.90616">
        <ele>2189.06</ele>
        <time>2017-03-22T11:53:28Z</time>
      </trkpt>
      <trkpt lat="44.38942" lon="6.90628">
        <ele>2185.21</ele>
        <time>2017-03-22T11:53:32Z</time>
      </trkpt>
      <trkpt lat="44.38946" lon="6.90637">
        <ele>2182.33</ele>
        <time>2017-03-22T11:53:35Z</time>
      </trkpt>
      <trkpt lat="44.38947" lon="6.9064">
        <ele>2181.85</ele>
        <time>2017-03-22T11:53:36Z</time>
      </trkpt>
      <trkpt lat="44.38946" lon="6.90649">
        <ele>2178.97</ele>
        <time>2017-03-22T11:53:39Z</time>
      </trkpt>
      <trkpt lat="44.38953" lon="6.9065">
        <ele>2178</ele>
        <time>2017-03-22T11:53:47Z</time>
      </trkpt>
      <trkpt lat="44.38953" lon="6.90651">
        <ele>2176.56</ele>
        <time>2017-03-22T11:54:03Z</time>
      </trkpt>
      <trkpt lat="44.38953" lon="6.90653">
        <ele>2176.56</ele>
        <time>2017-03-22T11:54:25Z</time>
      </trkpt>
      <trkpt lat="44.38953" lon="6.90653">
        <ele>2176.56</ele>
        <time>2017-03-22T11:54:38Z</time>
      </trkpt>
      <trkpt lat="44.38953" lon="6.90652">
        <ele>2176.08</ele>
        <time>2017-03-22T11:54:59Z</time>
      </trkpt>
      <trkpt lat="44.38953" lon="6.90653">
        <ele>2176.08</ele>
        <time>2017-03-22T11:55:00Z</time>
      </trkpt>
      <trkpt lat="44.38945" lon="6.90666">
        <ele>2174.64</ele>
        <time>2017-03-22T11:55:04Z</time>
      </trkpt>
      <trkpt lat="44.3894" lon="6.90685">
        <ele>2172.72</ele>
        <time>2017-03-22T11:55:13Z</time>
      </trkpt>
      <trkpt lat="44.3894" lon="6.90688">
        <ele>2172.24</ele>
        <time>2017-03-22T11:55:14Z</time>
      </trkpt>
      <trkpt lat="44.38943" lon="6.907">
        <ele>2168.39</ele>
        <time>2017-03-22T11:55:17Z</time>
      </trkpt>
      <trkpt lat="44.38944" lon="6.90712">
        <ele>2165.03</ele>
        <time>2017-03-22T11:55:20Z</time>
      </trkpt>
      <trkpt lat="44.38941" lon="6.90721">
        <ele>2163.1</ele>
        <time>2017-03-22T11:55:22Z</time>
      </trkpt>
      <trkpt lat="44.38937" lon="6.90727">
        <ele>2162.14</ele>
        <time>2017-03-22T11:55:24Z</time>
      </trkpt>
      <trkpt lat="44.38942" lon="6.90742">
        <ele>2157.82</ele>
        <time>2017-03-22T11:55:28Z</time>
      </trkpt>
      <trkpt lat="44.38941" lon="6.90752">
        <ele>2153.97</ele>
        <time>2017-03-22T11:55:30Z</time>
      </trkpt>
      <trkpt lat="44.38946" lon="6.90754">
        <ele>2150.61</ele>
        <time>2017-03-22T11:55:32Z</time>
      </trkpt>
      <trkpt lat="44.3895" lon="6.90761">
        <ele>2145.8</ele>
        <time>2017-03-22T11:55:35Z</time>
      </trkpt>
      <trkpt lat="44.38954" lon="6.90773">
        <ele>2141.47</ele>
        <time>2017-03-22T11:55:38Z</time>
      </trkpt>
      <trkpt lat="44.38956" lon="6.90783">
        <ele>2137.63</ele>
        <time>2017-03-22T11:55:40Z</time>
      </trkpt>
      <trkpt lat="44.38968" lon="6.90787">
        <ele>2134.26</ele>
        <time>2017-03-22T11:55:43Z</time>
      </trkpt>
      <trkpt lat="44.38969" lon="6.90791">
        <ele>2131.86</ele>
        <time>2017-03-22T11:55:45Z</time>
      </trkpt>
      <trkpt lat="44.38971" lon="6.90786">
        <ele>2131.38</ele>
        <time>2017-03-22T11:55:56Z</time>
      </trkpt>
      <trkpt lat="44.38971" lon="6.90785">
        <ele>2131.38</ele>
        <time>2017-03-22T11:56:11Z</time>
      </trkpt>
      <trkpt lat="44.38971" lon="6.90785">
        <ele>2131.86</ele>
        <time>2017-03-22T11:56:33Z</time>
      </trkpt>
      <trkpt lat="44.38973" lon="6.90785">
        <ele>2131.38</ele>
        <time>2017-03-22T11:57:06Z</time>
      </trkpt>
      <trkpt lat="44.38973" lon="6.90786">
        <ele>2130.9</ele>
        <time>2017-03-22T11:57:28Z</time>
      </trkpt>
      <trkpt lat="44.38957" lon="6.9081">
        <ele>2128.5</ele>
        <time>2017-03-22T11:57:35Z</time>
      </trkpt>
      <trkpt lat="44.3895" lon="6.90816">
        <ele>2126.57</ele>
        <time>2017-03-22T11:57:44Z</time>
      </trkpt>
      <trkpt lat="44.3895" lon="6.90816">
        <ele>2126.57</ele>
        <time>2017-03-22T11:58:07Z</time>
      </trkpt>
      <trkpt lat="44.38949" lon="6.90816">
        <ele>2126.09</ele>
        <time>2017-03-22T11:58:34Z</time>
      </trkpt>
      <trkpt lat="44.38949" lon="6.90816">
        <ele>2125.61</ele>
        <time>2017-03-22T11:58:49Z</time>
      </trkpt>
      <trkpt lat="44.38953" lon="6.90833">
        <ele>2120.81</ele>
        <time>2017-03-22T11:58:54Z</time>
      </trkpt>
      <trkpt lat="44.38943" lon="6.90847">
        <ele>2116.96</ele>
        <time>2017-03-22T11:58:58Z</time>
      </trkpt>
      <trkpt lat="44.38948" lon="6.90859">
        <ele>2113.6</ele>
        <time>2017-03-22T11:59:00Z</time>
      </trkpt>
      <trkpt lat="44.38956" lon="6.90888">
        <ele>2110.71</ele>
        <time>2017-03-22T11:59:05Z</time>
      </trkpt>
      <trkpt lat="44.38952" lon="6.90906">
        <ele>2107.83</ele>
        <time>2017-03-22T11:59:08Z</time>
      </trkpt>
      <trkpt lat="44.38949" lon="6.90926">
        <ele>2103.5</ele>
        <time>2017-03-22T11:59:11Z</time>
      </trkpt>
      <trkpt lat="44.38949" lon="6.90945">
        <ele>2099.18</ele>
        <time>2017-03-22T11:59:14Z</time>
      </trkpt>
      <trkpt lat="44.38951" lon="6.90965">
        <ele>2094.85</ele>
        <time>2017-03-22T11:59:17Z</time>
      </trkpt>
      <trkpt lat="44.38957" lon="6.90991">
        <ele>2088.6</ele>
        <time>2017-03-22T11:59:21Z</time>
      </trkpt>
      <trkpt lat="44.38957" lon="6.91008">
        <ele>2085.24</ele>
        <time>2017-03-22T11:59:24Z</time>
      </trkpt>
      <trkpt lat="44.3896" lon="6.91022">
        <ele>2081.39</ele>
        <time>2017-03-22T11:59:26Z</time>
      </trkpt>
      <trkpt lat="44.38966" lon="6.9104">
        <ele>2077.55</ele>
        <time>2017-03-22T11:59:29Z</time>
      </trkpt>
      <trkpt lat="44.38966" lon="6.9105">
        <ele>2074.18</ele>
        <time>2017-03-22T11:59:31Z</time>
      </trkpt>
      <trkpt lat="44.38974" lon="6.91059">
        <ele>2071.3</ele>
        <time>2017-03-22T11:59:34Z</time>
      </trkpt>
      <trkpt lat="44.38982" lon="6.91075">
        <ele>2066.97</ele>
        <time>2017-03-22T11:59:37Z</time>
      </trkpt>
      <trkpt lat="44.38983" lon="6.91081">
        <ele>2066.49</ele>
        <time>2017-03-22T11:59:38Z</time>
      </trkpt>
      <trkpt lat="44.38982" lon="6.91087">
        <ele>2063.13</ele>
        <time>2017-03-22T11:59:49Z</time>
      </trkpt>
      <trkpt lat="44.38982" lon="6.91087">
        <ele>2067.45</ele>
        <time>2017-03-22T11:59:50Z</time>
      </trkpt>
      <trkpt lat="44.38982" lon="6.91086">
        <ele>2066.97</ele>
        <time>2017-03-22T11:59:51Z</time>
      </trkpt>
      <trkpt lat="44.38982" lon="6.91086">
        <ele>2066.01</ele>
        <time>2017-03-22T11:59:53Z</time>
      </trkpt>
      <trkpt lat="44.38982" lon="6.91087">
        <ele>2065.53</ele>
        <time>2017-03-22T12:00:12Z</time>
      </trkpt>
      <trkpt lat="44.38983" lon="6.91084">
        <ele>2065.53</ele>
        <time>2017-03-22T12:00:34Z</time>
      </trkpt>
      <trkpt lat="44.38982" lon="6.91089">
        <ele>2065.53</ele>
        <time>2017-03-22T12:00:53Z</time>
      </trkpt>
      <trkpt lat="44.38982" lon="6.91089">
        <ele>2065.53</ele>
        <time>2017-03-22T12:01:10Z</time>
      </trkpt>
      <trkpt lat="44.38981" lon="6.91088">
        <ele>2065.53</ele>
        <time>2017-03-22T12:01:32Z</time>
      </trkpt>
      <trkpt lat="44.38982" lon="6.91091">
        <ele>2065.53</ele>
        <time>2017-03-22T12:01:35Z</time>
      </trkpt>
      <trkpt lat="44.38981" lon="6.91098">
        <ele>2064.57</ele>
        <time>2017-03-22T12:01:37Z</time>
      </trkpt>
      <trkpt lat="44.38983" lon="6.91107">
        <ele>2062.17</ele>
        <time>2017-03-22T12:01:40Z</time>
      </trkpt>
      <trkpt lat="44.38985" lon="6.91108">
        <ele>2061.68</ele>
        <time>2017-03-22T12:01:41Z</time>
      </trkpt>
      <trkpt lat="44.38986" lon="6.9111">
        <ele>2060.72</ele>
        <time>2017-03-22T12:01:42Z</time>
      </trkpt>
      <trkpt lat="44.38985" lon="6.91111">
        <ele>2059.76</ele>
        <time>2017-03-22T12:01:43Z</time>
      </trkpt>
      <trkpt lat="44.38984" lon="6.91116">
        <ele>2058.8</ele>
        <time>2017-03-22T12:01:45Z</time>
      </trkpt>
      <trkpt lat="44.38986" lon="6.91119">
        <ele>2058.32</ele>
        <time>2017-03-22T12:01:46Z</time>
      </trkpt>
      <trkpt lat="44.38988" lon="6.91122">
        <ele>2056.88</ele>
        <time>2017-03-22T12:01:47Z</time>
      </trkpt>
      <trkpt lat="44.38988" lon="6.91125">
        <ele>2056.4</ele>
        <time>2017-03-22T12:01:48Z</time>
      </trkpt>
      <trkpt lat="44.38985" lon="6.91135">
        <ele>2054.47</ele>
        <time>2017-03-22T12:01:51Z</time>
      </trkpt>
      <trkpt lat="44.38987" lon="6.91138">
        <ele>2052.07</ele>
        <time>2017-03-22T12:01:52Z</time>
      </trkpt>
      <trkpt lat="44.38989" lon="6.91141">
        <ele>2050.63</ele>
        <time>2017-03-22T12:01:53Z</time>
      </trkpt>
      <trkpt lat="44.3899" lon="6.91145">
        <ele>2049.19</ele>
        <time>2017-03-22T12:01:54Z</time>
      </trkpt>
      <trkpt lat="44.38988" lon="6.91147">
        <ele>2047.75</ele>
        <time>2017-03-22T12:01:55Z</time>
      </trkpt>
      <trkpt lat="44.38987" lon="6.91153">
        <ele>2045.34</ele>
        <time>2017-03-22T12:01:57Z</time>
      </trkpt>
      <trkpt lat="44.38988" lon="6.91157">
        <ele>2044.38</ele>
        <time>2017-03-22T12:01:58Z</time>
      </trkpt>
      <trkpt lat="44.38986" lon="6.91166">
        <ele>2041.02</ele>
        <time>2017-03-22T12:02:00Z</time>
      </trkpt>
      <trkpt lat="44.38988" lon="6.91174">
        <ele>2038.13</ele>
        <time>2017-03-22T12:02:02Z</time>
      </trkpt>
      <trkpt lat="44.38991" lon="6.91178">
        <ele>2037.17</ele>
        <time>2017-03-22T12:02:03Z</time>
      </trkpt>
      <trkpt lat="44.38994" lon="6.91181">
        <ele>2036.21</ele>
        <time>2017-03-22T12:02:04Z</time>
      </trkpt>
      <trkpt lat="44.38997" lon="6.91186">
        <ele>2035.73</ele>
        <time>2017-03-22T12:02:05Z</time>
      </trkpt>
      <trkpt lat="44.38996" lon="6.91198">
        <ele>2032.36</ele>
        <time>2017-03-22T12:02:07Z</time>
      </trkpt>
      <trkpt lat="44.39008" lon="6.91216">
        <ele>2028.52</ele>
        <time>2017-03-22T12:02:11Z</time>
      </trkpt>
      <trkpt lat="44.39009" lon="6.91233">
        <ele>2024.67</ele>
        <time>2017-03-22T12:02:14Z</time>
      </trkpt>
      <trkpt lat="44.39019" lon="6.91237">
        <ele>2024.67</ele>
        <time>2017-03-22T12:02:20Z</time>
      </trkpt>
      <trkpt lat="44.39018" lon="6.91237">
        <ele>2024.19</ele>
        <time>2017-03-22T12:02:36Z</time>
      </trkpt>
      <trkpt lat="44.39019" lon="6.9124">
        <ele>2024.67</ele>
        <time>2017-03-22T12:03:03Z</time>
      </trkpt>
      <trkpt lat="44.39019" lon="6.91241">
        <ele>2024.67</ele>
        <time>2017-03-22T12:03:26Z</time>
      </trkpt>
      <trkpt lat="44.39019" lon="6.91238">
        <ele>2023.71</ele>
        <time>2017-03-22T12:03:45Z</time>
      </trkpt>
      <trkpt lat="44.39018" lon="6.91235">
        <ele>2023.23</ele>
        <time>2017-03-22T12:04:04Z</time>
      </trkpt>
      <trkpt lat="44.39017" lon="6.91236">
        <ele>2023.23</ele>
        <time>2017-03-22T12:04:41Z</time>
      </trkpt>
      <trkpt lat="44.39018" lon="6.91235">
        <ele>2022.75</ele>
        <time>2017-03-22T12:05:14Z</time>
      </trkpt>
      <trkpt lat="44.39015" lon="6.91235">
        <ele>2023.23</ele>
        <time>2017-03-22T12:05:53Z</time>
      </trkpt>
      <trkpt lat="44.39015" lon="6.91235">
        <ele>2022.75</ele>
        <time>2017-03-22T12:06:32Z</time>
      </trkpt>
      <trkpt lat="44.39015" lon="6.91235">
        <ele>2023.23</ele>
        <time>2017-03-22T12:07:10Z</time>
      </trkpt>
      <trkpt lat="44.39018" lon="6.91238">
        <ele>2024.19</ele>
        <time>2017-03-22T12:07:50Z</time>
      </trkpt>
      <trkpt lat="44.39016" lon="6.91236">
        <ele>2023.23</ele>
        <time>2017-03-22T12:07:55Z</time>
      </trkpt>
      <trkpt lat="44.39017" lon="6.91237">
        <ele>2024.19</ele>
        <time>2017-03-22T12:08:01Z</time>
      </trkpt>
      <trkpt lat="44.39018" lon="6.91239">
        <ele>2024.67</ele>
        <time>2017-03-22T12:08:24Z</time>
      </trkpt>
      <trkpt lat="44.3902" lon="6.91239">
        <ele>2024.19</ele>
        <time>2017-03-22T12:08:54Z</time>
      </trkpt>
      <trkpt lat="44.39022" lon="6.9124">
        <ele>2023.71</ele>
        <time>2017-03-22T12:09:03Z</time>
      </trkpt>
      <trkpt lat="44.39025" lon="6.91257">
        <ele>2020.35</ele>
        <time>2017-03-22T12:09:09Z</time>
      </trkpt>
      <trkpt lat="44.39031" lon="6.91268">
        <ele>2016.98</ele>
        <time>2017-03-22T12:09:13Z</time>
      </trkpt>
      <trkpt lat="44.39026" lon="6.91286">
        <ele>2013.14</ele>
        <time>2017-03-22T12:09:18Z</time>
      </trkpt>
      <trkpt lat="44.39029" lon="6.91299">
        <ele>2009.29</ele>
        <time>2017-03-22T12:09:21Z</time>
      </trkpt>
      <trkpt lat="44.39031" lon="6.91313">
        <ele>2005.45</ele>
        <time>2017-03-22T12:09:24Z</time>
      </trkpt>
      <trkpt lat="44.39041" lon="6.91329">
        <ele>2001.6</ele>
        <time>2017-03-22T12:09:28Z</time>
      </trkpt>
      <trkpt lat="44.39049" lon="6.91336">
        <ele>2000.16</ele>
        <time>2017-03-22T12:09:30Z</time>
      </trkpt>
      <trkpt lat="44.39063" lon="6.91355">
        <ele>1996.8</ele>
        <time>2017-03-22T12:09:39Z</time>
      </trkpt>
      <trkpt lat="44.39071" lon="6.9137">
        <ele>1993.43</ele>
        <time>2017-03-22T12:09:44Z</time>
      </trkpt>
      <trkpt lat="44.39072" lon="6.91372">
        <ele>1993.43</ele>
        <time>2017-03-22T12:09:45Z</time>
      </trkpt>
      <trkpt lat="44.39075" lon="6.91375">
        <ele>1991.99</ele>
        <time>2017-03-22T12:09:47Z</time>
      </trkpt>
      <trkpt lat="44.3908" lon="6.91381">
        <ele>1990.07</ele>
        <time>2017-03-22T12:09:51Z</time>
      </trkpt>
      <trkpt lat="44.39082" lon="6.91392">
        <ele>1988.62</ele>
        <time>2017-03-22T12:09:54Z</time>
      </trkpt>
      <trkpt lat="44.39084" lon="6.91399">
        <ele>1984.3</ele>
        <time>2017-03-22T12:09:57Z</time>
      </trkpt>
      <trkpt lat="44.39083" lon="6.91399">
        <ele>1983.82</ele>
        <time>2017-03-22T12:09:58Z</time>
      </trkpt>
      <trkpt lat="44.39085" lon="6.914">
        <ele>1983.82</ele>
        <time>2017-03-22T12:10:10Z</time>
      </trkpt>
      <trkpt lat="44.39079" lon="6.91408">
        <ele>1982.38</ele>
        <time>2017-03-22T12:10:16Z</time>
      </trkpt>
      <trkpt lat="44.39063" lon="6.91422">
        <ele>1979.01</ele>
        <time>2017-03-22T12:10:21Z</time>
      </trkpt>
      <trkpt lat="44.39063" lon="6.91434">
        <ele>1976.13</ele>
        <time>2017-03-22T12:10:25Z</time>
      </trkpt>
      <trkpt lat="44.39059" lon="6.91445">
        <ele>1972.28</ele>
        <time>2017-03-22T12:10:28Z</time>
      </trkpt>
      <trkpt lat="44.39062" lon="6.91458">
        <ele>1969.4</ele>
        <time>2017-03-22T12:10:32Z</time>
      </trkpt>
      <trkpt lat="44.3907" lon="6.91466">
        <ele>1965.55</ele>
        <time>2017-03-22T12:10:37Z</time>
      </trkpt>
      <trkpt lat="44.39067" lon="6.91462">
        <ele>1965.55</ele>
        <time>2017-03-22T12:10:55Z</time>
      </trkpt>
      <trkpt lat="44.3907" lon="6.91461">
        <ele>1966.03</ele>
        <time>2017-03-22T12:11:15Z</time>
      </trkpt>
      <trkpt lat="44.39069" lon="6.91462">
        <ele>1966.03</ele>
        <time>2017-03-22T12:11:17Z</time>
      </trkpt>
      <trkpt lat="44.39084" lon="6.91466">
        <ele>1963.63</ele>
        <time>2017-03-22T12:11:27Z</time>
      </trkpt>
      <trkpt lat="44.39098" lon="6.91477">
        <ele>1960.27</ele>
        <time>2017-03-22T12:11:34Z</time>
      </trkpt>
      <trkpt lat="44.3911" lon="6.91479">
        <ele>1959.3</ele>
        <time>2017-03-22T12:11:45Z</time>
      </trkpt>
      <trkpt lat="44.3911" lon="6.91479">
        <ele>1958.82</ele>
        <time>2017-03-22T12:12:05Z</time>
      </trkpt>
      <trkpt lat="44.39108" lon="6.91477">
        <ele>1959.3</ele>
        <time>2017-03-22T12:12:29Z</time>
      </trkpt>
      <trkpt lat="44.39109" lon="6.91479">
        <ele>1958.82</ele>
        <time>2017-03-22T12:12:52Z</time>
      </trkpt>
      <trkpt lat="44.39107" lon="6.91475">
        <ele>1958.82</ele>
        <time>2017-03-22T12:13:13Z</time>
      </trkpt>
      <trkpt lat="44.39107" lon="6.91475">
        <ele>1958.82</ele>
        <time>2017-03-22T12:13:14Z</time>
      </trkpt>
      <trkpt lat="44.3912" lon="6.91472">
        <ele>1955.46</ele>
        <time>2017-03-22T12:13:20Z</time>
      </trkpt>
      <trkpt lat="44.39125" lon="6.91484">
        <ele>1951.61</ele>
        <time>2017-03-22T12:13:23Z</time>
      </trkpt>
      <trkpt lat="44.39131" lon="6.91485">
        <ele>1948.25</ele>
        <time>2017-03-22T12:13:25Z</time>
      </trkpt>
      <trkpt lat="44.39129" lon="6.91494">
        <ele>1945.36</ele>
        <time>2017-03-22T12:13:27Z</time>
      </trkpt>
      <trkpt lat="44.39128" lon="6.91503">
        <ele>1942.48</ele>
        <time>2017-03-22T12:13:29Z</time>
      </trkpt>
      <trkpt lat="44.39126" lon="6.91508">
        <ele>1941.04</ele>
        <time>2017-03-22T12:13:30Z</time>
      </trkpt>
      <trkpt lat="44.39121" lon="6.91523">
        <ele>1937.67</ele>
        <time>2017-03-22T12:13:34Z</time>
      </trkpt>
      <trkpt lat="44.39121" lon="6.91523">
        <ele>1936.23</ele>
        <time>2017-03-22T12:13:35Z</time>
      </trkpt>
      <trkpt lat="44.39127" lon="6.91525">
        <ele>1935.27</ele>
        <time>2017-03-22T12:13:37Z</time>
      </trkpt>
      <trkpt lat="44.39129" lon="6.91526">
        <ele>1934.79</ele>
        <time>2017-03-22T12:13:38Z</time>
      </trkpt>
      <trkpt lat="44.39127" lon="6.91534">
        <ele>1932.87</ele>
        <time>2017-03-22T12:13:41Z</time>
      </trkpt>
      <trkpt lat="44.39123" lon="6.91539">
        <ele>1931.91</ele>
        <time>2017-03-22T12:13:43Z</time>
      </trkpt>
      <trkpt lat="44.3913" lon="6.91556">
        <ele>1928.54</ele>
        <time>2017-03-22T12:13:49Z</time>
      </trkpt>
      <trkpt lat="44.39128" lon="6.9156">
        <ele>1927.1</ele>
        <time>2017-03-22T12:13:50Z</time>
      </trkpt>
      <trkpt lat="44.39127" lon="6.9157">
        <ele>1925.66</ele>
        <time>2017-03-22T12:13:53Z</time>
      </trkpt>
      <trkpt lat="44.39129" lon="6.91565">
        <ele>1924.22</ele>
        <time>2017-03-22T12:14:11Z</time>
      </trkpt>
      <trkpt lat="44.3913" lon="6.91565">
        <ele>1924.22</ele>
        <time>2017-03-22T12:14:42Z</time>
      </trkpt>
      <trkpt lat="44.39132" lon="6.91563">
        <ele>1924.22</ele>
        <time>2017-03-22T12:15:01Z</time>
      </trkpt>
      <trkpt lat="44.39129" lon="6.91564">
        <ele>1924.7</ele>
        <time>2017-03-22T12:15:35Z</time>
      </trkpt>
      <trkpt lat="44.39131" lon="6.91565">
        <ele>1924.22</ele>
        <time>2017-03-22T12:16:08Z</time>
      </trkpt>
      <trkpt lat="44.39129" lon="6.91562">
        <ele>1924.22</ele>
        <time>2017-03-22T12:16:37Z</time>
      </trkpt>
      <trkpt lat="44.39132" lon="6.91563">
        <ele>1924.22</ele>
        <time>2017-03-22T12:17:11Z</time>
      </trkpt>
      <trkpt lat="44.3913" lon="6.91561">
        <ele>1924.22</ele>
        <time>2017-03-22T12:17:46Z</time>
      </trkpt>
      <trkpt lat="44.39128" lon="6.91561">
        <ele>1924.22</ele>
        <time>2017-03-22T12:17:57Z</time>
      </trkpt>
      <trkpt lat="44.3912" lon="6.91586">
        <ele>1921.33</ele>
        <time>2017-03-22T12:18:05Z</time>
      </trkpt>
      <trkpt lat="44.39124" lon="6.91596">
        <ele>1918.93</ele>
        <time>2017-03-22T12:18:08Z</time>
      </trkpt>
      <trkpt lat="44.39128" lon="6.91598">
        <ele>1917.97</ele>
        <time>2017-03-22T12:18:09Z</time>
      </trkpt>
      <trkpt lat="44.39132" lon="6.916">
        <ele>1917.01</ele>
        <time>2017-03-22T12:18:10Z</time>
      </trkpt>
      <trkpt lat="44.39134" lon="6.91602">
        <ele>1916.53</ele>
        <time>2017-03-22T12:18:11Z</time>
      </trkpt>
      <trkpt lat="44.39141" lon="6.91609">
        <ele>1914.12</ele>
        <time>2017-03-22T12:18:14Z</time>
      </trkpt>
      <trkpt lat="44.39141" lon="6.9162">
        <ele>1911.72</ele>
        <time>2017-03-22T12:18:17Z</time>
      </trkpt>
      <trkpt lat="44.39141" lon="6.91623">
        <ele>1910.28</ele>
        <time>2017-03-22T12:18:18Z</time>
      </trkpt>
      <trkpt lat="44.39142" lon="6.91625">
        <ele>1909.8</ele>
        <time>2017-03-22T12:18:19Z</time>
      </trkpt>
      <trkpt lat="44.39144" lon="6.91624">
        <ele>1909.32</ele>
        <time>2017-03-22T12:18:20Z</time>
      </trkpt>
      <trkpt lat="44.39145" lon="6.91623">
        <ele>1909.32</ele>
        <time>2017-03-22T12:18:21Z</time>
      </trkpt>
      <trkpt lat="44.39141" lon="6.91618">
        <ele>1909.8</ele>
        <time>2017-03-22T12:18:36Z</time>
      </trkpt>
      <trkpt lat="44.3914" lon="6.91617">
        <ele>1910.28</ele>
        <time>2017-03-22T12:19:01Z</time>
      </trkpt>
      <trkpt lat="44.39141" lon="6.91618">
        <ele>1910.28</ele>
        <time>2017-03-22T12:19:31Z</time>
      </trkpt>
      <trkpt lat="44.3914" lon="6.91618">
        <ele>1909.8</ele>
        <time>2017-03-22T12:19:54Z</time>
      </trkpt>
      <trkpt lat="44.39141" lon="6.9162">
        <ele>1909.8</ele>
        <time>2017-03-22T12:20:19Z</time>
      </trkpt>
      <trkpt lat="44.39155" lon="6.91627">
        <ele>1907.39</ele>
        <time>2017-03-22T12:20:26Z</time>
      </trkpt>
      <trkpt lat="44.39165" lon="6.91631">
        <ele>1906.43</ele>
        <time>2017-03-22T12:20:29Z</time>
      </trkpt>
      <trkpt lat="44.39168" lon="6.91633">
        <ele>1905.47</ele>
        <time>2017-03-22T12:20:30Z</time>
      </trkpt>
      <trkpt lat="44.39173" lon="6.91636">
        <ele>1904.51</ele>
        <time>2017-03-22T12:20:32Z</time>
      </trkpt>
      <trkpt lat="44.39182" lon="6.91642">
        <ele>1903.55</ele>
        <time>2017-03-22T12:20:45Z</time>
      </trkpt>
      <trkpt lat="44.39203" lon="6.9165">
        <ele>1899.7</ele>
        <time>2017-03-22T12:20:51Z</time>
      </trkpt>
      <trkpt lat="44.39239" lon="6.9166">
        <ele>1896.82</ele>
        <time>2017-03-22T12:21:01Z</time>
      </trkpt>
      <trkpt lat="44.39243" lon="6.91662">
        <ele>1896.34</ele>
        <time>2017-03-22T12:21:02Z</time>
      </trkpt>
      <trkpt lat="44.39246" lon="6.91665">
        <ele>1895.86</ele>
        <time>2017-03-22T12:21:03Z</time>
      </trkpt>
      <trkpt lat="44.39249" lon="6.91668">
        <ele>1895.38</ele>
        <time>2017-03-22T12:21:04Z</time>
      </trkpt>
      <trkpt lat="44.39268" lon="6.91702">
        <ele>1894.42</ele>
        <time>2017-03-22T12:21:17Z</time>
      </trkpt>
      <trkpt lat="44.39278" lon="6.9172">
        <ele>1893.93</ele>
        <time>2017-03-22T12:21:29Z</time>
      </trkpt>
      <trkpt lat="44.39291" lon="6.91735">
        <ele>1893.93</ele>
        <time>2017-03-22T12:21:43Z</time>
      </trkpt>
      <trkpt lat="44.3929" lon="6.91736">
        <ele>1893.45</ele>
        <time>2017-03-22T12:22:02Z</time>
      </trkpt>
      <trkpt lat="44.39292" lon="6.91739">
        <ele>1892.97</ele>
        <time>2017-03-22T12:22:19Z</time>
      </trkpt>
      <trkpt lat="44.39291" lon="6.91738">
        <ele>1892.97</ele>
        <time>2017-03-22T12:22:42Z</time>
      </trkpt>
      <trkpt lat="44.39293" lon="6.91737">
        <ele>1893.45</ele>
        <time>2017-03-22T12:23:00Z</time>
      </trkpt>
      <trkpt lat="44.39297" lon="6.91737">
        <ele>1893.45</ele>
        <time>2017-03-22T12:23:28Z</time>
      </trkpt>
      <trkpt lat="44.3929" lon="6.91739">
        <ele>1893.45</ele>
        <time>2017-03-22T12:23:55Z</time>
      </trkpt>
      <trkpt lat="44.39291" lon="6.91737">
        <ele>1893.45</ele>
        <time>2017-03-22T12:24:17Z</time>
      </trkpt>
      <trkpt lat="44.39313" lon="6.91742">
        <ele>1891.53</ele>
        <time>2017-03-22T12:24:28Z</time>
      </trkpt>
      <trkpt lat="44.39323" lon="6.91736">
        <ele>1889.61</ele>
        <time>2017-03-22T12:24:35Z</time>
      </trkpt>
      <trkpt lat="44.39327" lon="6.91739">
        <ele>1888.65</ele>
        <time>2017-03-22T12:24:36Z</time>
      </trkpt>
      <trkpt lat="44.39329" lon="6.91742">
        <ele>1889.13</ele>
        <time>2017-03-22T12:24:37Z</time>
      </trkpt>
      <trkpt lat="44.39329" lon="6.91745">
        <ele>1889.13</ele>
        <time>2017-03-22T12:24:38Z</time>
      </trkpt>
      <trkpt lat="44.3933" lon="6.91748">
        <ele>1889.13</ele>
        <time>2017-03-22T12:24:39Z</time>
      </trkpt>
      <trkpt lat="44.3933" lon="6.9175">
        <ele>1889.13</ele>
        <time>2017-03-22T12:24:40Z</time>
      </trkpt>
      <trkpt lat="44.39332" lon="6.91757">
        <ele>1889.61</ele>
        <time>2017-03-22T12:24:52Z</time>
      </trkpt>
      <trkpt lat="44.39333" lon="6.91758">
        <ele>1888.65</ele>
        <time>2017-03-22T12:25:08Z</time>
      </trkpt>
      <trkpt lat="44.39334" lon="6.9176">
        <ele>1888.65</ele>
        <time>2017-03-22T12:25:09Z</time>
      </trkpt>
      <trkpt lat="44.39335" lon="6.91763">
        <ele>1888.17</ele>
        <time>2017-03-22T12:25:10Z</time>
      </trkpt>
      <trkpt lat="44.39337" lon="6.91765">
        <ele>1888.17</ele>
        <time>2017-03-22T12:25:11Z</time>
      </trkpt>
      <trkpt lat="44.3934" lon="6.91767">
        <ele>1887.21</ele>
        <time>2017-03-22T12:25:12Z</time>
      </trkpt>
      <trkpt lat="44.39344" lon="6.91769">
        <ele>1886.72</ele>
        <time>2017-03-22T12:25:13Z</time>
      </trkpt>
      <trkpt lat="44.39347" lon="6.91771">
        <ele>1885.76</ele>
        <time>2017-03-22T12:25:14Z</time>
      </trkpt>
      <trkpt lat="44.39352" lon="6.91772">
        <ele>1885.28</ele>
        <time>2017-03-22T12:25:15Z</time>
      </trkpt>
      <trkpt lat="44.39355" lon="6.91771">
        <ele>1884.8</ele>
        <time>2017-03-22T12:25:16Z</time>
      </trkpt>
      <trkpt lat="44.39358" lon="6.9177">
        <ele>1884.8</ele>
        <time>2017-03-22T12:25:17Z</time>
      </trkpt>
      <trkpt lat="44.3936" lon="6.91771">
        <ele>1884.32</ele>
        <time>2017-03-22T12:25:18Z</time>
      </trkpt>
      <trkpt lat="44.39363" lon="6.91773">
        <ele>1883.84</ele>
        <time>2017-03-22T12:25:19Z</time>
      </trkpt>
      <trkpt lat="44.39364" lon="6.91777">
        <ele>1882.4</ele>
        <time>2017-03-22T12:25:20Z</time>
      </trkpt>
      <trkpt lat="44.39365" lon="6.91781">
        <ele>1881.44</ele>
        <time>2017-03-22T12:25:21Z</time>
      </trkpt>
      <trkpt lat="44.39368" lon="6.91784">
        <ele>1880.96</ele>
        <time>2017-03-22T12:25:22Z</time>
      </trkpt>
      <trkpt lat="44.3937" lon="6.91787">
        <ele>1880.48</ele>
        <time>2017-03-22T12:25:23Z</time>
      </trkpt>
      <trkpt lat="44.39374" lon="6.91789">
        <ele>1880</ele>
        <time>2017-03-22T12:25:24Z</time>
      </trkpt>
      <trkpt lat="44.39377" lon="6.91789">
        <ele>1880</ele>
        <time>2017-03-22T12:25:25Z</time>
      </trkpt>
      <trkpt lat="44.39396" lon="6.91798">
        <ele>1876.15</ele>
        <time>2017-03-22T12:25:30Z</time>
      </trkpt>
      <trkpt lat="44.39409" lon="6.91807">
        <ele>1873.75</ele>
        <time>2017-03-22T12:25:34Z</time>
      </trkpt>
      <trkpt lat="44.39434" lon="6.91821">
        <ele>1870.38</ele>
        <time>2017-03-22T12:25:41Z</time>
      </trkpt>
      <trkpt lat="44.39465" lon="6.91831">
        <ele>1867.5</ele>
        <time>2017-03-22T12:25:50Z</time>
      </trkpt>
      <trkpt lat="44.39471" lon="6.91835">
        <ele>1866.06</ele>
        <time>2017-03-22T12:25:52Z</time>
      </trkpt>
      <trkpt lat="44.39474" lon="6.91839">
        <ele>1865.09</ele>
        <time>2017-03-22T12:25:53Z</time>
      </trkpt>
      <trkpt lat="44.39477" lon="6.91842">
        <ele>1864.61</ele>
        <time>2017-03-22T12:25:54Z</time>
      </trkpt>
      <trkpt lat="44.39486" lon="6.91847">
        <ele>1862.21</ele>
        <time>2017-03-22T12:25:57Z</time>
      </trkpt>
      <trkpt lat="44.3949" lon="6.91851">
        <ele>1861.73</ele>
        <time>2017-03-22T12:25:58Z</time>
      </trkpt>
      <trkpt lat="44.39493" lon="6.91852">
        <ele>1860.77</ele>
        <time>2017-03-22T12:25:59Z</time>
      </trkpt>
      <trkpt lat="44.39512" lon="6.91862">
        <ele>1857.4</ele>
        <time>2017-03-22T12:26:06Z</time>
      </trkpt>
      <trkpt lat="44.39513" lon="6.91868">
        <ele>1855.48</ele>
        <time>2017-03-22T12:26:07Z</time>
      </trkpt>
      <trkpt lat="44.39513" lon="6.91879">
        <ele>1854.04</ele>
        <time>2017-03-22T12:26:09Z</time>
      </trkpt>
      <trkpt lat="44.39514" lon="6.91884">
        <ele>1853.56</ele>
        <time>2017-03-22T12:26:10Z</time>
      </trkpt>
      <trkpt lat="44.39515" lon="6.91889">
        <ele>1852.12</ele>
        <time>2017-03-22T12:26:11Z</time>
      </trkpt>
      <trkpt lat="44.39516" lon="6.91895">
        <ele>1851.64</ele>
        <time>2017-03-22T12:26:12Z</time>
      </trkpt>
      <trkpt lat="44.39518" lon="6.91901">
        <ele>1850.68</ele>
        <time>2017-03-22T12:26:13Z</time>
      </trkpt>
      <trkpt lat="44.39522" lon="6.91905">
        <ele>1849.71</ele>
        <time>2017-03-22T12:26:14Z</time>
      </trkpt>
      <trkpt lat="44.39527" lon="6.91909">
        <ele>1848.75</ele>
        <time>2017-03-22T12:26:15Z</time>
      </trkpt>
      <trkpt lat="44.39531" lon="6.91911">
        <ele>1847.79</ele>
        <time>2017-03-22T12:26:16Z</time>
      </trkpt>
      <trkpt lat="44.39534" lon="6.91913">
        <ele>1847.31</ele>
        <time>2017-03-22T12:26:17Z</time>
      </trkpt>
      <trkpt lat="44.39538" lon="6.91915">
        <ele>1846.83</ele>
        <time>2017-03-22T12:26:18Z</time>
      </trkpt>
      <trkpt lat="44.39554" lon="6.91924">
        <ele>1843.95</ele>
        <time>2017-03-22T12:26:24Z</time>
      </trkpt>
      <trkpt lat="44.39555" lon="6.91928">
        <ele>1842.98</ele>
        <time>2017-03-22T12:26:25Z</time>
      </trkpt>
      <trkpt lat="44.3956" lon="6.91936">
        <ele>1840.58</ele>
        <time>2017-03-22T12:26:27Z</time>
      </trkpt>
      <trkpt lat="44.39562" lon="6.91938">
        <ele>1839.62</ele>
        <time>2017-03-22T12:26:28Z</time>
      </trkpt>
      <trkpt lat="44.39564" lon="6.91941">
        <ele>1839.62</ele>
        <time>2017-03-22T12:26:29Z</time>
      </trkpt>
      <trkpt lat="44.39566" lon="6.91944">
        <ele>1838.66</ele>
        <time>2017-03-22T12:26:30Z</time>
      </trkpt>
      <trkpt lat="44.39569" lon="6.91946">
        <ele>1837.22</ele>
        <time>2017-03-22T12:26:31Z</time>
      </trkpt>
      <trkpt lat="44.39572" lon="6.91946">
        <ele>1836.74</ele>
        <time>2017-03-22T12:26:32Z</time>
      </trkpt>
      <trkpt lat="44.39575" lon="6.91948">
        <ele>1835.77</ele>
        <time>2017-03-22T12:26:33Z</time>
      </trkpt>
      <trkpt lat="44.39578" lon="6.9195">
        <ele>1834.81</ele>
        <time>2017-03-22T12:26:34Z</time>
      </trkpt>
      <trkpt lat="44.39581" lon="6.91951">
        <ele>1833.85</ele>
        <time>2017-03-22T12:26:35Z</time>
      </trkpt>
      <trkpt lat="44.39585" lon="6.91953">
        <ele>1832.89</ele>
        <time>2017-03-22T12:26:36Z</time>
      </trkpt>
      <trkpt lat="44.39589" lon="6.91955">
        <ele>1831.93</ele>
        <time>2017-03-22T12:26:37Z</time>
      </trkpt>
      <trkpt lat="44.39593" lon="6.91956">
        <ele>1830.97</ele>
        <time>2017-03-22T12:26:38Z</time>
      </trkpt>
      <trkpt lat="44.39596" lon="6.91957">
        <ele>1830.97</ele>
        <time>2017-03-22T12:26:39Z</time>
      </trkpt>
      <trkpt lat="44.39598" lon="6.91959">
        <ele>1830.01</ele>
        <time>2017-03-22T12:26:40Z</time>
      </trkpt>
      <trkpt lat="44.39599" lon="6.91964">
        <ele>1829.05</ele>
        <time>2017-03-22T12:26:41Z</time>
      </trkpt>
      <trkpt lat="44.39599" lon="6.91969">
        <ele>1828.56</ele>
        <time>2017-03-22T12:26:42Z</time>
      </trkpt>
      <trkpt lat="44.39599" lon="6.91974">
        <ele>1828.08</ele>
        <time>2017-03-22T12:26:43Z</time>
      </trkpt>
      <trkpt lat="44.39598" lon="6.91978">
        <ele>1827.6</ele>
        <time>2017-03-22T12:26:44Z</time>
      </trkpt>
      <trkpt lat="44.39599" lon="6.91982">
        <ele>1828.08</ele>
        <time>2017-03-22T12:26:45Z</time>
      </trkpt>
      <trkpt lat="44.396" lon="6.91985">
        <ele>1827.6</ele>
        <time>2017-03-22T12:26:46Z</time>
      </trkpt>
      <trkpt lat="44.39601" lon="6.91986">
        <ele>1827.6</ele>
        <time>2017-03-22T12:26:47Z</time>
      </trkpt>
      <trkpt lat="44.396" lon="6.91984">
        <ele>1827.6</ele>
        <time>2017-03-22T12:26:48Z</time>
      </trkpt>
      <trkpt lat="44.39598" lon="6.91983">
        <ele>1827.12</ele>
        <time>2017-03-22T12:27:04Z</time>
      </trkpt>
      <trkpt lat="44.39599" lon="6.91982">
        <ele>1827.12</ele>
        <time>2017-03-22T12:27:28Z</time>
      </trkpt>
      <trkpt lat="44.39601" lon="6.91983">
        <ele>1827.12</ele>
        <time>2017-03-22T12:27:59Z</time>
      </trkpt>
      <trkpt lat="44.39601" lon="6.91983">
        <ele>1827.12</ele>
        <time>2017-03-22T12:28:34Z</time>
      </trkpt>
      <trkpt lat="44.39602" lon="6.91984">
        <ele>1826.64</ele>
        <time>2017-03-22T12:28:59Z</time>
      </trkpt>
      <trkpt lat="44.39605" lon="6.91988">
        <ele>1826.16</ele>
        <time>2017-03-22T12:29:03Z</time>
      </trkpt>
      <trkpt lat="44.39606" lon="6.9199">
        <ele>1826.16</ele>
        <time>2017-03-22T12:29:04Z</time>
      </trkpt>
      <trkpt lat="44.39624" lon="6.9201">
        <ele>1823.28</ele>
        <time>2017-03-22T12:29:13Z</time>
      </trkpt>
      <trkpt lat="44.39627" lon="6.92012">
        <ele>1822.8</ele>
        <time>2017-03-22T12:29:14Z</time>
      </trkpt>
      <trkpt lat="44.3963" lon="6.92015">
        <ele>1821.84</ele>
        <time>2017-03-22T12:29:15Z</time>
      </trkpt>
      <trkpt lat="44.39632" lon="6.92019">
        <ele>1821.35</ele>
        <time>2017-03-22T12:29:16Z</time>
      </trkpt>
      <trkpt lat="44.39635" lon="6.92021">
        <ele>1821.35</ele>
        <time>2017-03-22T12:29:17Z</time>
      </trkpt>
      <trkpt lat="44.39638" lon="6.92023">
        <ele>1820.87</ele>
        <time>2017-03-22T12:29:18Z</time>
      </trkpt>
      <trkpt lat="44.3964" lon="6.92026">
        <ele>1820.87</ele>
        <time>2017-03-22T12:29:19Z</time>
      </trkpt>
      <trkpt lat="44.39642" lon="6.92029">
        <ele>1820.39</ele>
        <time>2017-03-22T12:29:20Z</time>
      </trkpt>
      <trkpt lat="44.39673" lon="6.92055">
        <ele>1816.55</ele>
        <time>2017-03-22T12:29:30Z</time>
      </trkpt>
      <trkpt lat="44.39685" lon="6.92065">
        <ele>1813.66</ele>
        <time>2017-03-22T12:29:34Z</time>
      </trkpt>
      <trkpt lat="44.39693" lon="6.92077">
        <ele>1810.78</ele>
        <time>2017-03-22T12:29:37Z</time>
      </trkpt>
      <trkpt lat="44.39701" lon="6.9209">
        <ele>1809.34</ele>
        <time>2017-03-22T12:29:40Z</time>
      </trkpt>
      <trkpt lat="44.39708" lon="6.92097">
        <ele>1806.94</ele>
        <time>2017-03-22T12:29:42Z</time>
      </trkpt>
      <trkpt lat="44.39724" lon="6.9212">
        <ele>1803.09</ele>
        <time>2017-03-22T12:29:47Z</time>
      </trkpt>
      <trkpt lat="44.39731" lon="6.92131">
        <ele>1801.65</ele>
        <time>2017-03-22T12:29:49Z</time>
      </trkpt>
      <trkpt lat="44.39736" lon="6.92142">
        <ele>1800.21</ele>
        <time>2017-03-22T12:29:51Z</time>
      </trkpt>
      <trkpt lat="44.39737" lon="6.92148">
        <ele>1799.24</ele>
        <time>2017-03-22T12:29:52Z</time>
      </trkpt>
      <trkpt lat="44.39739" lon="6.92153">
        <ele>1799.24</ele>
        <time>2017-03-22T12:29:53Z</time>
      </trkpt>
      <trkpt lat="44.39742" lon="6.92156">
        <ele>1798.76</ele>
        <time>2017-03-22T12:29:54Z</time>
      </trkpt>
      <trkpt lat="44.39745" lon="6.92161">
        <ele>1798.28</ele>
        <time>2017-03-22T12:29:55Z</time>
      </trkpt>
      <trkpt lat="44.39747" lon="6.92167">
        <ele>1797.32</ele>
        <time>2017-03-22T12:29:56Z</time>
      </trkpt>
      <trkpt lat="44.3975" lon="6.92173">
        <ele>1796.36</ele>
        <time>2017-03-22T12:29:57Z</time>
      </trkpt>
      <trkpt lat="44.39753" lon="6.9218">
        <ele>1795.4</ele>
        <time>2017-03-22T12:29:58Z</time>
      </trkpt>
      <trkpt lat="44.39758" lon="6.92194">
        <ele>1794.44</ele>
        <time>2017-03-22T12:30:00Z</time>
      </trkpt>
      <trkpt lat="44.39759" lon="6.92201">
        <ele>1794.92</ele>
        <time>2017-03-22T12:30:01Z</time>
      </trkpt>
      <trkpt lat="44.39761" lon="6.92215">
        <ele>1791.55</ele>
        <time>2017-03-22T12:30:03Z</time>
      </trkpt>
      <trkpt lat="44.39762" lon="6.92221">
        <ele>1790.59</ele>
        <time>2017-03-22T12:30:04Z</time>
      </trkpt>
      <trkpt lat="44.39765" lon="6.92226">
        <ele>1790.11</ele>
        <time>2017-03-22T12:30:05Z</time>
      </trkpt>
      <trkpt lat="44.39768" lon="6.92231">
        <ele>1790.11</ele>
        <time>2017-03-22T12:30:06Z</time>
      </trkpt>
      <trkpt lat="44.39775" lon="6.9224">
        <ele>1789.15</ele>
        <time>2017-03-22T12:30:08Z</time>
      </trkpt>
      <trkpt lat="44.39777" lon="6.92244">
        <ele>1788.19</ele>
        <time>2017-03-22T12:30:09Z</time>
      </trkpt>
      <trkpt lat="44.39779" lon="6.92249">
        <ele>1787.23</ele>
        <time>2017-03-22T12:30:10Z</time>
      </trkpt>
      <trkpt lat="44.39781" lon="6.92253">
        <ele>1786.75</ele>
        <time>2017-03-22T12:30:11Z</time>
      </trkpt>
      <trkpt lat="44.39783" lon="6.92257">
        <ele>1785.79</ele>
        <time>2017-03-22T12:30:12Z</time>
      </trkpt>
      <trkpt lat="44.39784" lon="6.9226">
        <ele>1785.79</ele>
        <time>2017-03-22T12:30:13Z</time>
      </trkpt>
      <trkpt lat="44.39795" lon="6.92286">
        <ele>1782.42</ele>
        <time>2017-03-22T12:30:22Z</time>
      </trkpt>
      <trkpt lat="44.39803" lon="6.92294">
        <ele>1780.5</ele>
        <time>2017-03-22T12:30:28Z</time>
      </trkpt>
      <trkpt lat="44.39803" lon="6.92295">
        <ele>1780.5</ele>
        <time>2017-03-22T12:30:29Z</time>
      </trkpt>
      <trkpt lat="44.398" lon="6.92295">
        <ele>1780.5</ele>
        <time>2017-03-22T12:30:44Z</time>
      </trkpt>
      <trkpt lat="44.39798" lon="6.92295">
        <ele>1780.02</ele>
        <time>2017-03-22T12:31:00Z</time>
      </trkpt>
      <trkpt lat="44.39797" lon="6.92295">
        <ele>1780.02</ele>
        <time>2017-03-22T12:31:21Z</time>
      </trkpt>
      <trkpt lat="44.39797" lon="6.9231">
        <ele>1779.54</ele>
        <time>2017-03-22T12:31:40Z</time>
      </trkpt>
      <trkpt lat="44.39798" lon="6.9235">
        <ele>1776.17</ele>
        <time>2017-03-22T12:31:49Z</time>
      </trkpt>
      <trkpt lat="44.39798" lon="6.92365">
        <ele>1774.73</ele>
        <time>2017-03-22T12:31:52Z</time>
      </trkpt>
      <trkpt lat="44.39797" lon="6.92414">
        <ele>1771.37</ele>
        <time>2017-03-22T12:32:03Z</time>
      </trkpt>
      <trkpt lat="44.39803" lon="6.92439">
        <ele>1768.96</ele>
        <time>2017-03-22T12:32:08Z</time>
      </trkpt>
      <trkpt lat="44.39817" lon="6.92474">
        <ele>1765.6</ele>
        <time>2017-03-22T12:32:18Z</time>
      </trkpt>
      <trkpt lat="44.3983" lon="6.9248">
        <ele>1763.2</ele>
        <time>2017-03-22T12:32:29Z</time>
      </trkpt>
      <trkpt lat="44.39831" lon="6.92481">
        <ele>1763.2</ele>
        <time>2017-03-22T12:32:31Z</time>
      </trkpt>
      <trkpt lat="44.39833" lon="6.92487">
        <ele>1762.23</ele>
        <time>2017-03-22T12:32:35Z</time>
      </trkpt>
      <trkpt lat="44.39834" lon="6.9251">
        <ele>1759.83</ele>
        <time>2017-03-22T12:32:49Z</time>
      </trkpt>
      <trkpt lat="44.39836" lon="6.92507">
        <ele>1759.35</ele>
        <time>2017-03-22T12:33:09Z</time>
      </trkpt>
      <trkpt lat="44.39837" lon="6.92506">
        <ele>1759.35</ele>
        <time>2017-03-22T12:33:33Z</time>
      </trkpt>
      <trkpt lat="44.39837" lon="6.92512">
        <ele>1758.39</ele>
        <time>2017-03-22T12:33:58Z</time>
      </trkpt>
      <trkpt lat="44.39838" lon="6.92515">
        <ele>1758.39</ele>
        <time>2017-03-22T12:34:17Z</time>
      </trkpt>
      <trkpt lat="44.3984" lon="6.92509">
        <ele>1759.35</ele>
        <time>2017-03-22T12:34:30Z</time>
      </trkpt>
      <trkpt lat="44.39841" lon="6.92507">
        <ele>1760.31</ele>
        <time>2017-03-22T12:34:48Z</time>
      </trkpt>
      <trkpt lat="44.39835" lon="6.9251">
        <ele>1758.39</ele>
        <time>2017-03-22T12:35:05Z</time>
      </trkpt>
      <trkpt lat="44.39833" lon="6.92506">
        <ele>1757.91</ele>
        <time>2017-03-22T12:35:22Z</time>
      </trkpt>
      <trkpt lat="44.39831" lon="6.92506">
        <ele>1758.39</ele>
        <time>2017-03-22T12:35:42Z</time>
      </trkpt>
      <trkpt lat="44.39831" lon="6.92503">
        <ele>1758.87</ele>
        <time>2017-03-22T12:36:10Z</time>
      </trkpt>
      <trkpt lat="44.39835" lon="6.92507">
        <ele>1758.39</ele>
        <time>2017-03-22T12:36:34Z</time>
      </trkpt>
      <trkpt lat="44.39839" lon="6.92509">
        <ele>1758.39</ele>
        <time>2017-03-22T12:36:58Z</time>
      </trkpt>
      <trkpt lat="44.39834" lon="6.92508">
        <ele>1758.39</ele>
        <time>2017-03-22T12:37:17Z</time>
      </trkpt>
      <trkpt lat="44.39834" lon="6.9251">
        <ele>1758.39</ele>
        <time>2017-03-22T12:37:42Z</time>
      </trkpt>
      <trkpt lat="44.39836" lon="6.92511">
        <ele>1758.39</ele>
        <time>2017-03-22T12:38:03Z</time>
      </trkpt>
      <trkpt lat="44.3984" lon="6.9251">
        <ele>1760.79</ele>
        <time>2017-03-22T12:38:18Z</time>
      </trkpt>
      <trkpt lat="44.39842" lon="6.92516">
        <ele>1761.27</ele>
        <time>2017-03-22T12:38:32Z</time>
      </trkpt>
      <trkpt lat="44.39841" lon="6.92514">
        <ele>1761.27</ele>
        <time>2017-03-22T12:38:53Z</time>
      </trkpt>
      <trkpt lat="44.39838" lon="6.92514">
        <ele>1761.27</ele>
        <time>2017-03-22T12:39:11Z</time>
      </trkpt>
      <trkpt lat="44.39841" lon="6.92517">
        <ele>1760.79</ele>
        <time>2017-03-22T12:39:34Z</time>
      </trkpt>
      <trkpt lat="44.39845" lon="6.9252">
        <ele>1760.79</ele>
        <time>2017-03-22T12:39:53Z</time>
      </trkpt>
      <trkpt lat="44.39844" lon="6.92518">
        <ele>1761.27</ele>
        <time>2017-03-22T12:40:10Z</time>
      </trkpt>
      <trkpt lat="44.39844" lon="6.92527">
        <ele>1760.79</ele>
        <time>2017-03-22T12:40:29Z</time>
      </trkpt>
      <trkpt lat="44.39856" lon="6.92538">
        <ele>1759.35</ele>
        <time>2017-03-22T12:40:42Z</time>
      </trkpt>
      <trkpt lat="44.39857" lon="6.92541">
        <ele>1759.35</ele>
        <time>2017-03-22T12:40:44Z</time>
      </trkpt>
      <trkpt lat="44.39857" lon="6.92543">
        <ele>1759.35</ele>
        <time>2017-03-22T12:40:45Z</time>
      </trkpt>
      <trkpt lat="44.39858" lon="6.92545">
        <ele>1758.87</ele>
        <time>2017-03-22T12:40:46Z</time>
      </trkpt>
      <trkpt lat="44.39858" lon="6.92548">
        <ele>1758.87</ele>
        <time>2017-03-22T12:40:47Z</time>
      </trkpt>
      <trkpt lat="44.39858" lon="6.92551">
        <ele>1758.39</ele>
        <time>2017-03-22T12:40:48Z</time>
      </trkpt>
      <trkpt lat="44.39858" lon="6.92554">
        <ele>1758.87</ele>
        <time>2017-03-22T12:40:49Z</time>
      </trkpt>
      <trkpt lat="44.39859" lon="6.92557">
        <ele>1758.39</ele>
        <time>2017-03-22T12:40:50Z</time>
      </trkpt>
      <trkpt lat="44.39859" lon="6.9256">
        <ele>1757.91</ele>
        <time>2017-03-22T12:40:51Z</time>
      </trkpt>
      <trkpt lat="44.3986" lon="6.92562">
        <ele>1757.91</ele>
        <time>2017-03-22T12:40:52Z</time>
      </trkpt>
      <trkpt lat="44.39862" lon="6.92564">
        <ele>1757.43</ele>
        <time>2017-03-22T12:40:53Z</time>
      </trkpt>
      <trkpt lat="44.39863" lon="6.92565">
        <ele>1757.43</ele>
        <time>2017-03-22T12:40:54Z</time>
      </trkpt>
      <trkpt lat="44.39864" lon="6.92565">
        <ele>1755.99</ele>
        <time>2017-03-22T12:41:04Z</time>
      </trkpt>
      <trkpt lat="44.39872" lon="6.92568">
        <ele>1755.5</ele>
        <time>2017-03-22T12:41:18Z</time>
      </trkpt>
      <trkpt lat="44.39877" lon="6.92574">
        <ele>1755.02</ele>
        <time>2017-03-22T12:41:30Z</time>
      </trkpt>
      <trkpt lat="44.39877" lon="6.92581">
        <ele>1755.5</ele>
        <time>2017-03-22T12:41:41Z</time>
      </trkpt>
      <trkpt lat="44.39876" lon="6.92587">
        <ele>1755.02</ele>
        <time>2017-03-22T12:41:53Z</time>
      </trkpt>
      <trkpt lat="44.39876" lon="6.92586">
        <ele>1755.02</ele>
        <time>2017-03-22T12:42:09Z</time>
      </trkpt>
      <trkpt lat="44.39875" lon="6.92587">
        <ele>1755.02</ele>
        <time>2017-03-22T12:42:30Z</time>
      </trkpt>
      <trkpt lat="44.39875" lon="6.92586">
        <ele>1754.54</ele>
        <time>2017-03-22T12:42:37Z</time>
      </trkpt>
      <trkpt lat="44.39873" lon="6.92592">
        <ele>1755.02</ele>
        <time>2017-03-22T12:42:42Z</time>
      </trkpt>
      <trkpt lat="44.39868" lon="6.92602">
        <ele>1755.5</ele>
        <time>2017-03-22T12:42:52Z</time>
      </trkpt>
      <trkpt lat="44.39865" lon="6.92617">
        <ele>1755.99</ele>
        <time>2017-03-22T12:43:05Z</time>
      </trkpt>
      <trkpt lat="44.39865" lon="6.92632">
        <ele>1755.99</ele>
        <time>2017-03-22T12:43:18Z</time>
      </trkpt>
      <trkpt lat="44.39863" lon="6.92652">
        <ele>1755.5</ele>
        <time>2017-03-22T12:43:33Z</time>
      </trkpt>
      <trkpt lat="44.3986" lon="6.92662">
        <ele>1755.5</ele>
        <time>2017-03-22T12:43:42Z</time>
      </trkpt>
      <trkpt lat="44.39853" lon="6.92678">
        <ele>1754.54</ele>
        <time>2017-03-22T12:43:58Z</time>
      </trkpt>
      <trkpt lat="44.39852" lon="6.92686">
        <ele>1753.58</ele>
        <time>2017-03-22T12:44:13Z</time>
      </trkpt>
      <trkpt lat="44.39853" lon="6.92688">
        <ele>1754.06</ele>
        <time>2017-03-22T12:44:32Z</time>
      </trkpt>
      <trkpt lat="44.39853" lon="6.92686">
        <ele>1753.1</ele>
        <time>2017-03-22T12:44:44Z</time>
      </trkpt>
      <trkpt lat="44.39853" lon="6.92683">
        <ele>1753.1</ele>
        <time>2017-03-22T12:45:08Z</time>
      </trkpt>
      <trkpt lat="44.39853" lon="6.92686">
        <ele>1752.62</ele>
        <time>2017-03-22T12:45:40Z</time>
      </trkpt>
      <trkpt lat="44.39855" lon="6.92686">
        <ele>1753.1</ele>
        <time>2017-03-22T12:46:06Z</time>
      </trkpt>
      <trkpt lat="44.39855" lon="6.92686">
        <ele>1753.1</ele>
        <time>2017-03-22T12:46:42Z</time>
      </trkpt>
      <trkpt lat="44.39854" lon="6.92686">
        <ele>1752.62</ele>
        <time>2017-03-22T12:47:10Z</time>
      </trkpt>
      <trkpt lat="44.39853" lon="6.92688">
        <ele>1753.58</ele>
        <time>2017-03-22T12:47:38Z</time>
      </trkpt>
      <trkpt lat="44.39854" lon="6.92686">
        <ele>1753.1</ele>
        <time>2017-03-22T12:47:53Z</time>
      </trkpt>
      <trkpt lat="44.39849" lon="6.92687">
        <ele>1753.58</ele>
        <time>2017-03-22T12:48:16Z</time>
      </trkpt>
      <trkpt lat="44.39849" lon="6.92685">
        <ele>1754.06</ele>
        <time>2017-03-22T12:48:34Z</time>
      </trkpt>
      <trkpt lat="44.3985" lon="6.92685">
        <ele>1754.06</ele>
        <time>2017-03-22T12:48:35Z</time>
      </trkpt>
    </trkseg>
  </trk>
</gpx>